Darstellungsparameter: Aktuell verwendete Einstellungen:
Skalierung der Graphiken ... ?
xyx+y,   Skalierungsfaktor:      Skalierung: Modus: x, Faktor: 1
Darstellungszeitraum ... ?
Vom - - bis: - -   Zeitraum: 07.12.2013 - 06.06.2014
Min/Max/Avg-Anzeige ... ?
Zeige MMA aktuell
Zeige MMA Monat
Zeige MMA alles
Zeige --A aktuell
Zeige --A Monat
Zeige --A alles
Keine MMA-Anzeige
MMA:
Keine MMA-Graphiken
MMA-Basis: 07.12.2013 - 06.06.2014
Quicknavigation für Darstellung... ?
Tage:      1T, 2T, 3T, 5T -1T -2T -3T -5T +1T +2T +3T +5T
Wochen: 1W, 2W, 3W -1W -2W -3W +1W +2W +3W
Monate: 1M, 3M, 6M -1M -3M -6M +1M +3M +6M
Jahre:    1J, 3J, 5J, 10J -1J -3J -5J -10J +1J +3J +5J +10J
Nutze für die Darstellung ... ?
Originaldaten oder Mittelwerte auf ...
Stundenbasis Tagesbasis Wochenbasis
Monatsbasis Jahresbasis      Datenbasis: Original-Daten
Darstellen als:
Statistik (Auto) Statistik J:M      Darstellung:
Zur Graphik,    zurück zur Übersicht aller Sensoren.
 
Tabellarische Datenbersicht: ?
 
Sensor: Nr:Datum:Temp:Abs-Feuchte:Windchill:Wind:
Aussen-T/F 1 07-12-2013 00:00:00 3.3 C 4.79 g/m*3 0.7 C 9.7 km/h
2 07-12-2013 00:05:00 3.3 C 4.79 g/m*3 0.7 C 9.7 km/h
3 07-12-2013 00:10:00 3.3 C 4.79 g/m*3 1.11 C 8.1 km/h
4 07-12-2013 00:15:00 3.3 C 4.73 g/m*3 0.7 C 9.7 km/h
5 07-12-2013 00:20:00 3.3 C 4.79 g/m*3 0.7 C 9.7 km/h
6 07-12-2013 00:25:00 3.3 C 4.73 g/m*3 0.7 C 9.7 km/h
7 07-12-2013 00:30:00 3.3 C 4.73 g/m*3 1.11 C 8.1 km/h
8 07-12-2013 00:35:00 3.3 C 4.73 g/m*3 0.34 C 11.3 km/h
9 07-12-2013 00:40:00 3.3 C 4.67 g/m*3 0.34 C 11.3 km/h
10 07-12-2013 00:45:00 3.4 C 4.7 g/m*3 1.23 C 8.1 km/h
11 07-12-2013 00:50:00 3.4 C 4.7 g/m*3 0.46 C 11.3 km/h
12 07-12-2013 00:55:00 3.4 C 4.7 g/m*3 0.82 C 9.7 km/h
13 07-12-2013 01:00:00 3.4 C 4.7 g/m*3 0.46 C 11.3 km/h
14 07-12-2013 01:05:00 3.4 C 4.7 g/m*3 0.82 C 9.7 km/h
15 07-12-2013 01:10:00 3.5 C 4.73 g/m*3 -0.02 C 14.5 km/h
16 07-12-2013 01:15:00 3.5 C 4.73 g/m*3 -0.02 C 14.5 km/h
17 07-12-2013 01:20:00 3.5 C 4.73 g/m*3 0.94 C 9.7 km/h
18 07-12-2013 01:25:00 3.4 C 4.7 g/m*3 0.82 C 9.7 km/h
19 07-12-2013 01:30:00 3.4 C 4.7 g/m*3 1.23 C 8.1 km/h
20 07-12-2013 01:35:00 3.3 C 4.73 g/m*3 0.02 C 12.9 km/h
21 07-12-2013 01:40:00 3.2 C 4.76 g/m*3 3.2 C 4.8 km/h
22 07-12-2013 01:45:00 3.2 C 4.76 g/m*3 0.99 C 8.1 km/h
23 07-12-2013 01:50:00 3.2 C 4.76 g/m*3 3.2 C 4.8 km/h
24 07-12-2013 01:55:00 3.2 C 4.76 g/m*3 0.99 C 8.1 km/h
25 07-12-2013 02:00:00 3.2 C 4.76 g/m*3 1.51 C 6.4 km/h
Sensor: Nr:Datum:Temp:Abs-Feuchte:Windchill:Wind:
Aussen-T/F 26 07-12-2013 02:05:00 3.2 C 4.76 g/m*3 0.58 C 9.7 km/h
27 07-12-2013 02:10:00 3.2 C 4.76 g/m*3 0.99 C 8.1 km/h
28 07-12-2013 02:15:00 3.2 C 4.76 g/m*3 3.2 C 4.8 km/h
29 07-12-2013 02:20:00 3.2 C 4.76 g/m*3 1.51 C 6.4 km/h
30 07-12-2013 02:25:00 3.1 C 4.79 g/m*3 3.1 C 4.8 km/h
31 07-12-2013 02:30:00 3.1 C 4.73 g/m*3 0.1 C 11.3 km/h
32 07-12-2013 02:35:00 3.1 C 4.73 g/m*3 0.87 C 8.1 km/h
33 07-12-2013 02:40:00 2.9 C 4.72 g/m*3 2.9 C 4.8 km/h
34 07-12-2013 02:45:00 2.8 C 4.69 g/m*3 1.05 C 6.4 km/h
35 07-12-2013 02:50:00 2.9 C 4.72 g/m*3 0.22 C 9.7 km/h
36 07-12-2013 02:55:00 2.9 C 4.72 g/m*3 0.64 C 8.1 km/h
37 07-12-2013 03:00:00 3.1 C 4.79 g/m*3 3.1 C 4.8 km/h
38 07-12-2013 03:05:00 3 C 4.76 g/m*3 3 C 4.8 km/h
39 07-12-2013 03:10:00 3.1 C 4.79 g/m*3 3.1 C 4.8 km/h
40 07-12-2013 03:15:00 2.9 C 4.78 g/m*3 0.64 C 8.1 km/h
41 07-12-2013 03:20:00 3 C 4.82 g/m*3 0.34 C 9.7 km/h
42 07-12-2013 03:25:00 3.1 C 4.79 g/m*3 0.46 C 9.7 km/h
43 07-12-2013 03:30:00 3.1 C 4.79 g/m*3 3.1 C 4.8 km/h
44 07-12-2013 03:35:00 3.1 C 4.79 g/m*3 1.4 C 6.4 km/h
45 07-12-2013 03:40:00 3.2 C 4.76 g/m*3 0.58 C 9.7 km/h
46 07-12-2013 03:45:00 3.2 C 4.76 g/m*3 0.99 C 8.1 km/h
47 07-12-2013 03:50:00 3.2 C 4.76 g/m*3 3.2 C 4.8 km/h
48 07-12-2013 03:55:00 3.2 C 4.76 g/m*3 0.99 C 8.1 km/h
49 07-12-2013 04:00:00 3.3 C 4.73 g/m*3 0.7 C 9.7 km/h
50 07-12-2013 04:05:00 3.3 C 4.73 g/m*3 0.7 C 9.7 km/h
Sensor: Nr:Datum:Temp:Abs-Feuchte:Windchill:Wind:
Aussen-T/F 51 07-12-2013 04:10:00 3.4 C 4.76 g/m*3 1.23 C 8.1 km/h
52 07-12-2013 04:15:00 3.4 C 4.83 g/m*3 3.4 C 4.8 km/h
53 07-12-2013 04:20:00 3.3 C 4.73 g/m*3 1.63 C 6.4 km/h
54 07-12-2013 04:25:00 3.4 C 4.83 g/m*3 3.4 C 4.8 km/h
55 07-12-2013 04:30:00 3.4 C 4.83 g/m*3 1.75 C 6.4 km/h
56 07-12-2013 04:35:00 3.4 C 4.83 g/m*3 0.46 C 11.3 km/h
57 07-12-2013 04:40:00 3.4 C 4.76 g/m*3 1.75 C 6.4 km/h
58 07-12-2013 04:45:00 3.4 C 4.76 g/m*3 0.82 C 9.7 km/h
59 07-12-2013 04:50:00 3.4 C 4.76 g/m*3 0.82 C 9.7 km/h
60 07-12-2013 04:55:00 3.4 C 4.76 g/m*3 3.4 C 4.8 km/h
61 07-12-2013 05:00:00 3.4 C 4.7 g/m*3 0.82 C 9.7 km/h
62 07-12-2013 05:05:00 3.4 C 4.76 g/m*3 1.23 C 8.1 km/h
63 07-12-2013 05:10:00 3.4 C 4.76 g/m*3 0.46 C 11.3 km/h
64 07-12-2013 05:15:00 3.4 C 4.76 g/m*3 3.4 C 4.8 km/h
65 07-12-2013 05:20:00 3.4 C 4.76 g/m*3 3.4 C 4.8 km/h
66 07-12-2013 05:25:00 3.4 C 4.76 g/m*3 0.82 C 9.7 km/h
67 07-12-2013 05:30:00 3.4 C 4.76 g/m*3 3.4 C 4.8 km/h
68 07-12-2013 05:35:00 3.3 C 4.67 g/m*3 1.11 C 8.1 km/h
69 07-12-2013 05:40:00 3.3 C 4.73 g/m*3 3.3 C 4.8 km/h
70 07-12-2013 05:45:00 3.3 C 4.73 g/m*3 0.34 C 11.3 km/h
71 07-12-2013 05:50:00 3.2 C 4.7 g/m*3 1.51 C 6.4 km/h
72 07-12-2013 05:55:00 3.2 C 4.7 g/m*3 0.58 C 9.7 km/h
73 07-12-2013 06:00:00 3.1 C 4.73 g/m*3 3.1 C 4.8 km/h
74 07-12-2013 06:05:00 3.1 C 4.73 g/m*3 1.4 C 6.4 km/h
75 07-12-2013 06:10:00 3.1 C 4.73 g/m*3 1.4 C 6.4 km/h
Sensor: Nr:Datum:Temp:Abs-Feuchte:Windchill:Wind:
Aussen-T/F 76 07-12-2013 06:15:00 3 C 4.7 g/m*3 3 C 4.8 km/h
77 07-12-2013 06:20:00 2.9 C 4.67 g/m*3 0.22 C 9.7 km/h
78 07-12-2013 06:25:00 2.9 C 4.67 g/m*3 1.17 C 6.4 km/h
79 07-12-2013 06:30:00 2.8 C 4.63 g/m*3 -0.26 C 11.3 km/h
80 07-12-2013 06:35:00 2.8 C 4.63 g/m*3 -0.26 C 11.3 km/h
81 07-12-2013 06:40:00 2.8 C 4.63 g/m*3 0.52 C 8.1 km/h
82 07-12-2013 06:45:00 2.8 C 4.69 g/m*3 0.1 C 9.7 km/h
83 07-12-2013 06:50:00 2.8 C 4.69 g/m*3 -0.26 C 11.3 km/h
84 07-12-2013 06:55:00 2.8 C 4.69 g/m*3 -0.26 C 11.3 km/h
85 07-12-2013 07:00:00 2.8 C 4.69 g/m*3 0.1 C 9.7 km/h
86 07-12-2013 07:05:00 2.8 C 4.69 g/m*3 0.1 C 9.7 km/h
87 07-12-2013 07:10:00 2.8 C 4.69 g/m*3 0.1 C 9.7 km/h
88 07-12-2013 07:15:00 2.8 C 4.69 g/m*3 1.05 C 6.4 km/h
89 07-12-2013 07:20:00 2.8 C 4.69 g/m*3 0.52 C 8.1 km/h
90 07-12-2013 07:25:00 2.7 C 4.72 g/m*3 -0.71 C 12.9 km/h
91 07-12-2013 07:30:00 2.7 C 4.72 g/m*3 -0.02 C 9.7 km/h
92 07-12-2013 07:35:00 2.7 C 4.78 g/m*3 0.4 C 8.1 km/h
93 07-12-2013 07:40:00 2.7 C 4.72 g/m*3 -0.02 C 9.7 km/h
94 07-12-2013 07:45:00 2.7 C 4.72 g/m*3 -0.38 C 11.3 km/h
95 07-12-2013 07:50:00 2.7 C 4.78 g/m*3 -0.02 C 9.7 km/h
96 07-12-2013 07:55:00 2.7 C 4.78 g/m*3 -0.02 C 9.7 km/h
97 07-12-2013 08:00:00 2.7 C 4.78 g/m*3 2.7 C 4.8 km/h
98 07-12-2013 08:05:00 2.8 C 4.81 g/m*3 -0.88 C 14.5 km/h
99 07-12-2013 08:10:00 2.8 C 4.81 g/m*3 0.1 C 9.7 km/h
100 07-12-2013 08:15:00 2.8 C 4.87 g/m*3 0.52 C 8.1 km/h
Sensor: Nr:Datum:Temp:Abs-Feuchte:Windchill:Wind:
Aussen-T/F 101 07-12-2013 08:20:00 2.8 C 4.81 g/m*3 0.52 C 8.1 km/h
102 07-12-2013 08:25:00 2.8 C 4.87 g/m*3 1.05 C 6.4 km/h
103 07-12-2013 08:30:00 2.8 C 4.87 g/m*3 2.8 C 4.8 km/h
104 07-12-2013 08:35:00 2.8 C 4.87 g/m*3 2.8 C 4.8 km/h
105 07-12-2013 08:40:00 2.8 C 4.87 g/m*3 0.1 C 9.7 km/h
106 07-12-2013 08:45:00 2.9 C 4.96 g/m*3 0.22 C 9.7 km/h
107 07-12-2013 08:50:00 2.8 C 4.93 g/m*3 1.05 C 6.4 km/h
108 07-12-2013 08:55:00 2.8 C 4.99 g/m*3 1.05 C 6.4 km/h
109 07-12-2013 09:00:00 2.8 C 5.04 g/m*3 1.05 C 6.4 km/h
110 07-12-2013 09:05:00 2.7 C 5.07 g/m*3 -0.02 C 9.7 km/h
111 07-12-2013 09:10:00 2.6 C 5.09 g/m*3 0.29 C 8.1 km/h
112 07-12-2013 09:15:00 2.6 C 5.15 g/m*3 0.82 C 6.4 km/h
113 07-12-2013 09:20:00 2.5 C 5.12 g/m*3 -0.26 C 9.7 km/h
114 07-12-2013 09:25:00 2.4 C 5.14 g/m*3 0.59 C 6.4 km/h
115 07-12-2013 09:30:00 2.4 C 5.14 g/m*3 2.4 C 4.8 km/h
116 07-12-2013 09:35:00 2.5 C 5.23 g/m*3 2.5 C 3.2 km/h
117 07-12-2013 09:40:00 2.4 C 5.2 g/m*3 2.4 C 3.2 km/h
118 07-12-2013 09:45:00 2.5 C 5.29 g/m*3 2.5 C 4.8 km/h
119 07-12-2013 09:50:00 2.5 C 5.29 g/m*3 2.5 C 3.2 km/h
120 07-12-2013 09:55:00 2.5 C 5.29 g/m*3 2.5 C 3.2 km/h
121 07-12-2013 10:00:00 2.6 C 5.32 g/m*3 2.6 C 1.6 km/h
122 07-12-2013 10:05:00 2.6 C 5.32 g/m*3 2.6 C 1.6 km/h
123 07-12-2013 10:10:00 2.6 C 5.32 g/m*3 2.6 C 3.2 km/h
124 07-12-2013 10:15:00 2.6 C 5.38 g/m*3 2.6 C 1.6 km/h
125 07-12-2013 10:20:00 2.6 C 5.38 g/m*3 2.6 C 1.6 km/h
Sensor: Nr:Datum:Temp:Abs-Feuchte:Windchill:Wind:
Aussen-T/F 126 07-12-2013 10:25:00 2.7 C 5.42 g/m*3 2.7 C 4.8 km/h
127 07-12-2013 10:30:00 2.7 C 5.42 g/m*3 2.7 C 1.6 km/h
128 07-12-2013 10:35:00 2.8 C 5.46 g/m*3 2.8 C 1.6 km/h
129 07-12-2013 10:40:00 2.8 C 5.46 g/m*3 2.8 C 1.6 km/h
130 07-12-2013 10:45:00 2.8 C 5.46 g/m*3 2.8 C 0 km/h
131 07-12-2013 10:50:00 2.9 C 5.49 g/m*3 2.9 C 0 km/h
132 07-12-2013 10:55:00 2.9 C 5.49 g/m*3 2.9 C 0 km/h
133 07-12-2013 11:00:00 2.9 C 5.49 g/m*3 2.9 C 0 km/h
134 07-12-2013 11:05:00 3.1 C 5.63 g/m*3 3.1 C 4.8 km/h
135 07-12-2013 11:10:00 3.1 C 5.63 g/m*3 3.1 C 1.6 km/h
136 07-12-2013 11:15:00 3.1 C 5.57 g/m*3 3.1 C 0 km/h
137 07-12-2013 11:20:00 3.1 C 5.57 g/m*3 3.1 C 0 km/h
138 07-12-2013 11:25:00 3.1 C 5.57 g/m*3 3.1 C 3.2 km/h
139 07-12-2013 11:30:00 3.2 C 5.6 g/m*3 0.99 C 8.1 km/h
140 07-12-2013 11:35:00 3.3 C 5.64 g/m*3 1.63 C 6.4 km/h
141 07-12-2013 11:40:00 3.3 C 5.64 g/m*3 1.11 C 8.1 km/h
142 07-12-2013 11:45:00 3.4 C 5.68 g/m*3 1.75 C 6.4 km/h
143 07-12-2013 11:50:00 3.6 C 5.76 g/m*3 1.46 C 8.1 km/h
144 07-12-2013 11:55:00 3.7 C 5.8 g/m*3 0.82 C 11.3 km/h
145 07-12-2013 12:00:00 3.8 C 5.77 g/m*3 0.94 C 11.3 km/h
146 07-12-2013 12:05:00 3.8 C 5.77 g/m*3 1.29 C 9.7 km/h
147 07-12-2013 12:10:00 3.9 C 5.81 g/m*3 1.41 C 9.7 km/h
148 07-12-2013 12:15:00 4.1 C 5.89 g/m*3 2.55 C 6.4 km/h
149 07-12-2013 12:20:00 4.2 C 5.86 g/m*3 1.12 C 12.9 km/h
150 07-12-2013 12:25:00 4.2 C 5.86 g/m*3 1.77 C 9.7 km/h
Sensor: Nr:Datum:Temp:Abs-Feuchte:Windchill:Wind:
Aussen-T/F 151 07-12-2013 12:30:00 4.3 C 5.9 g/m*3 1.55 C 11.3 km/h
152 07-12-2013 12:35:00 4.3 C 5.9 g/m*3 0.97 C 14.5 km/h
153 07-12-2013 12:40:00 4.3 C 5.84 g/m*3 1.55 C 11.3 km/h
154 07-12-2013 12:45:00 4.4 C 5.88 g/m*3 2.01 C 9.7 km/h
155 07-12-2013 12:50:00 4.4 C 5.94 g/m*3 2.4 C 8.1 km/h
156 07-12-2013 12:55:00 4.4 C 5.94 g/m*3 2.4 C 8.1 km/h
157 07-12-2013 13:00:00 4.6 C 6.02 g/m*3 4.6 C 4.8 km/h
158 07-12-2013 13:05:00 4.7 C 6.06 g/m*3 2.76 C 8.1 km/h
159 07-12-2013 13:10:00 4.7 C 6 g/m*3 1.73 C 12.9 km/h
160 07-12-2013 13:15:00 4.7 C 6 g/m*3 2.37 C 9.7 km/h
161 07-12-2013 13:20:00 4.8 C 6.04 g/m*3 2.15 C 11.3 km/h
162 07-12-2013 13:25:00 4.8 C 6.04 g/m*3 1.85 C 12.9 km/h
163 07-12-2013 13:30:00 4.8 C 6.04 g/m*3 1.34 C 16.1 km/h
164 07-12-2013 13:35:00 4.9 C 6.08 g/m*3 1.46 C 16.1 km/h
165 07-12-2013 13:40:00 4.9 C 6.08 g/m*3 2.61 C 9.7 km/h
166 07-12-2013 13:45:00 4.9 C 6.08 g/m*3 1.97 C 12.9 km/h
167 07-12-2013 13:50:00 4.9 C 6.08 g/m*3 2.61 C 9.7 km/h
168 07-12-2013 13:55:00 5 C 6.12 g/m*3 1.58 C 16.1 km/h
169 07-12-2013 14:00:00 5 C 6.12 g/m*3 1.58 C 16.1 km/h
170 07-12-2013 14:05:00 5.1 C 6.16 g/m*3 0.91 C 22.5 km/h
171 07-12-2013 14:10:00 5.1 C 6.16 g/m*3 2.84 C 9.7 km/h
172 07-12-2013 14:15:00 5.2 C 6.2 g/m*3 2.96 C 9.7 km/h
173 07-12-2013 14:20:00 5.2 C 6.2 g/m*3 2.63 C 11.3 km/h
174 07-12-2013 14:25:00 5.3 C 6.24 g/m*3 2.75 C 11.3 km/h
175 07-12-2013 14:30:00 5.3 C 6.17 g/m*3 2.46 C 12.9 km/h
Sensor: Nr:Datum:Temp:Abs-Feuchte:Windchill:Wind:
Aussen-T/F 176 07-12-2013 14:35:00 5.4 C 6.21 g/m*3 2.87 C 11.3 km/h
177 07-12-2013 14:40:00 5.5 C 6.25 g/m*3 1.99 C 17.7 km/h
178 07-12-2013 14:45:00 5.6 C 6.29 g/m*3 1.91 C 19.3 km/h
179 07-12-2013 14:50:00 5.7 C 6.33 g/m*3 3.56 C 9.7 km/h
180 07-12-2013 14:55:00 5.7 C 6.33 g/m*3 2.69 C 14.5 km/h
181 07-12-2013 15:00:00 5.7 C 6.33 g/m*3 2.69 C 14.5 km/h
182 07-12-2013 15:05:00 5.8 C 6.38 g/m*3 2.81 C 14.5 km/h
183 07-12-2013 15:10:00 5.8 C 6.3 g/m*3 2.81 C 14.5 km/h
184 07-12-2013 15:15:00 5.8 C 6.3 g/m*3 3.68 C 9.7 km/h
185 07-12-2013 15:20:00 5.9 C 6.35 g/m*3 2.93 C 14.5 km/h
186 07-12-2013 15:25:00 5.9 C 6.35 g/m*3 3.48 C 11.3 km/h
187 07-12-2013 15:30:00 6 C 6.39 g/m*3 3.31 C 12.9 km/h
188 07-12-2013 15:35:00 6.1 C 6.43 g/m*3 2.95 C 16.1 km/h
189 07-12-2013 15:40:00 6.1 C 6.43 g/m*3 3.72 C 11.3 km/h
190 07-12-2013 15:45:00 6.1 C 6.36 g/m*3 3.72 C 11.3 km/h
191 07-12-2013 15:50:00 6.1 C 6.43 g/m*3 3.18 C 14.5 km/h
192 07-12-2013 15:55:00 6 C 6.46 g/m*3 4.75 C 6.4 km/h
193 07-12-2013 16:00:00 5.9 C 6.42 g/m*3 3.48 C 11.3 km/h
194 07-12-2013 16:05:00 5.9 C 6.42 g/m*3 3.19 C 12.9 km/h
195 07-12-2013 16:10:00 5.9 C 6.42 g/m*3 2.93 C 14.5 km/h
196 07-12-2013 16:15:00 6 C 6.39 g/m*3 2.82 C 16.1 km/h
197 07-12-2013 16:20:00 6.1 C 6.43 g/m*3 2.95 C 16.1 km/h
198 07-12-2013 16:25:00 6 C 6.39 g/m*3 3.31 C 12.9 km/h
199 07-12-2013 16:30:00 6 C 6.39 g/m*3 4.75 C 6.4 km/h
200 07-12-2013 16:35:00 5.9 C 6.42 g/m*3 3.19 C 12.9 km/h
Sensor: Nr:Datum:Temp:Abs-Feuchte:Windchill:Wind:
Aussen-T/F 201 07-12-2013 16:40:00 5.9 C 6.42 g/m*3 3.19 C 12.9 km/h
202 07-12-2013 16:45:00 5.9 C 6.42 g/m*3 3.48 C 11.3 km/h
203 07-12-2013 16:50:00 5.9 C 6.42 g/m*3 3.8 C 9.7 km/h
204 07-12-2013 16:55:00 5.9 C 6.42 g/m*3 3.8 C 9.7 km/h
205 07-12-2013 17:00:00 5.9 C 6.42 g/m*3 4.17 C 8.1 km/h
206 07-12-2013 17:05:00 5.9 C 6.42 g/m*3 2.93 C 14.5 km/h
207 07-12-2013 17:10:00 5.9 C 6.42 g/m*3 4.63 C 6.4 km/h
208 07-12-2013 17:15:00 5.9 C 6.42 g/m*3 3.48 C 11.3 km/h
209 07-12-2013 17:20:00 5.9 C 6.42 g/m*3 2.93 C 14.5 km/h
210 07-12-2013 17:25:00 5.9 C 6.42 g/m*3 4.17 C 8.1 km/h
211 07-12-2013 17:30:00 6 C 6.46 g/m*3 3.92 C 9.7 km/h
212 07-12-2013 17:35:00 6 C 6.46 g/m*3 2.41 C 19.3 km/h
213 07-12-2013 17:40:00 6.1 C 6.5 g/m*3 3.18 C 14.5 km/h
214 07-12-2013 17:45:00 6.2 C 6.47 g/m*3 3.3 C 14.5 km/h
215 07-12-2013 17:50:00 6.2 C 6.47 g/m*3 3.3 C 14.5 km/h
216 07-12-2013 17:55:00 6.2 C 6.47 g/m*3 3.56 C 12.9 km/h
217 07-12-2013 18:00:00 6.2 C 6.47 g/m*3 4.15 C 9.7 km/h
218 07-12-2013 18:05:00 6.1 C 6.43 g/m*3 3.43 C 12.9 km/h
219 07-12-2013 18:10:00 6.1 C 6.43 g/m*3 3.72 C 11.3 km/h
220 07-12-2013 18:15:00 6 C 6.46 g/m*3 3.31 C 12.9 km/h
221 07-12-2013 18:20:00 5.9 C 6.42 g/m*3 5.9 C 4.8 km/h
222 07-12-2013 18:25:00 5.9 C 6.42 g/m*3 3.48 C 11.3 km/h
223 07-12-2013 18:30:00 6 C 6.46 g/m*3 3.92 C 9.7 km/h
224 07-12-2013 18:35:00 5.9 C 6.42 g/m*3 4.17 C 8.1 km/h
225 07-12-2013 18:40:00 5.9 C 6.42 g/m*3 3.8 C 9.7 km/h
Sensor: Nr:Datum:Temp:Abs-Feuchte:Windchill:Wind:
Aussen-T/F 226 07-12-2013 18:45:00 5.9 C 6.42 g/m*3 3.48 C 11.3 km/h
227 07-12-2013 18:50:00 5.9 C 6.42 g/m*3 3.8 C 9.7 km/h
228 07-12-2013 18:55:00 6 C 6.53 g/m*3 3.6 C 11.3 km/h
229 07-12-2013 19:00:00 6.1 C 6.5 g/m*3 2.95 C 16.1 km/h
230 07-12-2013 19:05:00 6.2 C 6.55 g/m*3 3.56 C 12.9 km/h
231 07-12-2013 19:10:00 6.2 C 6.55 g/m*3 3.84 C 11.3 km/h
232 07-12-2013 19:15:00 6.2 C 6.55 g/m*3 4.15 C 9.7 km/h
233 07-12-2013 19:20:00 6.2 C 6.55 g/m*3 4.52 C 8.1 km/h
234 07-12-2013 19:25:00 6.2 C 6.55 g/m*3 4.52 C 8.1 km/h
235 07-12-2013 19:30:00 6.1 C 6.58 g/m*3 4.04 C 9.7 km/h
236 07-12-2013 19:35:00 6.1 C 6.58 g/m*3 4.4 C 8.1 km/h
237 07-12-2013 19:40:00 6 C 6.53 g/m*3 4.75 C 6.4 km/h
238 07-12-2013 19:45:00 6.1 C 6.58 g/m*3 4.04 C 9.7 km/h
239 07-12-2013 19:50:00 6.1 C 6.58 g/m*3 4.86 C 6.4 km/h
240 07-12-2013 19:55:00 6.1 C 6.58 g/m*3 6.1 C 4.8 km/h
241 07-12-2013 20:00:00 6.1 C 6.58 g/m*3 4.04 C 9.7 km/h
242 07-12-2013 20:05:00 6.1 C 6.58 g/m*3 3.72 C 11.3 km/h
243 07-12-2013 20:10:00 6.1 C 6.5 g/m*3 4.04 C 9.7 km/h
244 07-12-2013 20:15:00 6.2 C 6.55 g/m*3 3.84 C 11.3 km/h
245 07-12-2013 20:20:00 6.2 C 6.55 g/m*3 4.52 C 8.1 km/h
246 07-12-2013 20:25:00 6.2 C 6.55 g/m*3 4.52 C 8.1 km/h
247 07-12-2013 20:30:00 6.2 C 6.55 g/m*3 4.98 C 6.4 km/h
248 07-12-2013 20:35:00 6.2 C 6.55 g/m*3 3.56 C 12.9 km/h
249 07-12-2013 20:40:00 6.3 C 6.51 g/m*3 3.43 C 14.5 km/h
250 07-12-2013 20:45:00 6.4 C 6.56 g/m*3 5.21 C 6.4 km/h
Sensor: Nr:Datum:Temp:Abs-Feuchte:Windchill:Wind:
Aussen-T/F 251 07-12-2013 20:50:00 6.4 C 6.56 g/m*3 4.08 C 11.3 km/h
252 07-12-2013 20:55:00 6.4 C 6.56 g/m*3 3.55 C 14.5 km/h
253 07-12-2013 21:00:00 6.4 C 6.56 g/m*3 4.08 C 11.3 km/h
254 07-12-2013 21:05:00 6.3 C 6.51 g/m*3 4.27 C 9.7 km/h
255 07-12-2013 21:10:00 6.3 C 6.51 g/m*3 4.27 C 9.7 km/h
256 07-12-2013 21:15:00 6.3 C 6.51 g/m*3 4.27 C 9.7 km/h
257 07-12-2013 21:20:00 6.3 C 6.51 g/m*3 5.1 C 6.4 km/h
258 07-12-2013 21:25:00 6.2 C 6.55 g/m*3 3.56 C 12.9 km/h
259 07-12-2013 21:30:00 6.2 C 6.55 g/m*3 3.56 C 12.9 km/h
260 07-12-2013 21:35:00 6.2 C 6.55 g/m*3 4.15 C 9.7 km/h
261 07-12-2013 21:40:00 6.1 C 6.5 g/m*3 6.1 C 4.8 km/h
262 07-12-2013 21:45:00 6 C 6.46 g/m*3 4.28 C 8.1 km/h
263 07-12-2013 21:50:00 6 C 6.53 g/m*3 3.6 C 11.3 km/h
264 07-12-2013 21:55:00 5.9 C 6.49 g/m*3 4.63 C 6.4 km/h
265 07-12-2013 22:00:00 6 C 6.53 g/m*3 4.28 C 8.1 km/h
266 07-12-2013 22:05:00 6.1 C 6.5 g/m*3 4.86 C 6.4 km/h
267 07-12-2013 22:10:00 6.1 C 6.5 g/m*3 3.43 C 12.9 km/h
268 07-12-2013 22:15:00 6.1 C 6.5 g/m*3 4.04 C 9.7 km/h
269 07-12-2013 22:20:00 6.1 C 6.5 g/m*3 4.4 C 8.1 km/h
270 07-12-2013 22:25:00 6.1 C 6.5 g/m*3 4.86 C 6.4 km/h
271 07-12-2013 22:30:00 6 C 6.46 g/m*3 4.28 C 8.1 km/h
272 07-12-2013 22:35:00 5.9 C 6.42 g/m*3 4.63 C 6.4 km/h
273 07-12-2013 22:40:00 5.9 C 6.49 g/m*3 3.8 C 9.7 km/h
274 07-12-2013 22:45:00 5.9 C 6.42 g/m*3 3.8 C 9.7 km/h
275 07-12-2013 22:50:00 6 C 6.46 g/m*3 3.92 C 9.7 km/h
Sensor: Nr:Datum:Temp:Abs-Feuchte:Windchill:Wind:
Aussen-T/F 276 07-12-2013 22:55:00 6 C 6.46 g/m*3 3.06 C 14.5 km/h
277 07-12-2013 23:00:00 6 C 6.46 g/m*3 3.92 C 9.7 km/h
278 07-12-2013 23:05:00 5.9 C 6.42 g/m*3 4.17 C 8.1 km/h
279 07-12-2013 23:10:00 6 C 6.46 g/m*3 4.28 C 8.1 km/h
280 07-12-2013 23:15:00 6.1 C 6.43 g/m*3 4.4 C 8.1 km/h
281 07-12-2013 23:20:00 6.1 C 6.43 g/m*3 4.86 C 6.4 km/h
282 07-12-2013 23:25:00 6.1 C 6.43 g/m*3 4.4 C 8.1 km/h
283 07-12-2013 23:30:00 6.1 C 6.43 g/m*3 3.72 C 11.3 km/h
284 07-12-2013 23:35:00 6.2 C 6.47 g/m*3 4.52 C 8.1 km/h
285 07-12-2013 23:40:00 6.1 C 6.43 g/m*3 4.86 C 6.4 km/h
286 07-12-2013 23:45:00 5.9 C 6.35 g/m*3 5.9 C 4.8 km/h
287 07-12-2013 23:50:00 5.9 C 6.35 g/m*3 4.17 C 8.1 km/h
288 07-12-2013 23:55:00 5.9 C 6.35 g/m*3 4.63 C 6.4 km/h
289 08-12-2013 00:00:00 6 C 6.39 g/m*3 3.92 C 9.7 km/h
290 08-12-2013 00:05:00 6 C 6.39 g/m*3 3.92 C 9.7 km/h
291 08-12-2013 00:10:00 5.9 C 6.35 g/m*3 3.8 C 9.7 km/h
292 08-12-2013 00:15:00 5.9 C 6.35 g/m*3 4.17 C 8.1 km/h
293 08-12-2013 00:20:00 5.9 C 6.27 g/m*3 4.17 C 8.1 km/h
294 08-12-2013 00:25:00 5.7 C 6.26 g/m*3 5.7 C 4.8 km/h
295 08-12-2013 00:30:00 5.7 C 6.26 g/m*3 3.93 C 8.1 km/h
296 08-12-2013 00:35:00 5.7 C 6.26 g/m*3 4.4 C 6.4 km/h
297 08-12-2013 00:40:00 5.7 C 6.26 g/m*3 4.4 C 6.4 km/h
298 08-12-2013 00:45:00 5.6 C 6.22 g/m*3 3.44 C 9.7 km/h
299 08-12-2013 00:50:00 5.6 C 6.22 g/m*3 4.29 C 6.4 km/h
300 08-12-2013 00:55:00 5.5 C 6.25 g/m*3 5.5 C 4.8 km/h
Sensor: Nr:Datum:Temp:Abs-Feuchte:Windchill:Wind:
Aussen-T/F 301 08-12-2013 01:00:00 5.6 C 6.29 g/m*3 4.29 C 6.4 km/h
302 08-12-2013 01:05:00 5.6 C 6.29 g/m*3 3.81 C 8.1 km/h
303 08-12-2013 01:10:00 5.5 C 6.25 g/m*3 4.17 C 6.4 km/h
304 08-12-2013 01:15:00 5.4 C 6.21 g/m*3 4.06 C 6.4 km/h
305 08-12-2013 01:20:00 5.4 C 6.21 g/m*3 5.4 C 4.8 km/h
306 08-12-2013 01:25:00 5.4 C 6.28 g/m*3 5.4 C 4.8 km/h
307 08-12-2013 01:30:00 5.5 C 6.32 g/m*3 3.7 C 8.1 km/h
308 08-12-2013 01:35:00 5.6 C 6.29 g/m*3 4.29 C 6.4 km/h
309 08-12-2013 01:40:00 5.6 C 6.29 g/m*3 4.29 C 6.4 km/h
310 08-12-2013 01:45:00 5.7 C 6.33 g/m*3 4.4 C 6.4 km/h
311 08-12-2013 01:50:00 5.6 C 6.29 g/m*3 4.29 C 6.4 km/h
312 08-12-2013 01:55:00 5.6 C 6.36 g/m*3 3.11 C 11.3 km/h
313 08-12-2013 02:00:00 5.7 C 6.4 g/m*3 3.23 C 11.3 km/h
314 08-12-2013 02:05:00 5.7 C 6.4 g/m*3 5.7 C 4.8 km/h
315 08-12-2013 02:10:00 5.7 C 6.4 g/m*3 5.7 C 4.8 km/h
316 08-12-2013 02:15:00 5.7 C 6.4 g/m*3 3.93 C 8.1 km/h
317 08-12-2013 02:20:00 5.8 C 6.45 g/m*3 4.52 C 6.4 km/h
318 08-12-2013 02:25:00 5.7 C 6.4 g/m*3 4.4 C 6.4 km/h
319 08-12-2013 02:30:00 5.6 C 6.36 g/m*3 5.6 C 3.2 km/h
320 08-12-2013 02:35:00 5.4 C 6.28 g/m*3 5.4 C 3.2 km/h
321 08-12-2013 02:40:00 5.4 C 6.35 g/m*3 5.4 C 3.2 km/h
322 08-12-2013 02:45:00 5.3 C 6.31 g/m*3 5.3 C 3.2 km/h
323 08-12-2013 02:50:00 5.2 C 6.27 g/m*3 5.2 C 3.2 km/h
324 08-12-2013 02:55:00 5.1 C 6.29 g/m*3 5.1 C 3.2 km/h
325 08-12-2013 03:00:00 5.2 C 6.33 g/m*3 5.2 C 4.8 km/h
Sensor: Nr:Datum:Temp:Abs-Feuchte:Windchill:Wind:
Aussen-T/F 326 08-12-2013 03:05:00 5.3 C 6.31 g/m*3 5.3 C 4.8 km/h
327 08-12-2013 03:10:00 5.5 C 6.39 g/m*3 3.7 C 8.1 km/h
328 08-12-2013 03:15:00 5.7 C 6.4 g/m*3 5.7 C 4.8 km/h
329 08-12-2013 03:20:00 5.8 C 6.45 g/m*3 4.05 C 8.1 km/h
330 08-12-2013 03:25:00 5.7 C 6.4 g/m*3 5.7 C 4.8 km/h
331 08-12-2013 03:30:00 5.7 C 6.33 g/m*3 5.7 C 4.8 km/h
332 08-12-2013 03:35:00 5.8 C 6.38 g/m*3 5.8 C 3.2 km/h
333 08-12-2013 03:40:00 5.8 C 6.38 g/m*3 3.68 C 9.7 km/h
334 08-12-2013 03:45:00 5.8 C 6.38 g/m*3 4.05 C 8.1 km/h
335 08-12-2013 03:50:00 5.8 C 6.3 g/m*3 5.8 C 4.8 km/h
336 08-12-2013 03:55:00 5.8 C 6.3 g/m*3 3.68 C 9.7 km/h
337 08-12-2013 04:00:00 5.9 C 6.35 g/m*3 5.9 C 4.8 km/h
338 08-12-2013 04:05:00 5.9 C 6.35 g/m*3 5.9 C 3.2 km/h
339 08-12-2013 04:10:00 5.8 C 6.3 g/m*3 5.8 C 3.2 km/h
340 08-12-2013 04:15:00 5.8 C 6.3 g/m*3 4.52 C 6.4 km/h
341 08-12-2013 04:20:00 5.8 C 6.3 g/m*3 4.05 C 8.1 km/h
342 08-12-2013 04:25:00 5.8 C 6.3 g/m*3 5.8 C 4.8 km/h
343 08-12-2013 04:30:00 5.8 C 6.3 g/m*3 5.8 C 1.6 km/h
344 08-12-2013 04:35:00 5.7 C 6.33 g/m*3 5.7 C 1.6 km/h
345 08-12-2013 04:40:00 5.6 C 6.29 g/m*3 5.6 C 0 km/h
346 08-12-2013 04:45:00 5.5 C 6.32 g/m*3 5.5 C 0 km/h
347 08-12-2013 04:50:00 5.4 C 6.28 g/m*3 5.4 C 4.8 km/h
348 08-12-2013 04:55:00 5.3 C 6.24 g/m*3 5.3 C 1.6 km/h
349 08-12-2013 05:00:00 5.3 C 6.31 g/m*3 5.3 C 0 km/h
350 08-12-2013 05:05:00 5.2 C 6.27 g/m*3 5.2 C 1.6 km/h
Sensor: Nr:Datum:Temp:Abs-Feuchte:Windchill:Wind:
Aussen-T/F 351 08-12-2013 05:10:00 5.2 C 6.27 g/m*3 5.2 C 4.8 km/h
352 08-12-2013 05:15:00 5.3 C 6.31 g/m*3 3.08 C 9.7 km/h
353 08-12-2013 05:20:00 5.5 C 6.32 g/m*3 4.17 C 6.4 km/h
354 08-12-2013 05:25:00 5.7 C 6.4 g/m*3 3.56 C 9.7 km/h
355 08-12-2013 05:30:00 5.8 C 6.38 g/m*3 4.52 C 6.4 km/h
356 08-12-2013 05:35:00 5.8 C 6.38 g/m*3 4.05 C 8.1 km/h
357 08-12-2013 05:40:00 5.9 C 6.42 g/m*3 4.63 C 6.4 km/h
358 08-12-2013 05:45:00 6 C 6.46 g/m*3 3.6 C 11.3 km/h
359 08-12-2013 05:50:00 6 C 6.46 g/m*3 6 C 4.8 km/h
360 08-12-2013 05:55:00 5.9 C 6.42 g/m*3 5.9 C 3.2 km/h
361 08-12-2013 06:00:00 5.8 C 6.45 g/m*3 5.8 C 3.2 km/h
362 08-12-2013 06:05:00 5.9 C 6.42 g/m*3 3.48 C 11.3 km/h
363 08-12-2013 06:10:00 6.1 C 6.5 g/m*3 4.4 C 8.1 km/h
364 08-12-2013 06:15:00 6.1 C 6.5 g/m*3 6.1 C 3.2 km/h
365 08-12-2013 06:20:00 6 C 6.53 g/m*3 6 C 4.8 km/h
366 08-12-2013 06:25:00 6 C 6.46 g/m*3 4.28 C 8.1 km/h
367 08-12-2013 06:30:00 6 C 6.46 g/m*3 4.75 C 6.4 km/h
368 08-12-2013 06:35:00 6 C 6.46 g/m*3 4.75 C 6.4 km/h
369 08-12-2013 06:40:00 6.1 C 6.5 g/m*3 4.4 C 8.1 km/h
370 08-12-2013 06:45:00 6.2 C 6.55 g/m*3 4.98 C 6.4 km/h
371 08-12-2013 06:50:00 6.2 C 6.55 g/m*3 4.98 C 6.4 km/h
372 08-12-2013 06:55:00 6.2 C 6.55 g/m*3 4.98 C 6.4 km/h
373 08-12-2013 07:00:00 6.1 C 6.5 g/m*3 6.1 C 4.8 km/h
374 08-12-2013 07:05:00 6.2 C 6.55 g/m*3 6.2 C 1.6 km/h
375 08-12-2013 07:10:00 6.1 C 6.5 g/m*3 4.04 C 9.7 km/h
Sensor: Nr:Datum:Temp:Abs-Feuchte:Windchill:Wind:
Aussen-T/F 376 08-12-2013 07:15:00 6.1 C 6.5 g/m*3 6.1 C 4.8 km/h
377 08-12-2013 07:20:00 6.1 C 6.5 g/m*3 4.04 C 9.7 km/h
378 08-12-2013 07:25:00 6.1 C 6.5 g/m*3 4.86 C 6.4 km/h
379 08-12-2013 07:30:00 6.1 C 6.5 g/m*3 4.4 C 8.1 km/h
380 08-12-2013 07:35:00 6.1 C 6.5 g/m*3 4.86 C 6.4 km/h
381 08-12-2013 07:40:00 6.1 C 6.5 g/m*3 4.04 C 9.7 km/h
382 08-12-2013 07:45:00 6.1 C 6.58 g/m*3 4.04 C 9.7 km/h
383 08-12-2013 07:50:00 6.1 C 6.58 g/m*3 3.72 C 11.3 km/h
384 08-12-2013 07:55:00 6.1 C 6.58 g/m*3 4.04 C 9.7 km/h
385 08-12-2013 08:00:00 6.1 C 6.58 g/m*3 2.95 C 16.1 km/h
386 08-12-2013 08:05:00 6.1 C 6.58 g/m*3 3.72 C 11.3 km/h
387 08-12-2013 08:10:00 6.1 C 6.65 g/m*3 3.43 C 12.9 km/h
388 08-12-2013 08:15:00 6 C 6.6 g/m*3 3.92 C 9.7 km/h
389 08-12-2013 08:20:00 6 C 6.6 g/m*3 3.92 C 9.7 km/h
390 08-12-2013 08:25:00 5.9 C 6.56 g/m*3 4.17 C 8.1 km/h
391 08-12-2013 08:30:00 6 C 6.6 g/m*3 4.75 C 6.4 km/h
392 08-12-2013 08:35:00 6.1 C 6.65 g/m*3 4.04 C 9.7 km/h
393 08-12-2013 08:40:00 6.1 C 6.65 g/m*3 3.72 C 11.3 km/h
394 08-12-2013 08:45:00 6.1 C 6.65 g/m*3 4.4 C 8.1 km/h
395 08-12-2013 08:50:00 6.1 C 6.65 g/m*3 4.86 C 6.4 km/h
396 08-12-2013 08:55:00 6.2 C 6.69 g/m*3 4.15 C 9.7 km/h
397 08-12-2013 09:00:00 6.2 C 6.69 g/m*3 3.84 C 11.3 km/h
398 08-12-2013 09:05:00 6.3 C 6.66 g/m*3 4.27 C 9.7 km/h
399 08-12-2013 09:10:00 6.4 C 6.63 g/m*3 4.08 C 11.3 km/h
400 08-12-2013 09:15:00 6.6 C 6.64 g/m*3 4.04 C 12.9 km/h
Sensor: Nr:Datum:Temp:Abs-Feuchte:Windchill:Wind:
Aussen-T/F 401 08-12-2013 09:20:00 6.7 C 6.69 g/m*3 5.11 C 8.1 km/h
402 08-12-2013 09:25:00 6.7 C 6.69 g/m*3 4.17 C 12.9 km/h
403 08-12-2013 09:30:00 6.7 C 6.76 g/m*3 4.17 C 12.9 km/h
404 08-12-2013 09:35:00 6.6 C 6.72 g/m*3 4.63 C 9.7 km/h
405 08-12-2013 09:40:00 6.6 C 6.64 g/m*3 4.63 C 9.7 km/h
406 08-12-2013 09:45:00 6.7 C 6.69 g/m*3 4.44 C 11.3 km/h
407 08-12-2013 09:50:00 6.7 C 6.69 g/m*3 4.17 C 12.9 km/h
408 08-12-2013 09:55:00 6.6 C 6.64 g/m*3 4.99 C 8.1 km/h
409 08-12-2013 10:00:00 6.6 C 6.72 g/m*3 4.63 C 9.7 km/h
410 08-12-2013 10:05:00 6.5 C 6.67 g/m*3 5.33 C 6.4 km/h
411 08-12-2013 10:10:00 6.4 C 6.63 g/m*3 4.75 C 8.1 km/h
412 08-12-2013 10:15:00 6.3 C 6.59 g/m*3 6.3 C 4.8 km/h
413 08-12-2013 10:20:00 6.4 C 6.71 g/m*3 5.21 C 6.4 km/h
414 08-12-2013 10:25:00 6.5 C 6.75 g/m*3 3.67 C 14.5 km/h
415 08-12-2013 10:30:00 6.7 C 6.76 g/m*3 4.17 C 12.9 km/h
416 08-12-2013 10:35:00 6.8 C 6.81 g/m*3 4.87 C 9.7 km/h
417 08-12-2013 10:40:00 7 C 6.82 g/m*3 5.11 C 9.7 km/h
418 08-12-2013 10:45:00 7.1 C 6.86 g/m*3 4.65 C 12.9 km/h
419 08-12-2013 10:50:00 7.2 C 6.91 g/m*3 5.04 C 11.3 km/h
420 08-12-2013 10:55:00 7.3 C 6.87 g/m*3 4.9 C 12.9 km/h
421 08-12-2013 11:00:00 7.4 C 6.92 g/m*3 5.28 C 11.3 km/h
422 08-12-2013 11:05:00 7.4 C 6.92 g/m*3 4.56 C 16.1 km/h
423 08-12-2013 11:10:00 7.6 C 6.93 g/m*3 5.02 C 14.5 km/h
424 08-12-2013 11:15:00 7.7 C 6.89 g/m*3 5.38 C 12.9 km/h
425 08-12-2013 11:20:00 7.7 C 6.89 g/m*3 6.28 C 8.1 km/h
Sensor: Nr:Datum:Temp:Abs-Feuchte:Windchill:Wind:
Aussen-T/F 426 08-12-2013 11:25:00 7.7 C 6.89 g/m*3 5.94 C 9.7 km/h
427 08-12-2013 11:30:00 7.8 C 7.02 g/m*3 5.51 C 12.9 km/h
428 08-12-2013 11:35:00 7.8 C 6.94 g/m*3 5.27 C 14.5 km/h
429 08-12-2013 11:40:00 7.7 C 6.97 g/m*3 4.93 C 16.1 km/h
430 08-12-2013 11:45:00 7.8 C 7.02 g/m*3 5.06 C 16.1 km/h
431 08-12-2013 11:50:00 7.8 C 7.02 g/m*3 5.27 C 14.5 km/h
432 08-12-2013 11:55:00 7.8 C 7.02 g/m*3 5.77 C 11.3 km/h
433 08-12-2013 12:00:00 7.8 C 7.02 g/m*3 6.06 C 9.7 km/h
434 08-12-2013 12:05:00 7.8 C 7.02 g/m*3 5.27 C 14.5 km/h
435 08-12-2013 12:10:00 7.8 C 7.02 g/m*3 6.06 C 9.7 km/h
436 08-12-2013 12:15:00 7.9 C 6.98 g/m*3 4.98 C 17.7 km/h
437 08-12-2013 12:20:00 7.9 C 6.98 g/m*3 5.18 C 16.1 km/h
438 08-12-2013 12:25:00 8 C 7.03 g/m*3 5.3 C 16.1 km/h
439 08-12-2013 12:30:00 8 C 7.03 g/m*3 5.75 C 12.9 km/h
440 08-12-2013 12:35:00 8 C 7.03 g/m*3 5.52 C 14.5 km/h
441 08-12-2013 12:40:00 8 C 7.03 g/m*3 5.52 C 14.5 km/h
442 08-12-2013 12:45:00 7.9 C 6.98 g/m*3 4.63 C 20.9 km/h
443 08-12-2013 12:50:00 7.9 C 6.98 g/m*3 5.39 C 14.5 km/h
444 08-12-2013 12:55:00 7.9 C 6.98 g/m*3 6.18 C 9.7 km/h
445 08-12-2013 13:00:00 7.8 C 6.94 g/m*3 5.27 C 14.5 km/h
446 08-12-2013 13:05:00 7.8 C 7.02 g/m*3 6.06 C 9.7 km/h
447 08-12-2013 13:10:00 7.8 C 7.02 g/m*3 5.77 C 11.3 km/h
448 08-12-2013 13:15:00 7.8 C 7.02 g/m*3 5.77 C 11.3 km/h
449 08-12-2013 13:20:00 7.8 C 7.02 g/m*3 6.4 C 8.1 km/h
450 08-12-2013 13:25:00 7.7 C 7.05 g/m*3 5.65 C 11.3 km/h
Sensor: Nr:Datum:Temp:Abs-Feuchte:Windchill:Wind:
Aussen-T/F 451 08-12-2013 13:30:00 7.7 C 7.05 g/m*3 5.65 C 11.3 km/h
452 08-12-2013 13:35:00 7.6 C 7.09 g/m*3 6.6 C 6.4 km/h
453 08-12-2013 13:40:00 7.6 C 7.09 g/m*3 6.6 C 6.4 km/h
454 08-12-2013 13:45:00 7.6 C 7.01 g/m*3 5.53 C 11.3 km/h
455 08-12-2013 13:50:00 7.7 C 7.05 g/m*3 5.15 C 14.5 km/h
456 08-12-2013 13:55:00 7.7 C 7.05 g/m*3 6.28 C 8.1 km/h
457 08-12-2013 14:00:00 7.7 C 7.05 g/m*3 5.65 C 11.3 km/h
458 08-12-2013 14:05:00 7.7 C 7.05 g/m*3 6.28 C 8.1 km/h
459 08-12-2013 14:10:00 7.7 C 7.14 g/m*3 5.94 C 9.7 km/h
460 08-12-2013 14:15:00 7.7 C 7.14 g/m*3 6.28 C 8.1 km/h
461 08-12-2013 14:20:00 7.7 C 7.14 g/m*3 5.65 C 11.3 km/h
462 08-12-2013 14:25:00 7.7 C 7.05 g/m*3 6.71 C 6.4 km/h
463 08-12-2013 14:30:00 7.7 C 7.05 g/m*3 6.71 C 6.4 km/h
464 08-12-2013 14:35:00 7.7 C 7.05 g/m*3 6.28 C 8.1 km/h
465 08-12-2013 14:40:00 7.7 C 6.97 g/m*3 5.38 C 12.9 km/h
466 08-12-2013 14:45:00 7.8 C 7.02 g/m*3 6.4 C 8.1 km/h
467 08-12-2013 14:50:00 7.9 C 6.98 g/m*3 5.18 C 16.1 km/h
468 08-12-2013 14:55:00 7.9 C 6.98 g/m*3 5.89 C 11.3 km/h
469 08-12-2013 15:00:00 7.9 C 6.98 g/m*3 5.89 C 11.3 km/h
470 08-12-2013 15:05:00 8 C 6.94 g/m*3 6.01 C 11.3 km/h
471 08-12-2013 15:10:00 8.1 C 6.99 g/m*3 5.64 C 14.5 km/h
472 08-12-2013 15:15:00 8.1 C 6.99 g/m*3 5.87 C 12.9 km/h
473 08-12-2013 15:20:00 8.2 C 7.03 g/m*3 5.55 C 16.1 km/h
474 08-12-2013 15:25:00 8.1 C 6.99 g/m*3 5.64 C 14.5 km/h
475 08-12-2013 15:30:00 8.1 C 6.99 g/m*3 5.64 C 14.5 km/h
Sensor: Nr:Datum:Temp:Abs-Feuchte:Windchill:Wind:
Aussen-T/F 476 08-12-2013 15:35:00 8.1 C 6.99 g/m*3 5.43 C 16.1 km/h
477 08-12-2013 15:40:00 8.1 C 6.99 g/m*3 6.75 C 8.1 km/h
478 08-12-2013 15:45:00 8.1 C 6.99 g/m*3 7.17 C 6.4 km/h
479 08-12-2013 15:50:00 8.1 C 6.99 g/m*3 5.64 C 14.5 km/h
480 08-12-2013 15:55:00 8 C 6.94 g/m*3 7.06 C 6.4 km/h
481 08-12-2013 16:00:00 8 C 7.03 g/m*3 5.52 C 14.5 km/h
482 08-12-2013 16:05:00 7.9 C 6.98 g/m*3 5.18 C 16.1 km/h
483 08-12-2013 16:10:00 7.8 C 6.94 g/m*3 5.06 C 16.1 km/h
484 08-12-2013 16:15:00 7.8 C 7.02 g/m*3 5.27 C 14.5 km/h
485 08-12-2013 16:20:00 7.8 C 7.02 g/m*3 6.06 C 9.7 km/h
486 08-12-2013 16:25:00 7.8 C 7.02 g/m*3 5.77 C 11.3 km/h
487 08-12-2013 16:30:00 7.7 C 6.97 g/m*3 5.15 C 14.5 km/h
488 08-12-2013 16:35:00 7.6 C 6.93 g/m*3 5.53 C 11.3 km/h
489 08-12-2013 16:40:00 7.5 C 6.88 g/m*3 5.41 C 11.3 km/h
490 08-12-2013 16:45:00 7.4 C 6.92 g/m*3 5.02 C 12.9 km/h
491 08-12-2013 16:50:00 7.4 C 6.92 g/m*3 5.28 C 11.3 km/h
492 08-12-2013 16:55:00 7.3 C 6.87 g/m*3 5.47 C 9.7 km/h
493 08-12-2013 17:00:00 7.3 C 6.87 g/m*3 5.16 C 11.3 km/h
494 08-12-2013 17:05:00 7.3 C 6.87 g/m*3 5.16 C 11.3 km/h
495 08-12-2013 17:10:00 7.3 C 6.87 g/m*3 4.66 C 14.5 km/h
496 08-12-2013 17:15:00 7.3 C 6.87 g/m*3 4.66 C 14.5 km/h
497 08-12-2013 17:20:00 7.2 C 6.91 g/m*3 5.04 C 11.3 km/h
498 08-12-2013 17:25:00 7.3 C 6.95 g/m*3 4.66 C 14.5 km/h
499 08-12-2013 17:30:00 7.3 C 6.95 g/m*3 4.44 C 16.1 km/h
500 08-12-2013 17:35:00 7.3 C 6.87 g/m*3 4.66 C 14.5 km/h
Sensor: Nr:Datum:Temp:Abs-Feuchte:Windchill:Wind:
Aussen-T/F 501 08-12-2013 17:40:00 7.4 C 6.92 g/m*3 4.78 C 14.5 km/h
502 08-12-2013 17:45:00 7.4 C 6.92 g/m*3 4.17 C 19.3 km/h
503 08-12-2013 17:50:00 7.4 C 6.92 g/m*3 5.28 C 11.3 km/h
504 08-12-2013 17:55:00 7.3 C 6.87 g/m*3 4.66 C 14.5 km/h
505 08-12-2013 18:00:00 7.3 C 6.87 g/m*3 5.47 C 9.7 km/h
506 08-12-2013 18:05:00 7.2 C 6.91 g/m*3 5.04 C 11.3 km/h
507 08-12-2013 18:10:00 7.3 C 6.95 g/m*3 4.66 C 14.5 km/h
508 08-12-2013 18:15:00 7.3 C 6.95 g/m*3 4.9 C 12.9 km/h
509 08-12-2013 18:20:00 7.3 C 6.95 g/m*3 4.44 C 16.1 km/h
510 08-12-2013 18:25:00 7.3 C 6.95 g/m*3 4.44 C 16.1 km/h
511 08-12-2013 18:30:00 7.3 C 6.95 g/m*3 4.9 C 12.9 km/h
512 08-12-2013 18:35:00 7.4 C 6.92 g/m*3 4.56 C 16.1 km/h
513 08-12-2013 18:40:00 7.4 C 6.92 g/m*3 4.36 C 17.7 km/h
514 08-12-2013 18:45:00 7.4 C 7 g/m*3 5.58 C 9.7 km/h
515 08-12-2013 18:50:00 7.4 C 7 g/m*3 5.02 C 12.9 km/h
516 08-12-2013 18:55:00 7.4 C 7 g/m*3 5.02 C 12.9 km/h
517 08-12-2013 19:00:00 7.5 C 7.04 g/m*3 4.9 C 14.5 km/h
518 08-12-2013 19:05:00 7.5 C 7.04 g/m*3 5.14 C 12.9 km/h
519 08-12-2013 19:10:00 7.4 C 7 g/m*3 5.02 C 12.9 km/h
520 08-12-2013 19:15:00 7.4 C 7 g/m*3 5.02 C 12.9 km/h
521 08-12-2013 19:20:00 7.4 C 7 g/m*3 5.02 C 12.9 km/h
522 08-12-2013 19:25:00 7.4 C 7 g/m*3 5.93 C 8.1 km/h
523 08-12-2013 19:30:00 7.4 C 7 g/m*3 6.37 C 6.4 km/h
524 08-12-2013 19:35:00 7.4 C 7 g/m*3 5.28 C 11.3 km/h
525 08-12-2013 19:40:00 7.3 C 6.95 g/m*3 6.25 C 6.4 km/h
Sensor: Nr:Datum:Temp:Abs-Feuchte:Windchill:Wind:
Aussen-T/F 526 08-12-2013 19:45:00 7.3 C 6.95 g/m*3 5.81 C 8.1 km/h
527 08-12-2013 19:50:00 7.3 C 6.95 g/m*3 5.16 C 11.3 km/h
528 08-12-2013 19:55:00 7.3 C 6.95 g/m*3 6.25 C 6.4 km/h
529 08-12-2013 20:00:00 7.3 C 6.95 g/m*3 4.66 C 14.5 km/h
530 08-12-2013 20:05:00 7.4 C 7 g/m*3 5.28 C 11.3 km/h
531 08-12-2013 20:10:00 7.5 C 6.96 g/m*3 5.14 C 12.9 km/h
532 08-12-2013 20:15:00 7.6 C 7.01 g/m*3 4.81 C 16.1 km/h
533 08-12-2013 20:20:00 7.7 C 6.97 g/m*3 4.93 C 16.1 km/h
534 08-12-2013 20:25:00 7.9 C 6.98 g/m*3 4.8 C 19.3 km/h
535 08-12-2013 20:30:00 7.9 C 6.98 g/m*3 5.63 C 12.9 km/h
536 08-12-2013 20:35:00 7.9 C 6.98 g/m*3 4.98 C 17.7 km/h
537 08-12-2013 20:40:00 8 C 6.94 g/m*3 4.76 C 20.9 km/h
538 08-12-2013 20:45:00 8 C 6.94 g/m*3 5.75 C 12.9 km/h
539 08-12-2013 20:50:00 8.1 C 6.99 g/m*3 5.43 C 16.1 km/h
540 08-12-2013 20:55:00 8.1 C 6.99 g/m*3 4.73 C 22.5 km/h
541 08-12-2013 21:00:00 8.1 C 6.99 g/m*3 4.73 C 22.5 km/h
542 08-12-2013 21:05:00 8.1 C 6.99 g/m*3 4.89 C 20.9 km/h
543 08-12-2013 21:10:00 8.2 C 6.95 g/m*3 5.76 C 14.5 km/h
544 08-12-2013 21:15:00 8.3 C 7 g/m*3 5.14 C 20.9 km/h
545 08-12-2013 21:20:00 8.3 C 6.91 g/m*3 4.84 C 24.1 km/h
546 08-12-2013 21:25:00 8.3 C 6.91 g/m*3 5.89 C 14.5 km/h
547 08-12-2013 21:30:00 8.3 C 7 g/m*3 5.89 C 14.5 km/h
548 08-12-2013 21:35:00 8.2 C 6.95 g/m*3 4.86 C 22.5 km/h
549 08-12-2013 21:40:00 8.2 C 6.95 g/m*3 5.36 C 17.7 km/h
550 08-12-2013 21:45:00 8.2 C 6.95 g/m*3 5.36 C 17.7 km/h
Sensor: Nr:Datum:Temp:Abs-Feuchte:Windchill:Wind:
Aussen-T/F 551 08-12-2013 21:50:00 8.2 C 6.95 g/m*3 5.36 C 17.7 km/h
552 08-12-2013 21:55:00 8.2 C 6.95 g/m*3 5.99 C 12.9 km/h
553 08-12-2013 22:00:00 8.1 C 6.91 g/m*3 5.05 C 19.3 km/h
554 08-12-2013 22:05:00 8.2 C 6.95 g/m*3 5.76 C 14.5 km/h
555 08-12-2013 22:10:00 8.1 C 6.91 g/m*3 5.64 C 14.5 km/h
556 08-12-2013 22:15:00 8.1 C 6.91 g/m*3 6.13 C 11.3 km/h
557 08-12-2013 22:20:00 8.2 C 6.95 g/m*3 4.71 C 24.1 km/h
558 08-12-2013 22:25:00 8.2 C 6.95 g/m*3 6.25 C 11.3 km/h
559 08-12-2013 22:30:00 8.2 C 6.95 g/m*3 5.55 C 16.1 km/h
560 08-12-2013 22:35:00 8.1 C 6.91 g/m*3 5.43 C 16.1 km/h
561 08-12-2013 22:40:00 8.2 C 6.95 g/m*3 5.55 C 16.1 km/h
562 08-12-2013 22:45:00 8.1 C 6.99 g/m*3 6.13 C 11.3 km/h
563 08-12-2013 22:50:00 7.9 C 6.9 g/m*3 5.63 C 12.9 km/h
564 08-12-2013 22:55:00 7.8 C 6.94 g/m*3 5.77 C 11.3 km/h
565 08-12-2013 23:00:00 7.8 C 6.94 g/m*3 6.4 C 8.1 km/h
566 08-12-2013 23:05:00 7.7 C 6.97 g/m*3 5.94 C 9.7 km/h
567 08-12-2013 23:10:00 7.7 C 6.97 g/m*3 5.38 C 12.9 km/h
568 08-12-2013 23:15:00 7.7 C 6.97 g/m*3 5.38 C 12.9 km/h
569 08-12-2013 23:20:00 7.7 C 6.97 g/m*3 5.15 C 14.5 km/h
570 08-12-2013 23:25:00 7.7 C 6.97 g/m*3 5.38 C 12.9 km/h
571 08-12-2013 23:30:00 7.8 C 6.94 g/m*3 5.27 C 14.5 km/h
572 08-12-2013 23:35:00 7.9 C 6.98 g/m*3 5.39 C 14.5 km/h
573 08-12-2013 23:40:00 8 C 6.94 g/m*3 5.11 C 17.7 km/h
574 08-12-2013 23:45:00 8.1 C 6.99 g/m*3 5.43 C 16.1 km/h
575 08-12-2013 23:50:00 8.1 C 6.99 g/m*3 5.23 C 17.7 km/h
Sensor: Nr:Datum:Temp:Abs-Feuchte:Windchill:Wind:
Aussen-T/F 576 08-12-2013 23:55:00 8.1 C 6.99 g/m*3 5.64 C 14.5 km/h
577 09-12-2013 00:00:00 8 C 7.03 g/m*3 6.3 C 9.7 km/h
578 09-12-2013 00:05:00 7.9 C 6.98 g/m*3 6.94 C 6.4 km/h
579 09-12-2013 00:10:00 7.8 C 6.94 g/m*3 5.27 C 14.5 km/h
580 09-12-2013 00:15:00 7.8 C 6.94 g/m*3 5.51 C 12.9 km/h
581 09-12-2013 00:20:00 7.8 C 6.94 g/m*3 5.27 C 14.5 km/h
582 09-12-2013 00:25:00 7.9 C 6.98 g/m*3 5.63 C 12.9 km/h
583 09-12-2013 00:30:00 7.9 C 6.98 g/m*3 5.89 C 11.3 km/h
584 09-12-2013 00:35:00 7.9 C 6.98 g/m*3 4.98 C 17.7 km/h
585 09-12-2013 00:40:00 7.9 C 6.98 g/m*3 5.39 C 14.5 km/h
586 09-12-2013 00:45:00 7.9 C 6.98 g/m*3 5.39 C 14.5 km/h
587 09-12-2013 00:50:00 8.1 C 6.99 g/m*3 5.64 C 14.5 km/h
588 09-12-2013 00:55:00 8 C 6.94 g/m*3 6.64 C 8.1 km/h
589 09-12-2013 01:00:00 7.9 C 6.9 g/m*3 5.18 C 16.1 km/h
590 09-12-2013 01:05:00 8 C 6.94 g/m*3 4.45 C 24.1 km/h
591 09-12-2013 01:10:00 8 C 6.86 g/m*3 5.52 C 14.5 km/h
592 09-12-2013 01:15:00 8 C 6.94 g/m*3 6.3 C 9.7 km/h
593 09-12-2013 01:20:00 7.9 C 6.9 g/m*3 5.63 C 12.9 km/h
594 09-12-2013 01:25:00 7.8 C 6.86 g/m*3 5.27 C 14.5 km/h
595 09-12-2013 01:30:00 7.8 C 6.86 g/m*3 5.77 C 11.3 km/h
596 09-12-2013 01:35:00 7.7 C 6.81 g/m*3 4.73 C 17.7 km/h
597 09-12-2013 01:40:00 7.7 C 6.81 g/m*3 4.93 C 16.1 km/h
598 09-12-2013 01:45:00 7.7 C 6.81 g/m*3 5.38 C 12.9 km/h
599 09-12-2013 01:50:00 7.7 C 6.81 g/m*3 5.15 C 14.5 km/h
600 09-12-2013 01:55:00 7.7 C 6.73 g/m*3 4.55 C 19.3 km/h
Sensor: Nr:Datum:Temp:Abs-Feuchte:Windchill:Wind:
Aussen-T/F 601 09-12-2013 02:00:00 7.6 C 6.69 g/m*3 6.16 C 8.1 km/h
602 09-12-2013 02:05:00 7.6 C 6.69 g/m*3 5.82 C 9.7 km/h
603 09-12-2013 02:10:00 7.6 C 6.69 g/m*3 5.02 C 14.5 km/h
604 09-12-2013 02:15:00 7.6 C 6.69 g/m*3 4.42 C 19.3 km/h
605 09-12-2013 02:20:00 7.5 C 6.64 g/m*3 5.41 C 11.3 km/h
606 09-12-2013 02:25:00 7.4 C 6.6 g/m*3 5.02 C 12.9 km/h
607 09-12-2013 02:30:00 7.4 C 6.6 g/m*3 5.28 C 11.3 km/h
608 09-12-2013 02:35:00 7.4 C 6.6 g/m*3 5.28 C 11.3 km/h
609 09-12-2013 02:40:00 7.4 C 6.6 g/m*3 5.28 C 11.3 km/h
610 09-12-2013 02:45:00 7.3 C 6.56 g/m*3 5.47 C 9.7 km/h
611 09-12-2013 02:50:00 7.3 C 6.64 g/m*3 4.9 C 12.9 km/h
612 09-12-2013 02:55:00 7.2 C 6.59 g/m*3 5.69 C 8.1 km/h
613 09-12-2013 03:00:00 7.2 C 6.59 g/m*3 5.04 C 11.3 km/h
614 09-12-2013 03:05:00 7.1 C 6.55 g/m*3 5.23 C 9.7 km/h
615 09-12-2013 03:10:00 7 C 6.51 g/m*3 4.8 C 11.3 km/h
616 09-12-2013 03:15:00 7 C 6.51 g/m*3 4.53 C 12.9 km/h
617 09-12-2013 03:20:00 6.9 C 6.47 g/m*3 6.9 C 4.8 km/h
618 09-12-2013 03:25:00 6.8 C 6.42 g/m*3 5.67 C 6.4 km/h
619 09-12-2013 03:30:00 6.7 C 6.46 g/m*3 5.11 C 8.1 km/h
620 09-12-2013 03:35:00 6.7 C 6.46 g/m*3 4.75 C 9.7 km/h
621 09-12-2013 03:40:00 6.7 C 6.38 g/m*3 4.75 C 9.7 km/h
622 09-12-2013 03:45:00 6.8 C 6.42 g/m*3 4.56 C 11.3 km/h
623 09-12-2013 03:50:00 6.8 C 6.42 g/m*3 5.22 C 8.1 km/h
624 09-12-2013 03:55:00 6.8 C 6.35 g/m*3 4.56 C 11.3 km/h
625 09-12-2013 04:00:00 6.8 C 6.35 g/m*3 5.22 C 8.1 km/h
Sensor: Nr:Datum:Temp:Abs-Feuchte:Windchill:Wind:
Aussen-T/F 626 09-12-2013 04:05:00 6.8 C 6.35 g/m*3 5.22 C 8.1 km/h
627 09-12-2013 04:10:00 6.8 C 6.35 g/m*3 4.56 C 11.3 km/h
628 09-12-2013 04:15:00 6.7 C 6.31 g/m*3 5.56 C 6.4 km/h
629 09-12-2013 04:20:00 6.7 C 6.31 g/m*3 5.11 C 8.1 km/h
630 09-12-2013 04:25:00 6.8 C 6.27 g/m*3 5.67 C 6.4 km/h
631 09-12-2013 04:30:00 6.8 C 6.27 g/m*3 5.67 C 6.4 km/h
632 09-12-2013 04:35:00 6.8 C 6.27 g/m*3 4.87 C 9.7 km/h
633 09-12-2013 04:40:00 6.8 C 6.27 g/m*3 4.56 C 11.3 km/h
634 09-12-2013 04:45:00 6.8 C 6.27 g/m*3 4.87 C 9.7 km/h
635 09-12-2013 04:50:00 6.8 C 6.27 g/m*3 4.29 C 12.9 km/h
636 09-12-2013 04:55:00 6.8 C 6.27 g/m*3 4.56 C 11.3 km/h
637 09-12-2013 05:00:00 6.9 C 6.24 g/m*3 4.68 C 11.3 km/h
638 09-12-2013 05:05:00 6.9 C 6.24 g/m*3 4.41 C 12.9 km/h
639 09-12-2013 05:10:00 6.9 C 6.24 g/m*3 4.16 C 14.5 km/h
640 09-12-2013 05:15:00 6.8 C 6.19 g/m*3 4.87 C 9.7 km/h
641 09-12-2013 05:20:00 6.8 C 6.19 g/m*3 4.56 C 11.3 km/h
642 09-12-2013 05:25:00 6.8 C 6.19 g/m*3 4.56 C 11.3 km/h
643 09-12-2013 05:30:00 6.8 C 6.19 g/m*3 5.22 C 8.1 km/h
644 09-12-2013 05:35:00 6.7 C 6.15 g/m*3 4.44 C 11.3 km/h
645 09-12-2013 05:40:00 6.7 C 6.15 g/m*3 4.75 C 9.7 km/h
646 09-12-2013 05:45:00 6.7 C 6.15 g/m*3 3.69 C 16.1 km/h
647 09-12-2013 05:50:00 6.7 C 6.15 g/m*3 4.75 C 9.7 km/h
648 09-12-2013 05:55:00 6.7 C 6.15 g/m*3 2.94 C 22.5 km/h
649 09-12-2013 06:00:00 6.7 C 6.15 g/m*3 3.48 C 17.7 km/h
650 09-12-2013 06:05:00 6.7 C 6.15 g/m*3 4.44 C 11.3 km/h
Sensor: Nr:Datum:Temp:Abs-Feuchte:Windchill:Wind:
Aussen-T/F 651 09-12-2013 06:10:00 6.7 C 6.15 g/m*3 4.44 C 11.3 km/h
652 09-12-2013 06:15:00 6.7 C 6.15 g/m*3 3.48 C 17.7 km/h
653 09-12-2013 06:20:00 6.7 C 6.08 g/m*3 4.44 C 11.3 km/h
654 09-12-2013 06:25:00 6.7 C 6.15 g/m*3 4.75 C 9.7 km/h
655 09-12-2013 06:30:00 6.7 C 6.08 g/m*3 3.11 C 20.9 km/h
656 09-12-2013 06:35:00 6.6 C 6.11 g/m*3 4.32 C 11.3 km/h
657 09-12-2013 06:40:00 6.6 C 6.11 g/m*3 3.57 C 16.1 km/h
658 09-12-2013 06:45:00 6.5 C 6.07 g/m*3 3.04 C 19.3 km/h
659 09-12-2013 06:50:00 6.5 C 6.07 g/m*3 4.87 C 8.1 km/h
660 09-12-2013 06:55:00 6.4 C 6.04 g/m*3 3.8 C 12.9 km/h
661 09-12-2013 07:00:00 6.4 C 6.04 g/m*3 4.39 C 9.7 km/h
662 09-12-2013 07:05:00 6.4 C 6.04 g/m*3 5.21 C 6.4 km/h
663 09-12-2013 07:10:00 6.3 C 6 g/m*3 4.64 C 8.1 km/h
664 09-12-2013 07:15:00 6.3 C 6 g/m*3 5.1 C 6.4 km/h
665 09-12-2013 07:20:00 6.3 C 6.07 g/m*3 4.64 C 8.1 km/h
666 09-12-2013 07:25:00 6.3 C 6.07 g/m*3 4.64 C 8.1 km/h
667 09-12-2013 07:30:00 6.2 C 6.03 g/m*3 4.15 C 9.7 km/h
668 09-12-2013 07:35:00 6.3 C 6.07 g/m*3 4.27 C 9.7 km/h
669 09-12-2013 07:40:00 6.2 C 6.03 g/m*3 6.2 C 4.8 km/h
670 09-12-2013 07:45:00 6.1 C 6.06 g/m*3 4.04 C 9.7 km/h
671 09-12-2013 07:50:00 6.2 C 6.1 g/m*3 3.84 C 11.3 km/h
672 09-12-2013 07:55:00 6.2 C 6.1 g/m*3 4.15 C 9.7 km/h
673 09-12-2013 08:00:00 6.2 C 6.03 g/m*3 3.84 C 11.3 km/h
674 09-12-2013 08:05:00 6.2 C 6.03 g/m*3 3.84 C 11.3 km/h
675 09-12-2013 08:10:00 6.3 C 6.07 g/m*3 3.96 C 11.3 km/h
Sensor: Nr:Datum:Temp:Abs-Feuchte:Windchill:Wind:
Aussen-T/F 676 09-12-2013 08:15:00 6.5 C 6.07 g/m*3 3.23 C 17.7 km/h
677 09-12-2013 08:20:00 6.6 C 6.11 g/m*3 4.99 C 8.1 km/h
678 09-12-2013 08:25:00 6.6 C 6.11 g/m*3 3.36 C 17.7 km/h
679 09-12-2013 08:30:00 6.6 C 6.11 g/m*3 4.32 C 11.3 km/h
680 09-12-2013 08:35:00 6.7 C 6.15 g/m*3 4.75 C 9.7 km/h
681 09-12-2013 08:40:00 6.7 C 6.15 g/m*3 5.11 C 8.1 km/h
682 09-12-2013 08:45:00 6.7 C 6.08 g/m*3 3.69 C 16.1 km/h
683 09-12-2013 08:50:00 6.8 C 6.12 g/m*3 4.56 C 11.3 km/h
684 09-12-2013 08:55:00 6.8 C 6.12 g/m*3 4.87 C 9.7 km/h
685 09-12-2013 09:00:00 6.8 C 6.12 g/m*3 4.56 C 11.3 km/h
686 09-12-2013 09:05:00 6.9 C 6.08 g/m*3 4.68 C 11.3 km/h
687 09-12-2013 09:10:00 6.9 C 6.08 g/m*3 4.68 C 11.3 km/h
688 09-12-2013 09:15:00 6.9 C 6.08 g/m*3 3.94 C 16.1 km/h
689 09-12-2013 09:20:00 6.9 C 6.16 g/m*3 3.94 C 16.1 km/h
690 09-12-2013 09:25:00 6.9 C 6.08 g/m*3 4.68 C 11.3 km/h
691 09-12-2013 09:30:00 6.9 C 6.16 g/m*3 3.94 C 16.1 km/h
692 09-12-2013 09:35:00 6.9 C 6.08 g/m*3 4.41 C 12.9 km/h
693 09-12-2013 09:40:00 6.9 C 6.08 g/m*3 3.54 C 19.3 km/h
694 09-12-2013 09:45:00 6.9 C 6.08 g/m*3 3.73 C 17.7 km/h
695 09-12-2013 09:50:00 7 C 6.12 g/m*3 4.29 C 14.5 km/h
696 09-12-2013 09:55:00 7.1 C 6.16 g/m*3 4.19 C 16.1 km/h
697 09-12-2013 10:00:00 7.1 C 6.16 g/m*3 4.19 C 16.1 km/h
698 09-12-2013 10:05:00 7.1 C 6.16 g/m*3 5.23 C 9.7 km/h
699 09-12-2013 10:10:00 7.2 C 6.2 g/m*3 4.53 C 14.5 km/h
700 09-12-2013 10:15:00 7.2 C 6.2 g/m*3 4.31 C 16.1 km/h
Sensor: Nr:Datum:Temp:Abs-Feuchte:Windchill:Wind:
Aussen-T/F 701 09-12-2013 10:20:00 7.3 C 6.24 g/m*3 4.9 C 12.9 km/h
702 09-12-2013 10:25:00 7.3 C 6.16 g/m*3 4.05 C 19.3 km/h
703 09-12-2013 10:30:00 7.4 C 6.2 g/m*3 4.17 C 19.3 km/h
704 09-12-2013 10:35:00 7.4 C 6.2 g/m*3 4.78 C 14.5 km/h
705 09-12-2013 10:40:00 7.4 C 6.2 g/m*3 3.68 C 24.1 km/h
706 09-12-2013 10:45:00 7.4 C 6.2 g/m*3 4.56 C 16.1 km/h
707 09-12-2013 10:50:00 7.3 C 6.16 g/m*3 4.66 C 14.5 km/h
708 09-12-2013 10:55:00 7.3 C 6.16 g/m*3 4.66 C 14.5 km/h
709 09-12-2013 11:00:00 7.3 C 6.24 g/m*3 4.23 C 17.7 km/h
710 09-12-2013 11:05:00 7.3 C 6.24 g/m*3 5.81 C 8.1 km/h
711 09-12-2013 11:10:00 7.3 C 6.24 g/m*3 5.47 C 9.7 km/h
712 09-12-2013 11:15:00 7.3 C 6.24 g/m*3 6.25 C 6.4 km/h
713 09-12-2013 11:20:00 7.4 C 6.28 g/m*3 5.58 C 9.7 km/h
714 09-12-2013 11:25:00 7.4 C 6.28 g/m*3 5.02 C 12.9 km/h
715 09-12-2013 11:30:00 7.4 C 6.36 g/m*3 5.02 C 12.9 km/h
716 09-12-2013 11:35:00 7.5 C 6.4 g/m*3 6.05 C 8.1 km/h
717 09-12-2013 11:40:00 7.6 C 6.36 g/m*3 5.02 C 14.5 km/h
718 09-12-2013 11:45:00 7.7 C 6.41 g/m*3 4.55 C 19.3 km/h
719 09-12-2013 11:50:00 7.8 C 6.45 g/m*3 5.51 C 12.9 km/h
720 09-12-2013 11:55:00 7.9 C 6.49 g/m*3 5.39 C 14.5 km/h
721 09-12-2013 12:00:00 7.9 C 6.41 g/m*3 6.52 C 8.1 km/h
722 09-12-2013 12:05:00 8.1 C 6.57 g/m*3 7.17 C 6.4 km/h
723 09-12-2013 12:10:00 8.1 C 6.57 g/m*3 7.17 C 6.4 km/h
724 09-12-2013 12:15:00 8.1 C 6.57 g/m*3 6.13 C 11.3 km/h
725 09-12-2013 12:20:00 8.2 C 6.62 g/m*3 6.87 C 8.1 km/h
Sensor: Nr:Datum:Temp:Abs-Feuchte:Windchill:Wind:
Aussen-T/F 726 09-12-2013 12:25:00 8.3 C 6.66 g/m*3 7.41 C 6.4 km/h
727 09-12-2013 12:30:00 8.3 C 6.66 g/m*3 7.41 C 6.4 km/h
728 09-12-2013 12:35:00 8.3 C 6.66 g/m*3 6.37 C 11.3 km/h
729 09-12-2013 12:40:00 8.3 C 6.74 g/m*3 6.99 C 8.1 km/h
730 09-12-2013 12:45:00 8.3 C 6.74 g/m*3 6.66 C 9.7 km/h
731 09-12-2013 12:50:00 8.3 C 6.66 g/m*3 6.66 C 9.7 km/h
732 09-12-2013 12:55:00 8.4 C 6.79 g/m*3 8.4 C 4.8 km/h
733 09-12-2013 13:00:00 8.3 C 6.74 g/m*3 8.3 C 4.8 km/h
734 09-12-2013 13:05:00 8.3 C 6.74 g/m*3 6.99 C 8.1 km/h
735 09-12-2013 13:10:00 8.4 C 6.79 g/m*3 7.52 C 6.4 km/h
736 09-12-2013 13:15:00 8.4 C 6.7 g/m*3 6.49 C 11.3 km/h
737 09-12-2013 13:20:00 8.5 C 6.74 g/m*3 6.61 C 11.3 km/h
738 09-12-2013 13:25:00 8.5 C 6.74 g/m*3 6.9 C 9.7 km/h
739 09-12-2013 13:30:00 8.5 C 6.74 g/m*3 7.22 C 8.1 km/h
740 09-12-2013 13:35:00 8.5 C 6.74 g/m*3 6.61 C 11.3 km/h
741 09-12-2013 13:40:00 8.5 C 6.66 g/m*3 6.9 C 9.7 km/h
742 09-12-2013 13:45:00 8.4 C 6.7 g/m*3 7.11 C 8.1 km/h
743 09-12-2013 13:50:00 8.3 C 6.57 g/m*3 6.99 C 8.1 km/h
744 09-12-2013 13:55:00 8.3 C 6.66 g/m*3 6.12 C 12.9 km/h
745 09-12-2013 14:00:00 8.3 C 6.66 g/m*3 6.66 C 9.7 km/h
746 09-12-2013 14:05:00 8.2 C 6.62 g/m*3 6.25 C 11.3 km/h
747 09-12-2013 14:10:00 8.1 C 6.66 g/m*3 6.75 C 8.1 km/h
748 09-12-2013 14:15:00 8 C 6.53 g/m*3 6.3 C 9.7 km/h
749 09-12-2013 14:20:00 7.9 C 6.57 g/m*3 6.52 C 8.1 km/h
750 09-12-2013 14:25:00 7.8 C 6.53 g/m*3 6.06 C 9.7 km/h
Sensor: Nr:Datum:Temp:Abs-Feuchte:Windchill:Wind:
Aussen-T/F 751 09-12-2013 14:30:00 7.8 C 6.53 g/m*3 5.51 C 12.9 km/h
752 09-12-2013 14:35:00 7.8 C 6.53 g/m*3 5.77 C 11.3 km/h
753 09-12-2013 14:40:00 7.8 C 6.53 g/m*3 5.77 C 11.3 km/h
754 09-12-2013 14:45:00 7.9 C 6.57 g/m*3 5.63 C 12.9 km/h
755 09-12-2013 14:50:00 7.9 C 6.49 g/m*3 5.63 C 12.9 km/h
756 09-12-2013 14:55:00 7.9 C 6.49 g/m*3 5.18 C 16.1 km/h
757 09-12-2013 15:00:00 8 C 6.53 g/m*3 5.75 C 12.9 km/h
758 09-12-2013 15:05:00 8 C 6.53 g/m*3 6.01 C 11.3 km/h
759 09-12-2013 15:10:00 8 C 6.53 g/m*3 6.01 C 11.3 km/h
760 09-12-2013 15:15:00 8 C 6.53 g/m*3 6.01 C 11.3 km/h
761 09-12-2013 15:20:00 7.9 C 6.49 g/m*3 6.18 C 9.7 km/h
762 09-12-2013 15:25:00 7.9 C 6.57 g/m*3 6.18 C 9.7 km/h
763 09-12-2013 15:30:00 7.8 C 6.53 g/m*3 6.4 C 8.1 km/h
764 09-12-2013 15:35:00 7.8 C 6.53 g/m*3 5.77 C 11.3 km/h
765 09-12-2013 15:40:00 7.7 C 6.57 g/m*3 6.71 C 6.4 km/h
766 09-12-2013 15:45:00 7.7 C 6.57 g/m*3 6.71 C 6.4 km/h
767 09-12-2013 15:50:00 7.6 C 6.53 g/m*3 6.6 C 6.4 km/h
768 09-12-2013 15:55:00 7.5 C 6.48 g/m*3 6.48 C 6.4 km/h
769 09-12-2013 16:00:00 7.3 C 6.48 g/m*3 6.25 C 6.4 km/h
770 09-12-2013 16:05:00 7.3 C 6.48 g/m*3 6.25 C 6.4 km/h
771 09-12-2013 16:10:00 7.1 C 6.4 g/m*3 7.1 C 4.8 km/h
772 09-12-2013 16:15:00 6.8 C 6.42 g/m*3 6.8 C 4.8 km/h
773 09-12-2013 16:20:00 6.8 C 6.42 g/m*3 6.8 C 4.8 km/h
774 09-12-2013 16:25:00 6.7 C 6.38 g/m*3 6.7 C 4.8 km/h
775 09-12-2013 16:30:00 6.6 C 6.42 g/m*3 5.44 C 6.4 km/h
Sensor: Nr:Datum:Temp:Abs-Feuchte:Windchill:Wind:
Aussen-T/F 776 09-12-2013 16:35:00 6.6 C 6.42 g/m*3 6.6 C 4.8 km/h
777 09-12-2013 16:40:00 6.6 C 6.34 g/m*3 5.44 C 6.4 km/h
778 09-12-2013 16:45:00 6.5 C 6.37 g/m*3 6.5 C 4.8 km/h
779 09-12-2013 16:50:00 6.3 C 6.29 g/m*3 6.3 C 3.2 km/h
780 09-12-2013 16:55:00 6.2 C 6.32 g/m*3 6.2 C 4.8 km/h
781 09-12-2013 17:00:00 6.2 C 6.32 g/m*3 6.2 C 4.8 km/h
782 09-12-2013 17:05:00 6.2 C 6.32 g/m*3 6.2 C 4.8 km/h
783 09-12-2013 17:10:00 6 C 6.31 g/m*3 6 C 4.8 km/h
784 09-12-2013 17:15:00 6 C 6.31 g/m*3 4.28 C 8.1 km/h
785 09-12-2013 17:20:00 6.2 C 6.4 g/m*3 6.2 C 4.8 km/h
786 09-12-2013 17:25:00 6.3 C 6.37 g/m*3 5.1 C 6.4 km/h
787 09-12-2013 17:30:00 6.5 C 6.45 g/m*3 6.5 C 3.2 km/h
788 09-12-2013 17:35:00 6.4 C 6.33 g/m*3 6.4 C 4.8 km/h
789 09-12-2013 17:40:00 6.3 C 6.37 g/m*3 6.3 C 4.8 km/h
790 09-12-2013 17:45:00 6.3 C 6.37 g/m*3 6.3 C 4.8 km/h
791 09-12-2013 17:50:00 6.2 C 6.32 g/m*3 6.2 C 4.8 km/h
792 09-12-2013 17:55:00 6.2 C 6.32 g/m*3 6.2 C 4.8 km/h
793 09-12-2013 18:00:00 6.3 C 6.37 g/m*3 6.3 C 4.8 km/h
794 09-12-2013 18:05:00 6.3 C 6.37 g/m*3 6.3 C 4.8 km/h
795 09-12-2013 18:10:00 6.2 C 6.32 g/m*3 6.2 C 4.8 km/h
796 09-12-2013 18:15:00 6 C 6.31 g/m*3 6 C 4.8 km/h
797 09-12-2013 18:20:00 5.9 C 6.27 g/m*3 5.9 C 4.8 km/h
798 09-12-2013 18:25:00 5.9 C 6.35 g/m*3 5.9 C 4.8 km/h
799 09-12-2013 18:30:00 6 C 6.31 g/m*3 6 C 4.8 km/h
800 09-12-2013 18:35:00 6.1 C 6.36 g/m*3 4.86 C 6.4 km/h
Sensor: Nr:Datum:Temp:Abs-Feuchte:Windchill:Wind:
Aussen-T/F 801 09-12-2013 18:40:00 6.2 C 6.4 g/m*3 3.3 C 14.5 km/h
802 09-12-2013 18:45:00 6.3 C 6.37 g/m*3 3.68 C 12.9 km/h
803 09-12-2013 18:50:00 6.4 C 6.33 g/m*3 5.21 C 6.4 km/h
804 09-12-2013 18:55:00 6.4 C 6.33 g/m*3 6.4 C 4.8 km/h
805 09-12-2013 19:00:00 6.3 C 6.37 g/m*3 6.3 C 3.2 km/h
806 09-12-2013 19:05:00 6.3 C 6.37 g/m*3 6.3 C 3.2 km/h
807 09-12-2013 19:10:00 6.1 C 6.36 g/m*3 6.1 C 4.8 km/h
808 09-12-2013 19:15:00 5.9 C 6.27 g/m*3 5.9 C 3.2 km/h
809 09-12-2013 19:20:00 5.6 C 6.22 g/m*3 5.6 C 1.6 km/h
810 09-12-2013 19:25:00 5.3 C 6.17 g/m*3 5.3 C 1.6 km/h
811 09-12-2013 19:30:00 5.1 C 6.09 g/m*3 5.1 C 0 km/h
812 09-12-2013 19:35:00 4.9 C 6.08 g/m*3 4.9 C 1.6 km/h
813 09-12-2013 19:40:00 4.7 C 6 g/m*3 4.7 C 0 km/h
814 09-12-2013 19:45:00 4.6 C 6.02 g/m*3 4.6 C 0 km/h
815 09-12-2013 19:50:00 4.5 C 5.98 g/m*3 4.5 C 0 km/h
816 09-12-2013 19:55:00 4.4 C 6.01 g/m*3 4.4 C 0 km/h
817 09-12-2013 20:00:00 4.3 C 5.97 g/m*3 4.3 C 0 km/h
818 09-12-2013 20:05:00 4.3 C 5.97 g/m*3 4.3 C 0 km/h
819 09-12-2013 20:10:00 4.2 C 5.93 g/m*3 4.2 C 0 km/h
820 09-12-2013 20:15:00 4.1 C 5.89 g/m*3 4.1 C 0 km/h
821 09-12-2013 20:20:00 4 C 5.91 g/m*3 4 C 0 km/h
822 09-12-2013 20:25:00 3.9 C 5.87 g/m*3 3.9 C 1.6 km/h
823 09-12-2013 20:30:00 3.9 C 5.87 g/m*3 3.9 C 0 km/h
824 09-12-2013 20:35:00 3.8 C 5.83 g/m*3 3.8 C 0 km/h
825 09-12-2013 20:40:00 3.8 C 5.9 g/m*3 3.8 C 1.6 km/h
Sensor: Nr:Datum:Temp:Abs-Feuchte:Windchill:Wind:
Aussen-T/F 826 09-12-2013 20:45:00 3.8 C 5.9 g/m*3 3.8 C 0 km/h
827 09-12-2013 20:50:00 3.8 C 5.9 g/m*3 3.8 C 0 km/h
828 09-12-2013 20:55:00 3.8 C 5.9 g/m*3 3.8 C 1.6 km/h
829 09-12-2013 21:00:00 3.8 C 5.9 g/m*3 3.8 C 0 km/h
830 09-12-2013 21:05:00 3.7 C 5.86 g/m*3 3.7 C 1.6 km/h
831 09-12-2013 21:10:00 3.7 C 5.86 g/m*3 3.7 C 1.6 km/h
832 09-12-2013 21:15:00 3.7 C 5.86 g/m*3 3.7 C 1.6 km/h
833 09-12-2013 21:20:00 3.6 C 5.82 g/m*3 3.6 C 0 km/h
834 09-12-2013 21:25:00 3.5 C 5.78 g/m*3 3.5 C 0 km/h
835 09-12-2013 21:30:00 3.4 C 5.74 g/m*3 3.4 C 0 km/h
836 09-12-2013 21:35:00 3.3 C 5.7 g/m*3 3.3 C 0 km/h
837 09-12-2013 21:40:00 3.2 C 5.66 g/m*3 3.2 C 0 km/h
838 09-12-2013 21:45:00 3.1 C 5.63 g/m*3 3.1 C 0 km/h
839 09-12-2013 21:50:00 3.1 C 5.63 g/m*3 3.1 C 0 km/h
840 09-12-2013 21:55:00 3.1 C 5.63 g/m*3 3.1 C 0 km/h
841 09-12-2013 22:00:00 3 C 5.59 g/m*3 3 C 0 km/h
842 09-12-2013 22:05:00 2.9 C 5.61 g/m*3 2.9 C 0 km/h
843 09-12-2013 22:10:00 2.9 C 5.61 g/m*3 2.9 C 0 km/h
844 09-12-2013 22:15:00 2.9 C 5.61 g/m*3 2.9 C 0 km/h
845 09-12-2013 22:20:00 2.9 C 5.61 g/m*3 2.9 C 0 km/h
846 09-12-2013 22:25:00 2.8 C 5.57 g/m*3 2.8 C 0 km/h
847 09-12-2013 22:30:00 2.8 C 5.57 g/m*3 2.8 C 0 km/h
848 09-12-2013 22:35:00 2.7 C 5.54 g/m*3 2.7 C 0 km/h
849 09-12-2013 22:40:00 2.7 C 5.54 g/m*3 2.7 C 0 km/h
850 09-12-2013 22:45:00 2.7 C 5.54 g/m*3 2.7 C 0 km/h
Sensor: Nr:Datum:Temp:Abs-Feuchte:Windchill:Wind:
Aussen-T/F 851 09-12-2013 22:50:00 2.6 C 5.5 g/m*3 2.6 C 0 km/h
852 09-12-2013 22:55:00 2.6 C 5.5 g/m*3 2.6 C 0 km/h
853 09-12-2013 23:00:00 2.6 C 5.5 g/m*3 2.6 C 0 km/h
854 09-12-2013 23:05:00 2.5 C 5.46 g/m*3 2.5 C 0 km/h
855 09-12-2013 23:10:00 2.5 C 5.52 g/m*3 2.5 C 0 km/h
856 09-12-2013 23:15:00 2.5 C 5.52 g/m*3 2.5 C 0 km/h
857 09-12-2013 23:20:00 2.4 C 5.42 g/m*3 2.4 C 0 km/h
858 09-12-2013 23:25:00 2.3 C 5.39 g/m*3 2.3 C 0 km/h
859 09-12-2013 23:30:00 2.3 C 5.39 g/m*3 2.3 C 0 km/h
860 09-12-2013 23:35:00 2.3 C 5.39 g/m*3 2.3 C 0 km/h
861 09-12-2013 23:40:00 2.2 C 5.41 g/m*3 2.2 C 0 km/h
862 09-12-2013 23:45:00 2.2 C 5.35 g/m*3 2.2 C 0 km/h
863 09-12-2013 23:50:00 2.1 C 5.31 g/m*3 2.1 C 0 km/h
864 09-12-2013 23:55:00 2.1 C 5.37 g/m*3 2.1 C 0 km/h
865 10-12-2013 00:00:00 2.1 C 5.37 g/m*3 2.1 C 0 km/h
866 10-12-2013 00:05:00 2 C 5.33 g/m*3 2 C 0 km/h
867 10-12-2013 00:10:00 2 C 5.33 g/m*3 2 C 0 km/h
868 10-12-2013 00:15:00 2.1 C 5.37 g/m*3 2.1 C 0 km/h
869 10-12-2013 00:20:00 2 C 5.33 g/m*3 2 C 0 km/h
870 10-12-2013 00:25:00 1.9 C 5.3 g/m*3 1.9 C 0 km/h
871 10-12-2013 00:30:00 1.9 C 5.3 g/m*3 1.9 C 0 km/h
872 10-12-2013 00:35:00 1.8 C 5.26 g/m*3 1.8 C 0 km/h
873 10-12-2013 00:40:00 1.8 C 5.26 g/m*3 1.8 C 0 km/h
874 10-12-2013 00:45:00 1.8 C 5.26 g/m*3 1.8 C 0 km/h
875 10-12-2013 00:50:00 1.7 C 5.23 g/m*3 1.7 C 0 km/h
Sensor: Nr:Datum:Temp:Abs-Feuchte:Windchill:Wind:
Aussen-T/F 876 10-12-2013 00:55:00 1.7 C 5.23 g/m*3 1.7 C 0 km/h
877 10-12-2013 01:00:00 1.7 C 5.23 g/m*3 1.7 C 0 km/h
878 10-12-2013 01:05:00 1.7 C 5.23 g/m*3 1.7 C 0 km/h
879 10-12-2013 01:10:00 1.7 C 5.23 g/m*3 1.7 C 0 km/h
880 10-12-2013 01:15:00 1.6 C 5.19 g/m*3 1.6 C 0 km/h
881 10-12-2013 01:20:00 1.6 C 5.19 g/m*3 1.6 C 0 km/h
882 10-12-2013 01:25:00 1.6 C 5.19 g/m*3 1.6 C 0 km/h
883 10-12-2013 01:30:00 1.7 C 5.23 g/m*3 1.7 C 1.6 km/h
884 10-12-2013 01:35:00 1.7 C 5.23 g/m*3 1.7 C 1.6 km/h
885 10-12-2013 01:40:00 1.6 C 5.19 g/m*3 1.6 C 0 km/h
886 10-12-2013 01:45:00 1.6 C 5.19 g/m*3 1.6 C 1.6 km/h
887 10-12-2013 01:50:00 1.6 C 5.19 g/m*3 1.6 C 0 km/h
888 10-12-2013 01:55:00 1.4 C 5.12 g/m*3 1.4 C 0 km/h
889 10-12-2013 02:00:00 1.4 C 5.12 g/m*3 1.4 C 0 km/h
890 10-12-2013 02:05:00 1.3 C 5.09 g/m*3 1.3 C 0 km/h
891 10-12-2013 02:10:00 1.3 C 5.09 g/m*3 1.3 C 0 km/h
892 10-12-2013 02:15:00 1.2 C 5.05 g/m*3 1.2 C 0 km/h
893 10-12-2013 02:20:00 1.2 C 5.05 g/m*3 1.2 C 0 km/h
894 10-12-2013 02:25:00 1.3 C 5.14 g/m*3 1.3 C 0 km/h
895 10-12-2013 02:30:00 1.2 C 5.1 g/m*3 1.2 C 0 km/h
896 10-12-2013 02:35:00 1.2 C 5.1 g/m*3 1.2 C 0 km/h
897 10-12-2013 02:40:00 1.2 C 5.05 g/m*3 1.2 C 0 km/h
898 10-12-2013 02:45:00 1.1 C 5.02 g/m*3 1.1 C 0 km/h
899 10-12-2013 02:50:00 1.1 C 5.02 g/m*3 1.1 C 0 km/h
900 10-12-2013 02:55:00 1 C 4.98 g/m*3 1 C 0 km/h
Sensor: Nr:Datum:Temp:Abs-Feuchte:Windchill:Wind:
Aussen-T/F 901 10-12-2013 03:00:00 1 C 5.03 g/m*3 1 C 0 km/h
902 10-12-2013 03:05:00 1 C 5.03 g/m*3 1 C 0 km/h
903 10-12-2013 03:10:00 1 C 5.03 g/m*3 1 C 0 km/h
904 10-12-2013 03:15:00 1 C 5.03 g/m*3 1 C 0 km/h
905 10-12-2013 03:20:00 1 C 5.03 g/m*3 1 C 0 km/h
906 10-12-2013 03:25:00 1 C 5.03 g/m*3 1 C 0 km/h
907 10-12-2013 03:30:00 1.1 C 5.07 g/m*3 1.1 C 0 km/h
908 10-12-2013 03:35:00 1.2 C 5.1 g/m*3 1.2 C 1.6 km/h
909 10-12-2013 03:40:00 1.3 C 5.14 g/m*3 1.3 C 0 km/h
910 10-12-2013 03:45:00 1.3 C 5.14 g/m*3 1.3 C 0 km/h
911 10-12-2013 03:50:00 1.3 C 5.14 g/m*3 1.3 C 0 km/h
912 10-12-2013 03:55:00 1.3 C 5.14 g/m*3 1.3 C 0 km/h
913 10-12-2013 04:00:00 1.3 C 5.14 g/m*3 1.3 C 0 km/h
914 10-12-2013 04:05:00 1.3 C 5.14 g/m*3 1.3 C 0 km/h
915 10-12-2013 04:10:00 1.3 C 5.14 g/m*3 1.3 C 0 km/h
916 10-12-2013 04:15:00 1.3 C 5.14 g/m*3 1.3 C 0 km/h
917 10-12-2013 04:20:00 1.3 C 5.14 g/m*3 1.3 C 0 km/h
918 10-12-2013 04:25:00 1.4 C 5.17 g/m*3 1.4 C 0 km/h
919 10-12-2013 04:30:00 1.4 C 5.17 g/m*3 1.4 C 0 km/h
920 10-12-2013 04:35:00 1.5 C 5.21 g/m*3 1.5 C 0 km/h
921 10-12-2013 04:40:00 1.6 C 5.25 g/m*3 1.6 C 1.6 km/h
922 10-12-2013 04:45:00 1.6 C 5.25 g/m*3 1.6 C 0 km/h
923 10-12-2013 04:50:00 1.6 C 5.25 g/m*3 1.6 C 0 km/h
924 10-12-2013 04:55:00 1.6 C 5.25 g/m*3 1.6 C 0 km/h
925 10-12-2013 05:00:00 1.5 C 5.21 g/m*3 1.5 C 0 km/h
Sensor: Nr:Datum:Temp:Abs-Feuchte:Windchill:Wind:
Aussen-T/F 926 10-12-2013 05:05:00 1.5 C 5.21 g/m*3 1.5 C 0 km/h
927 10-12-2013 05:10:00 1.6 C 5.25 g/m*3 1.6 C 0 km/h
928 10-12-2013 05:15:00 1.6 C 5.25 g/m*3 1.6 C 1.6 km/h
929 10-12-2013 05:20:00 1.6 C 5.25 g/m*3 1.6 C 0 km/h
930 10-12-2013 05:25:00 1.6 C 5.25 g/m*3 1.6 C 0 km/h
931 10-12-2013 05:30:00 1.6 C 5.25 g/m*3 1.6 C 0 km/h
932 10-12-2013 05:35:00 1.6 C 5.25 g/m*3 1.6 C 0 km/h
933 10-12-2013 05:40:00 1.6 C 5.25 g/m*3 1.6 C 0 km/h
934 10-12-2013 05:45:00 1.6 C 5.25 g/m*3 1.6 C 0 km/h
935 10-12-2013 05:50:00 1.7 C 5.28 g/m*3 1.7 C 0 km/h
936 10-12-2013 05:55:00 1.6 C 5.25 g/m*3 1.6 C 1.6 km/h
937 10-12-2013 06:00:00 1.6 C 5.25 g/m*3 1.6 C 0 km/h
938 10-12-2013 06:05:00 1.6 C 5.25 g/m*3 1.6 C 0 km/h
939 10-12-2013 06:10:00 1.6 C 5.25 g/m*3 1.6 C 0 km/h
940 10-12-2013 06:15:00 1.6 C 5.25 g/m*3 1.6 C 0 km/h
941 10-12-2013 06:20:00 1.7 C 5.28 g/m*3 1.7 C 0 km/h
942 10-12-2013 06:25:00 1.6 C 5.25 g/m*3 1.6 C 1.6 km/h
943 10-12-2013 06:30:00 1.6 C 5.25 g/m*3 1.6 C 0 km/h
944 10-12-2013 06:35:00 1.7 C 5.28 g/m*3 1.7 C 0 km/h
945 10-12-2013 06:40:00 1.7 C 5.28 g/m*3 1.7 C 0 km/h
946 10-12-2013 06:45:00 1.7 C 5.28 g/m*3 1.7 C 0 km/h
947 10-12-2013 06:50:00 1.8 C 5.32 g/m*3 1.8 C 0 km/h
948 10-12-2013 06:55:00 1.8 C 5.32 g/m*3 1.8 C 1.6 km/h
949 10-12-2013 07:00:00 1.8 C 5.32 g/m*3 1.8 C 1.6 km/h
950 10-12-2013 07:05:00 1.8 C 5.32 g/m*3 1.8 C 3.2 km/h
Sensor: Nr:Datum:Temp:Abs-Feuchte:Windchill:Wind:
Aussen-T/F 951 10-12-2013 07:10:00 1.8 C 5.32 g/m*3 1.8 C 3.2 km/h
952 10-12-2013 07:15:00 1.7 C 5.28 g/m*3 1.7 C 1.6 km/h
953 10-12-2013 07:20:00 1.7 C 5.28 g/m*3 1.7 C 1.6 km/h
954 10-12-2013 07:25:00 1.7 C 5.28 g/m*3 1.7 C 0 km/h
955 10-12-2013 07:30:00 1.7 C 5.28 g/m*3 1.7 C 0 km/h
956 10-12-2013 07:35:00 1.7 C 5.28 g/m*3 1.7 C 1.6 km/h
957 10-12-2013 07:40:00 1.7 C 5.28 g/m*3 1.7 C 0 km/h
958 10-12-2013 07:45:00 1.7 C 5.28 g/m*3 1.7 C 1.6 km/h
959 10-12-2013 07:50:00 1.7 C 5.28 g/m*3 1.7 C 1.6 km/h
960 10-12-2013 07:55:00 1.7 C 5.28 g/m*3 1.7 C 0 km/h
961 10-12-2013 08:00:00 1.8 C 5.32 g/m*3 1.8 C 3.2 km/h
962 10-12-2013 08:05:00 1.8 C 5.32 g/m*3 1.8 C 1.6 km/h
963 10-12-2013 08:10:00 1.8 C 5.32 g/m*3 1.8 C 1.6 km/h
964 10-12-2013 08:15:00 1.8 C 5.32 g/m*3 1.8 C 0 km/h
965 10-12-2013 08:20:00 1.8 C 5.32 g/m*3 1.8 C 0 km/h
966 10-12-2013 08:25:00 1.8 C 5.32 g/m*3 1.8 C 0 km/h
967 10-12-2013 08:30:00 1.9 C 5.35 g/m*3 1.9 C 0 km/h
968 10-12-2013 08:35:00 1.9 C 5.35 g/m*3 1.9 C 1.6 km/h
969 10-12-2013 08:40:00 1.9 C 5.3 g/m*3 1.9 C 4.8 km/h
970 10-12-2013 08:45:00 1.9 C 5.3 g/m*3 1.9 C 1.6 km/h
971 10-12-2013 08:50:00 1.9 C 5.3 g/m*3 1.9 C 0 km/h
972 10-12-2013 08:55:00 1.9 C 5.3 g/m*3 1.9 C 0 km/h
973 10-12-2013 09:00:00 2 C 5.33 g/m*3 2 C 0 km/h
974 10-12-2013 09:05:00 2.1 C 5.37 g/m*3 2.1 C 0 km/h
975 10-12-2013 09:10:00 2.1 C 5.37 g/m*3 2.1 C 3.2 km/h
Sensor: Nr:Datum:Temp:Abs-Feuchte:Windchill:Wind:
Aussen-T/F 976 10-12-2013 09:15:00 2.2 C 5.41 g/m*3 2.2 C 0 km/h
977 10-12-2013 09:20:00 2.2 C 5.41 g/m*3 2.2 C 0 km/h
978 10-12-2013 09:25:00 2.3 C 5.44 g/m*3 2.3 C 1.6 km/h
979 10-12-2013 09:30:00 2.3 C 5.44 g/m*3 2.3 C 3.2 km/h
980 10-12-2013 09:35:00 2.3 C 5.44 g/m*3 2.3 C 3.2 km/h
981 10-12-2013 09:40:00 2.3 C 5.44 g/m*3 2.3 C 4.8 km/h
982 10-12-2013 09:45:00 2.4 C 5.48 g/m*3 0.59 C 6.4 km/h
983 10-12-2013 09:50:00 2.4 C 5.42 g/m*3 0.59 C 6.4 km/h
984 10-12-2013 09:55:00 2.4 C 5.48 g/m*3 2.4 C 4.8 km/h
985 10-12-2013 10:00:00 2.5 C 5.52 g/m*3 2.5 C 1.6 km/h
986 10-12-2013 10:05:00 2.6 C 5.56 g/m*3 2.6 C 0 km/h
987 10-12-2013 10:10:00 2.7 C 5.59 g/m*3 2.7 C 0 km/h
988 10-12-2013 10:15:00 2.7 C 5.59 g/m*3 2.7 C 0 km/h
989 10-12-2013 10:20:00 2.8 C 5.63 g/m*3 2.8 C 1.6 km/h
990 10-12-2013 10:25:00 3 C 5.71 g/m*3 3 C 0 km/h
991 10-12-2013 10:30:00 3.1 C 5.75 g/m*3 3.1 C 1.6 km/h
992 10-12-2013 10:35:00 3.2 C 5.79 g/m*3 3.2 C 1.6 km/h
993 10-12-2013 10:40:00 3.3 C 5.82 g/m*3 3.3 C 1.6 km/h
994 10-12-2013 10:45:00 3.3 C 5.82 g/m*3 3.3 C 3.2 km/h
995 10-12-2013 10:50:00 3.2 C 5.79 g/m*3 3.2 C 4.8 km/h
996 10-12-2013 10:55:00 3.2 C 5.79 g/m*3 3.2 C 3.2 km/h
997 10-12-2013 11:00:00 3.3 C 5.82 g/m*3 3.3 C 1.6 km/h
998 10-12-2013 11:05:00 3.4 C 5.86 g/m*3 3.4 C 1.6 km/h
999 10-12-2013 11:10:00 3.4 C 5.86 g/m*3 3.4 C 0 km/h
1000 10-12-2013 11:15:00 3.4 C 5.86 g/m*3 3.4 C 0 km/h
Sensor: Nr:Datum:Temp:Abs-Feuchte:Windchill:Wind:
Aussen-T/F 1001 10-12-2013 11:20:00 3.4 C 5.86 g/m*3 3.4 C 3.2 km/h
1002 10-12-2013 11:25:00 3.5 C 5.9 g/m*3 3.5 C 3.2 km/h
1003 10-12-2013 11:30:00 3.5 C 5.9 g/m*3 3.5 C 3.2 km/h
1004 10-12-2013 11:35:00 3.6 C 5.94 g/m*3 3.6 C 4.8 km/h
1005 10-12-2013 11:40:00 3.7 C 5.98 g/m*3 3.7 C 4.8 km/h
1006 10-12-2013 11:45:00 3.7 C 5.98 g/m*3 3.7 C 4.8 km/h
1007 10-12-2013 11:50:00 3.8 C 6.02 g/m*3 3.8 C 1.6 km/h
1008 10-12-2013 11:55:00 3.8 C 6.02 g/m*3 3.8 C 1.6 km/h
1009 10-12-2013 12:00:00 3.9 C 6.06 g/m*3 3.9 C 0 km/h
1010 10-12-2013 12:05:00 4 C 6.1 g/m*3 4 C 3.2 km/h
1011 10-12-2013 12:10:00 4.1 C 6.14 g/m*3 4.1 C 4.8 km/h
1012 10-12-2013 12:15:00 4.2 C 6.19 g/m*3 4.2 C 4.8 km/h
1013 10-12-2013 12:20:00 4.2 C 6.19 g/m*3 4.2 C 3.2 km/h
1014 10-12-2013 12:25:00 4.4 C 6.2 g/m*3 4.4 C 3.2 km/h
1015 10-12-2013 12:30:00 4.5 C 6.31 g/m*3 4.5 C 3.2 km/h
1016 10-12-2013 12:35:00 4.6 C 6.29 g/m*3 2.64 C 8.1 km/h
1017 10-12-2013 12:40:00 4.6 C 6.29 g/m*3 4.6 C 4.8 km/h
1018 10-12-2013 12:45:00 4.6 C 6.29 g/m*3 4.6 C 4.8 km/h
1019 10-12-2013 12:50:00 4.6 C 6.29 g/m*3 4.6 C 3.2 km/h
1020 10-12-2013 12:55:00 4.6 C 6.29 g/m*3 4.6 C 4.8 km/h
1021 10-12-2013 13:00:00 4.6 C 6.29 g/m*3 3.13 C 6.4 km/h
1022 10-12-2013 13:05:00 4.7 C 6.26 g/m*3 4.7 C 3.2 km/h
1023 10-12-2013 13:10:00 4.7 C 6.33 g/m*3 4.7 C 1.6 km/h
1024 10-12-2013 13:15:00 4.8 C 6.37 g/m*3 4.8 C 1.6 km/h
1025 10-12-2013 13:20:00 4.8 C 6.3 g/m*3 4.8 C 0 km/h
Sensor: Nr:Datum:Temp:Abs-Feuchte:Windchill:Wind:
Aussen-T/F 1026 10-12-2013 13:25:00 4.9 C 6.35 g/m*3 4.9 C 1.6 km/h
1027 10-12-2013 13:30:00 4.9 C 6.35 g/m*3 4.9 C 3.2 km/h
1028 10-12-2013 13:35:00 5 C 6.39 g/m*3 5 C 1.6 km/h
1029 10-12-2013 13:40:00 5.1 C 6.43 g/m*3 5.1 C 4.8 km/h
1030 10-12-2013 13:45:00 5.1 C 6.43 g/m*3 5.1 C 3.2 km/h
1031 10-12-2013 13:50:00 5.2 C 6.47 g/m*3 5.2 C 3.2 km/h
1032 10-12-2013 13:55:00 5.3 C 6.52 g/m*3 5.3 C 1.6 km/h
1033 10-12-2013 14:00:00 5.3 C 6.45 g/m*3 5.3 C 3.2 km/h
1034 10-12-2013 14:05:00 5.3 C 6.45 g/m*3 5.3 C 3.2 km/h
1035 10-12-2013 14:10:00 5.4 C 6.49 g/m*3 5.4 C 1.6 km/h
1036 10-12-2013 14:15:00 5.5 C 6.53 g/m*3 5.5 C 0 km/h
1037 10-12-2013 14:20:00 5.6 C 6.57 g/m*3 5.6 C 0 km/h
1038 10-12-2013 14:25:00 5.6 C 6.57 g/m*3 5.6 C 0 km/h
1039 10-12-2013 14:30:00 5.7 C 6.62 g/m*3 5.7 C 0 km/h
1040 10-12-2013 14:35:00 5.7 C 6.62 g/m*3 5.7 C 0 km/h
1041 10-12-2013 14:40:00 5.8 C 6.66 g/m*3 5.8 C 0 km/h
1042 10-12-2013 14:45:00 5.8 C 6.66 g/m*3 5.8 C 0 km/h
1043 10-12-2013 14:50:00 5.8 C 6.59 g/m*3 5.8 C 0 km/h
1044 10-12-2013 14:55:00 5.8 C 6.59 g/m*3 5.8 C 0 km/h
1045 10-12-2013 15:00:00 5.8 C 6.59 g/m*3 5.8 C 0 km/h
1046 10-12-2013 15:05:00 5.7 C 6.55 g/m*3 5.7 C 0 km/h
1047 10-12-2013 15:10:00 5.6 C 6.5 g/m*3 5.6 C 0 km/h
1048 10-12-2013 15:15:00 5.4 C 6.42 g/m*3 5.4 C 0 km/h
1049 10-12-2013 15:20:00 5.2 C 6.4 g/m*3 5.2 C 0 km/h
1050 10-12-2013 15:25:00 5.2 C 6.4 g/m*3 5.2 C 1.6 km/h
Sensor: Nr:Datum:Temp:Abs-Feuchte:Windchill:Wind:
Aussen-T/F 1051 10-12-2013 15:30:00 5.1 C 6.36 g/m*3 5.1 C 0 km/h
1052 10-12-2013 15:35:00 4.9 C 6.35 g/m*3 4.9 C 0 km/h
1053 10-12-2013 15:40:00 4.8 C 6.3 g/m*3 4.8 C 0 km/h
1054 10-12-2013 15:45:00 4.8 C 6.3 g/m*3 4.8 C 0 km/h
1055 10-12-2013 15:50:00 4.8 C 6.3 g/m*3 4.8 C 0 km/h
1056 10-12-2013 15:55:00 4.7 C 6.33 g/m*3 4.7 C 1.6 km/h
1057 10-12-2013 16:00:00 4.7 C 6.33 g/m*3 4.7 C 0 km/h
1058 10-12-2013 16:05:00 4.7 C 6.33 g/m*3 4.7 C 0 km/h
1059 10-12-2013 16:10:00 4.7 C 6.33 g/m*3 4.7 C 0 km/h
1060 10-12-2013 16:15:00 4.7 C 6.33 g/m*3 4.7 C 0 km/h
1061 10-12-2013 16:20:00 4.7 C 6.33 g/m*3 4.7 C 0 km/h
1062 10-12-2013 16:25:00 4.6 C 6.29 g/m*3 4.6 C 0 km/h
1063 10-12-2013 16:30:00 4.5 C 6.24 g/m*3 4.5 C 1.6 km/h
1064 10-12-2013 16:35:00 4.4 C 6.2 g/m*3 4.4 C 0 km/h
1065 10-12-2013 16:40:00 4.4 C 6.2 g/m*3 4.4 C 0 km/h
1066 10-12-2013 16:45:00 4.4 C 6.2 g/m*3 4.4 C 0 km/h
1067 10-12-2013 16:50:00 4.4 C 6.27 g/m*3 4.4 C 0 km/h
1068 10-12-2013 16:55:00 4.4 C 6.27 g/m*3 4.4 C 0 km/h
1069 10-12-2013 17:00:00 4.5 C 6.31 g/m*3 4.5 C 0 km/h
1070 10-12-2013 17:05:00 4.5 C 6.31 g/m*3 4.5 C 0 km/h
1071 10-12-2013 17:10:00 4.6 C 6.35 g/m*3 4.6 C 0 km/h
1072 10-12-2013 17:15:00 4.7 C 6.39 g/m*3 4.7 C 0 km/h
1073 10-12-2013 17:20:00 4.7 C 6.39 g/m*3 4.7 C 0 km/h
1074 10-12-2013 17:25:00 4.7 C 6.39 g/m*3 4.7 C 0 km/h
1075 10-12-2013 17:30:00 4.7 C 6.39 g/m*3 4.7 C 0 km/h
Sensor: Nr:Datum:Temp:Abs-Feuchte:Windchill:Wind:
Aussen-T/F 1076 10-12-2013 17:35:00 4.7 C 6.39 g/m*3 4.7 C 1.6 km/h
1077 10-12-2013 17:40:00 4.7 C 6.39 g/m*3 4.7 C 0 km/h
1078 10-12-2013 17:45:00 4.8 C 6.44 g/m*3 4.8 C 0 km/h
1079 10-12-2013 17:50:00 4.8 C 6.44 g/m*3 4.8 C 0 km/h
1080 10-12-2013 17:55:00 4.8 C 6.44 g/m*3 4.8 C 0 km/h
1081 10-12-2013 18:00:00 4.7 C 6.39 g/m*3 4.7 C 0 km/h
1082 10-12-2013 18:05:00 4.8 C 6.44 g/m*3 4.8 C 0 km/h
1083 10-12-2013 18:10:00 4.8 C 6.44 g/m*3 4.8 C 0 km/h
1084 10-12-2013 18:15:00 4.8 C 6.44 g/m*3 4.8 C 0 km/h
1085 10-12-2013 18:20:00 4.8 C 6.44 g/m*3 4.8 C 0 km/h
1086 10-12-2013 18:25:00 4.8 C 6.44 g/m*3 4.8 C 0 km/h
1087 10-12-2013 18:30:00 4.8 C 6.44 g/m*3 4.8 C 0 km/h
1088 10-12-2013 18:35:00 4.8 C 6.44 g/m*3 4.8 C 0 km/h
1089 10-12-2013 18:40:00 4.8 C 6.44 g/m*3 4.8 C 0 km/h
1090 10-12-2013 18:45:00 4.8 C 6.44 g/m*3 4.8 C 0 km/h
1091 10-12-2013 18:50:00 4.9 C 6.48 g/m*3 4.9 C 0 km/h
1092 10-12-2013 18:55:00 4.9 C 6.48 g/m*3 4.9 C 0 km/h
1093 10-12-2013 19:00:00 4.9 C 6.48 g/m*3 4.9 C 0 km/h
1094 10-12-2013 19:05:00 4.9 C 6.48 g/m*3 4.9 C 0 km/h
1095 10-12-2013 19:10:00 4.9 C 6.48 g/m*3 4.9 C 0 km/h
1096 10-12-2013 19:15:00 4.9 C 6.48 g/m*3 4.9 C 0 km/h
1097 10-12-2013 19:20:00 4.9 C 6.48 g/m*3 4.9 C 0 km/h
1098 10-12-2013 19:25:00 4.9 C 6.48 g/m*3 4.9 C 0 km/h
1099 10-12-2013 19:30:00 4.9 C 6.48 g/m*3 4.9 C 0 km/h
1100 10-12-2013 19:35:00 4.9 C 6.48 g/m*3 4.9 C 0 km/h
Sensor: Nr:Datum:Temp:Abs-Feuchte:Windchill:Wind:
Aussen-T/F 1101 10-12-2013 19:40:00 4.9 C 6.48 g/m*3 4.9 C 0 km/h
1102 10-12-2013 19:45:00 4.9 C 6.48 g/m*3 4.9 C 0 km/h
1103 10-12-2013 19:50:00 4.9 C 6.48 g/m*3 4.9 C 0 km/h
1104 10-12-2013 19:55:00 4.9 C 6.48 g/m*3 4.9 C 0 km/h
1105 10-12-2013 20:00:00 4.9 C 6.48 g/m*3 4.9 C 0 km/h
1106 10-12-2013 20:05:00 4.9 C 6.48 g/m*3 4.9 C 0 km/h
1107 10-12-2013 20:10:00 4.9 C 6.48 g/m*3 4.9 C 0 km/h
1108 10-12-2013 20:15:00 4.9 C 6.48 g/m*3 4.9 C 0 km/h
1109 10-12-2013 20:20:00 4.9 C 6.48 g/m*3 4.9 C 0 km/h
1110 10-12-2013 20:25:00 4.9 C 6.48 g/m*3 4.9 C 0 km/h
1111 10-12-2013 20:30:00 4.9 C 6.48 g/m*3 4.9 C 0 km/h
1112 10-12-2013 20:35:00 4.8 C 6.44 g/m*3 4.8 C 0 km/h
1113 10-12-2013 20:40:00 4.8 C 6.44 g/m*3 4.8 C 0 km/h
1114 10-12-2013 20:45:00 4.8 C 6.44 g/m*3 4.8 C 0 km/h
1115 10-12-2013 20:50:00 4.8 C 6.44 g/m*3 4.8 C 0 km/h
1116 10-12-2013 20:55:00 4.7 C 6.39 g/m*3 4.7 C 0 km/h
1117 10-12-2013 21:00:00 4.8 C 6.44 g/m*3 4.8 C 0 km/h
1118 10-12-2013 21:05:00 4.7 C 6.39 g/m*3 4.7 C 0 km/h
1119 10-12-2013 21:10:00 4.7 C 6.39 g/m*3 4.7 C 1.6 km/h
1120 10-12-2013 21:15:00 4.6 C 6.35 g/m*3 4.6 C 0 km/h
1121 10-12-2013 21:20:00 4.4 C 6.27 g/m*3 4.4 C 1.6 km/h
1122 10-12-2013 21:25:00 4.3 C 6.23 g/m*3 4.3 C 1.6 km/h
1123 10-12-2013 21:30:00 4.2 C 6.19 g/m*3 4.2 C 3.2 km/h
1124 10-12-2013 21:35:00 4.2 C 6.19 g/m*3 4.2 C 3.2 km/h
1125 10-12-2013 21:40:00 4.1 C 6.14 g/m*3 4.1 C 0 km/h
Sensor: Nr:Datum:Temp:Abs-Feuchte:Windchill:Wind:
Aussen-T/F 1126 10-12-2013 21:45:00 4.1 C 6.14 g/m*3 4.1 C 3.2 km/h
1127 10-12-2013 21:50:00 4 C 6.1 g/m*3 4 C 3.2 km/h
1128 10-12-2013 21:55:00 3.9 C 6.06 g/m*3 3.9 C 1.6 km/h
1129 10-12-2013 22:00:00 3.9 C 6.06 g/m*3 3.9 C 1.6 km/h
1130 10-12-2013 22:05:00 3.9 C 6.06 g/m*3 3.9 C 1.6 km/h
1131 10-12-2013 22:10:00 3.8 C 6.02 g/m*3 3.8 C 3.2 km/h
1132 10-12-2013 22:15:00 3.8 C 6.02 g/m*3 3.8 C 3.2 km/h
1133 10-12-2013 22:20:00 3.7 C 5.98 g/m*3 3.7 C 4.8 km/h
1134 10-12-2013 22:25:00 3.6 C 5.94 g/m*3 3.6 C 3.2 km/h
1135 10-12-2013 22:30:00 3.6 C 5.94 g/m*3 3.6 C 1.6 km/h
1136 10-12-2013 22:35:00 3.6 C 6 g/m*3 3.6 C 3.2 km/h
1137 10-12-2013 22:40:00 3.6 C 6 g/m*3 3.6 C 3.2 km/h
1138 10-12-2013 22:45:00 3.5 C 5.96 g/m*3 3.5 C 3.2 km/h
1139 10-12-2013 22:50:00 3.4 C 5.92 g/m*3 3.4 C 3.2 km/h
1140 10-12-2013 22:55:00 3.4 C 5.92 g/m*3 3.4 C 3.2 km/h
1141 10-12-2013 23:00:00 3.3 C 5.88 g/m*3 3.3 C 3.2 km/h
1142 10-12-2013 23:05:00 3.3 C 5.88 g/m*3 3.3 C 1.6 km/h
1143 10-12-2013 23:10:00 3.3 C 5.88 g/m*3 3.3 C 3.2 km/h
1144 10-12-2013 23:15:00 3.3 C 5.88 g/m*3 3.3 C 0 km/h
1145 10-12-2013 23:20:00 3.3 C 5.88 g/m*3 3.3 C 4.8 km/h
1146 10-12-2013 23:25:00 3.3 C 5.88 g/m*3 3.3 C 3.2 km/h
1147 10-12-2013 23:30:00 3.3 C 5.88 g/m*3 1.63 C 6.4 km/h
1148 10-12-2013 23:35:00 3.2 C 5.85 g/m*3 3.2 C 4.8 km/h
1149 10-12-2013 23:40:00 3.2 C 5.85 g/m*3 3.2 C 3.2 km/h
1150 10-12-2013 23:45:00 3.2 C 5.85 g/m*3 3.2 C 1.6 km/h
Sensor: Nr:Datum:Temp:Abs-Feuchte:Windchill:Wind:
Aussen-T/F 1151 10-12-2013 23:50:00 3.2 C 5.85 g/m*3 3.2 C 4.8 km/h
1152 10-12-2013 23:55:00 3.2 C 5.85 g/m*3 3.2 C 1.6 km/h
1153 11-12-2013 00:00:00 3.2 C 5.85 g/m*3 3.2 C 0 km/h
1154 11-12-2013 00:05:00 3.1 C 5.81 g/m*3 3.1 C 3.2 km/h
1155 11-12-2013 00:10:00 3.1 C 5.81 g/m*3 3.1 C 3.2 km/h
1156 11-12-2013 00:15:00 3.1 C 5.81 g/m*3 3.1 C 0 km/h
1157 11-12-2013 00:20:00 3.1 C 5.81 g/m*3 3.1 C 1.6 km/h
1158 11-12-2013 00:25:00 3.1 C 5.81 g/m*3 3.1 C 1.6 km/h
1159 11-12-2013 00:30:00 3 C 5.77 g/m*3 3 C 3.2 km/h
1160 11-12-2013 00:35:00 3 C 5.77 g/m*3 3 C 4.8 km/h
1161 11-12-2013 00:40:00 3 C 5.77 g/m*3 3 C 3.2 km/h
1162 11-12-2013 00:45:00 2.9 C 5.73 g/m*3 2.9 C 3.2 km/h
1163 11-12-2013 00:50:00 2.9 C 5.73 g/m*3 2.9 C 3.2 km/h
1164 11-12-2013 00:55:00 2.9 C 5.73 g/m*3 2.9 C 3.2 km/h
1165 11-12-2013 01:00:00 2.9 C 5.73 g/m*3 2.9 C 0 km/h
1166 11-12-2013 01:05:00 2.9 C 5.73 g/m*3 2.9 C 3.2 km/h
1167 11-12-2013 01:10:00 2.9 C 5.73 g/m*3 2.9 C 4.8 km/h
1168 11-12-2013 01:15:00 2.8 C 5.69 g/m*3 1.05 C 6.4 km/h
1169 11-12-2013 01:20:00 2.8 C 5.69 g/m*3 1.05 C 6.4 km/h
1170 11-12-2013 01:25:00 2.8 C 5.75 g/m*3 1.05 C 6.4 km/h
1171 11-12-2013 01:30:00 2.7 C 5.71 g/m*3 0.94 C 6.4 km/h
1172 11-12-2013 01:35:00 2.7 C 5.71 g/m*3 2.7 C 3.2 km/h
1173 11-12-2013 01:40:00 2.7 C 5.65 g/m*3 2.7 C 1.6 km/h
1174 11-12-2013 01:45:00 2.7 C 5.65 g/m*3 2.7 C 0 km/h
1175 11-12-2013 01:50:00 2.8 C 5.69 g/m*3 2.8 C 3.2 km/h
Sensor: Nr:Datum:Temp:Abs-Feuchte:Windchill:Wind:
Aussen-T/F 1176 11-12-2013 01:55:00 2.8 C 5.69 g/m*3 2.8 C 1.6 km/h
1177 11-12-2013 02:00:00 2.7 C 5.65 g/m*3 2.7 C 4.8 km/h
1178 11-12-2013 02:05:00 2.7 C 5.65 g/m*3 0.94 C 6.4 km/h
1179 11-12-2013 02:10:00 2.6 C 5.67 g/m*3 2.6 C 4.8 km/h
1180 11-12-2013 02:15:00 2.5 C 5.63 g/m*3 2.5 C 1.6 km/h
1181 11-12-2013 02:20:00 2.6 C 5.67 g/m*3 2.6 C 4.8 km/h
1182 11-12-2013 02:25:00 2.6 C 5.67 g/m*3 2.6 C 3.2 km/h
1183 11-12-2013 02:30:00 2.6 C 5.67 g/m*3 2.6 C 0 km/h
1184 11-12-2013 02:35:00 2.5 C 5.63 g/m*3 2.5 C 1.6 km/h
1185 11-12-2013 02:40:00 2.4 C 5.6 g/m*3 2.4 C 4.8 km/h
1186 11-12-2013 02:45:00 2.4 C 5.54 g/m*3 0.59 C 6.4 km/h
1187 11-12-2013 02:50:00 2.3 C 5.5 g/m*3 0.47 C 6.4 km/h
1188 11-12-2013 02:55:00 2.3 C 5.5 g/m*3 2.3 C 4.8 km/h
1189 11-12-2013 03:00:00 2.3 C 5.5 g/m*3 2.3 C 4.8 km/h
1190 11-12-2013 03:05:00 2.2 C 5.52 g/m*3 2.2 C 3.2 km/h
1191 11-12-2013 03:10:00 2.2 C 5.52 g/m*3 2.2 C 0 km/h
1192 11-12-2013 03:15:00 2.2 C 5.52 g/m*3 2.2 C 1.6 km/h
1193 11-12-2013 03:20:00 2.2 C 5.52 g/m*3 2.2 C 0 km/h
1194 11-12-2013 03:25:00 2.3 C 5.56 g/m*3 2.3 C 3.2 km/h
1195 11-12-2013 03:30:00 2.3 C 5.56 g/m*3 2.3 C 1.6 km/h
1196 11-12-2013 03:35:00 2.3 C 5.56 g/m*3 2.3 C 3.2 km/h
1197 11-12-2013 03:40:00 2.3 C 5.56 g/m*3 0.47 C 6.4 km/h
1198 11-12-2013 03:45:00 2.2 C 5.52 g/m*3 2.2 C 4.8 km/h
1199 11-12-2013 03:50:00 2.2 C 5.52 g/m*3 2.2 C 4.8 km/h
1200 11-12-2013 03:55:00 2.2 C 5.52 g/m*3 2.2 C 3.2 km/h
Sensor: Nr:Datum:Temp:Abs-Feuchte:Windchill:Wind:
Aussen-T/F 1201 11-12-2013 04:00:00 2.2 C 5.52 g/m*3 2.2 C 3.2 km/h
1202 11-12-2013 04:05:00 2.2 C 5.52 g/m*3 2.2 C 1.6 km/h
1203 11-12-2013 04:10:00 2.3 C 5.56 g/m*3 2.3 C 1.6 km/h
1204 11-12-2013 04:15:00 2.3 C 5.56 g/m*3 2.3 C 3.2 km/h
1205 11-12-2013 04:20:00 2.3 C 5.56 g/m*3 2.3 C 4.8 km/h
1206 11-12-2013 04:25:00 2.3 C 5.56 g/m*3 2.3 C 1.6 km/h
1207 11-12-2013 04:30:00 2.3 C 5.56 g/m*3 2.3 C 1.6 km/h
1208 11-12-2013 04:35:00 2.3 C 5.56 g/m*3 2.3 C 4.8 km/h
1209 11-12-2013 04:40:00 2.3 C 5.56 g/m*3 2.3 C 1.6 km/h
1210 11-12-2013 04:45:00 2.3 C 5.56 g/m*3 2.3 C 1.6 km/h
1211 11-12-2013 04:50:00 2.3 C 5.56 g/m*3 2.3 C 4.8 km/h
1212 11-12-2013 04:55:00 2.3 C 5.56 g/m*3 2.3 C 4.8 km/h
1213 11-12-2013 05:00:00 2.3 C 5.56 g/m*3 0.47 C 6.4 km/h
1214 11-12-2013 05:05:00 2.2 C 5.52 g/m*3 2.2 C 4.8 km/h
1215 11-12-2013 05:10:00 2.2 C 5.52 g/m*3 2.2 C 1.6 km/h
1216 11-12-2013 05:15:00 2.2 C 5.52 g/m*3 2.2 C 0 km/h
1217 11-12-2013 05:20:00 2.3 C 5.56 g/m*3 2.3 C 3.2 km/h
1218 11-12-2013 05:25:00 2.3 C 5.56 g/m*3 2.3 C 4.8 km/h
1219 11-12-2013 05:30:00 2.3 C 5.56 g/m*3 2.3 C 3.2 km/h
1220 11-12-2013 05:35:00 2.3 C 5.56 g/m*3 2.3 C 3.2 km/h
1221 11-12-2013 05:40:00 2.3 C 5.56 g/m*3 2.3 C 3.2 km/h
1222 11-12-2013 05:45:00 2.3 C 5.56 g/m*3 2.3 C 4.8 km/h
1223 11-12-2013 05:50:00 2.3 C 5.56 g/m*3 2.3 C 3.2 km/h
1224 11-12-2013 05:55:00 2.3 C 5.56 g/m*3 2.3 C 3.2 km/h
1225 11-12-2013 06:00:00 2.3 C 5.56 g/m*3 2.3 C 4.8 km/h
Sensor: Nr:Datum:Temp:Abs-Feuchte:Windchill:Wind:
Aussen-T/F 1226 11-12-2013 06:05:00 2.3 C 5.56 g/m*3 2.3 C 4.8 km/h
1227 11-12-2013 06:10:00 2.3 C 5.56 g/m*3 -0.07 C 8.1 km/h
1228 11-12-2013 06:15:00 2.2 C 5.52 g/m*3 -0.18 C 8.1 km/h
1229 11-12-2013 06:20:00 2.2 C 5.52 g/m*3 2.2 C 4.8 km/h
1230 11-12-2013 06:25:00 2.2 C 5.52 g/m*3 2.2 C 4.8 km/h
1231 11-12-2013 06:30:00 2.2 C 5.52 g/m*3 2.2 C 4.8 km/h
1232 11-12-2013 06:35:00 2.2 C 5.52 g/m*3 2.2 C 3.2 km/h
1233 11-12-2013 06:40:00 2.2 C 5.52 g/m*3 2.2 C 4.8 km/h
1234 11-12-2013 06:45:00 2.2 C 5.52 g/m*3 2.2 C 0 km/h
1235 11-12-2013 06:50:00 2.3 C 5.56 g/m*3 0.47 C 6.4 km/h
1236 11-12-2013 06:55:00 2.3 C 5.56 g/m*3 2.3 C 4.8 km/h
1237 11-12-2013 07:00:00 2.3 C 5.56 g/m*3 2.3 C 3.2 km/h
1238 11-12-2013 07:05:00 2.3 C 5.56 g/m*3 2.3 C 4.8 km/h
1239 11-12-2013 07:10:00 2.3 C 5.56 g/m*3 2.3 C 3.2 km/h
1240 11-12-2013 07:15:00 2.3 C 5.56 g/m*3 2.3 C 3.2 km/h
1241 11-12-2013 07:20:00 2.3 C 5.56 g/m*3 2.3 C 1.6 km/h
1242 11-12-2013 07:25:00 2.3 C 5.56 g/m*3 2.3 C 1.6 km/h
1243 11-12-2013 07:30:00 2.3 C 5.56 g/m*3 2.3 C 4.8 km/h
1244 11-12-2013 07:35:00 2.3 C 5.56 g/m*3 2.3 C 4.8 km/h
1245 11-12-2013 07:40:00 2.3 C 5.56 g/m*3 2.3 C 3.2 km/h
1246 11-12-2013 07:45:00 2.3 C 5.56 g/m*3 0.47 C 6.4 km/h
1247 11-12-2013 07:50:00 2.3 C 5.56 g/m*3 -0.07 C 8.1 km/h
1248 11-12-2013 07:55:00 2.2 C 5.52 g/m*3 0.36 C 6.4 km/h
1249 11-12-2013 08:00:00 2.2 C 5.52 g/m*3 2.2 C 0 km/h
1250 11-12-2013 08:05:00 2.3 C 5.56 g/m*3 2.3 C 3.2 km/h
Sensor: Nr:Datum:Temp:Abs-Feuchte:Windchill:Wind:
Aussen-T/F 1251 11-12-2013 08:10:00 2.3 C 5.56 g/m*3 2.3 C 3.2 km/h
1252 11-12-2013 08:15:00 2.3 C 5.56 g/m*3 2.3 C 1.6 km/h
1253 11-12-2013 08:20:00 2.3 C 5.56 g/m*3 2.3 C 4.8 km/h
1254 11-12-2013 08:25:00 2.4 C 5.6 g/m*3 0.59 C 6.4 km/h
1255 11-12-2013 08:30:00 2.4 C 5.6 g/m*3 0.05 C 8.1 km/h
1256 11-12-2013 08:35:00 2.3 C 5.56 g/m*3 0.47 C 6.4 km/h
1257 11-12-2013 08:40:00 2.4 C 5.6 g/m*3 0.05 C 8.1 km/h
1258 11-12-2013 08:45:00 2.4 C 5.6 g/m*3 2.4 C 4.8 km/h
1259 11-12-2013 08:50:00 2.4 C 5.6 g/m*3 2.4 C 3.2 km/h
1260 11-12-2013 08:55:00 2.4 C 5.6 g/m*3 2.4 C 3.2 km/h
1261 11-12-2013 09:00:00 2.5 C 5.63 g/m*3 2.5 C 4.8 km/h
1262 11-12-2013 09:05:00 2.4 C 5.6 g/m*3 0.59 C 6.4 km/h
1263 11-12-2013 09:10:00 2.4 C 5.6 g/m*3 0.59 C 6.4 km/h
1264 11-12-2013 09:15:00 2.4 C 5.6 g/m*3 2.4 C 4.8 km/h
1265 11-12-2013 09:20:00 2.4 C 5.6 g/m*3 2.4 C 4.8 km/h
1266 11-12-2013 09:25:00 2.4 C 5.6 g/m*3 0.59 C 6.4 km/h
1267 11-12-2013 09:30:00 2.4 C 5.6 g/m*3 0.59 C 6.4 km/h
1268 11-12-2013 09:35:00 2.5 C 5.63 g/m*3 2.5 C 3.2 km/h
1269 11-12-2013 09:40:00 2.5 C 5.63 g/m*3 2.5 C 1.6 km/h
1270 11-12-2013 09:45:00 2.6 C 5.67 g/m*3 2.6 C 4.8 km/h
1271 11-12-2013 09:50:00 2.6 C 5.67 g/m*3 2.6 C 1.6 km/h
1272 11-12-2013 09:55:00 2.6 C 5.67 g/m*3 2.6 C 4.8 km/h
1273 11-12-2013 10:00:00 2.6 C 5.67 g/m*3 2.6 C 4.8 km/h
1274 11-12-2013 10:05:00 2.6 C 5.67 g/m*3 2.6 C 4.8 km/h
1275 11-12-2013 10:10:00 2.6 C 5.67 g/m*3 2.6 C 3.2 km/h
Sensor: Nr:Datum:Temp:Abs-Feuchte:Windchill:Wind:
Aussen-T/F 1276 11-12-2013 10:15:00 2.7 C 5.71 g/m*3 2.7 C 3.2 km/h
1277 11-12-2013 10:20:00 2.7 C 5.71 g/m*3 2.7 C 4.8 km/h
1278 11-12-2013 10:25:00 2.7 C 5.71 g/m*3 2.7 C 3.2 km/h
1279 11-12-2013 10:30:00 2.8 C 5.75 g/m*3 2.8 C 4.8 km/h
1280 11-12-2013 10:35:00 2.9 C 5.79 g/m*3 2.9 C 4.8 km/h
1281 11-12-2013 10:40:00 2.9 C 5.79 g/m*3 2.9 C 4.8 km/h
1282 11-12-2013 10:45:00 2.9 C 5.79 g/m*3 2.9 C 4.8 km/h
1283 11-12-2013 10:50:00 2.9 C 5.79 g/m*3 2.9 C 4.8 km/h
1284 11-12-2013 10:55:00 3 C 5.83 g/m*3 3 C 4.8 km/h
1285 11-12-2013 11:00:00 3 C 5.77 g/m*3 1.28 C 6.4 km/h
1286 11-12-2013 11:05:00 3.1 C 5.87 g/m*3 3.1 C 4.8 km/h
1287 11-12-2013 11:10:00 3.1 C 5.87 g/m*3 3.1 C 3.2 km/h
1288 11-12-2013 11:15:00 3.2 C 5.85 g/m*3 0.58 C 9.7 km/h
1289 11-12-2013 11:20:00 3.2 C 5.85 g/m*3 1.51 C 6.4 km/h
1290 11-12-2013 11:25:00 3.2 C 5.85 g/m*3 3.2 C 4.8 km/h
1291 11-12-2013 11:30:00 3.3 C 5.88 g/m*3 1.63 C 6.4 km/h
1292 11-12-2013 11:35:00 3.3 C 5.88 g/m*3 3.3 C 4.8 km/h
1293 11-12-2013 11:40:00 3.3 C 5.88 g/m*3 3.3 C 4.8 km/h
1294 11-12-2013 11:45:00 3.4 C 5.92 g/m*3 3.4 C 4.8 km/h
1295 11-12-2013 11:50:00 3.4 C 5.92 g/m*3 3.4 C 4.8 km/h
1296 11-12-2013 11:55:00 3.4 C 5.92 g/m*3 3.4 C 4.8 km/h
1297 11-12-2013 12:00:00 3.5 C 5.96 g/m*3 3.5 C 3.2 km/h
1298 11-12-2013 12:05:00 3.6 C 6 g/m*3 3.6 C 1.6 km/h
1299 11-12-2013 12:10:00 3.7 C 6.04 g/m*3 3.7 C 1.6 km/h
1300 11-12-2013 12:15:00 3.8 C 6.09 g/m*3 3.8 C 3.2 km/h
Sensor: Nr:Datum:Temp:Abs-Feuchte:Windchill:Wind:
Aussen-T/F 1301 11-12-2013 12:20:00 3.8 C 6.09 g/m*3 3.8 C 4.8 km/h
1302 11-12-2013 12:25:00 3.8 C 6.09 g/m*3 3.8 C 3.2 km/h
1303 11-12-2013 12:30:00 3.8 C 6.09 g/m*3 3.8 C 1.6 km/h
1304 11-12-2013 12:35:00 3.9 C 6.13 g/m*3 3.9 C 3.2 km/h
1305 11-12-2013 12:40:00 3.9 C 6.06 g/m*3 3.9 C 1.6 km/h
1306 11-12-2013 12:45:00 4 C 6.1 g/m*3 4 C 1.6 km/h
1307 11-12-2013 12:50:00 4.1 C 6.21 g/m*3 4.1 C 3.2 km/h
1308 11-12-2013 12:55:00 4.1 C 6.14 g/m*3 4.1 C 4.8 km/h
1309 11-12-2013 13:00:00 4.1 C 6.14 g/m*3 4.1 C 3.2 km/h
1310 11-12-2013 13:05:00 4.2 C 6.19 g/m*3 4.2 C 4.8 km/h
1311 11-12-2013 13:10:00 4.2 C 6.19 g/m*3 4.2 C 3.2 km/h
1312 11-12-2013 13:15:00 4.2 C 6.19 g/m*3 4.2 C 0 km/h
1313 11-12-2013 13:20:00 4.3 C 6.23 g/m*3 4.3 C 1.6 km/h
1314 11-12-2013 13:25:00 4.3 C 6.23 g/m*3 4.3 C 0 km/h
1315 11-12-2013 13:30:00 4.4 C 6.27 g/m*3 4.4 C 0 km/h
1316 11-12-2013 13:35:00 4.4 C 6.27 g/m*3 4.4 C 0 km/h
1317 11-12-2013 13:40:00 4.5 C 6.31 g/m*3 4.5 C 1.6 km/h
1318 11-12-2013 13:45:00 4.6 C 6.35 g/m*3 4.6 C 0 km/h
1319 11-12-2013 13:50:00 4.6 C 6.35 g/m*3 4.6 C 0 km/h
1320 11-12-2013 13:55:00 4.7 C 6.39 g/m*3 4.7 C 0 km/h
1321 11-12-2013 14:00:00 4.7 C 6.39 g/m*3 4.7 C 1.6 km/h
1322 11-12-2013 14:05:00 4.7 C 6.39 g/m*3 4.7 C 3.2 km/h
1323 11-12-2013 14:10:00 4.7 C 6.39 g/m*3 4.7 C 0 km/h
1324 11-12-2013 14:15:00 4.7 C 6.39 g/m*3 4.7 C 1.6 km/h
1325 11-12-2013 14:20:00 4.7 C 6.39 g/m*3 4.7 C 1.6 km/h
Sensor: Nr:Datum:Temp:Abs-Feuchte:Windchill:Wind:
Aussen-T/F 1326 11-12-2013 14:25:00 4.7 C 6.39 g/m*3 4.7 C 1.6 km/h
1327 11-12-2013 14:30:00 4.7 C 6.39 g/m*3 4.7 C 0 km/h
1328 11-12-2013 14:35:00 4.7 C 6.39 g/m*3 4.7 C 0 km/h
1329 11-12-2013 14:40:00 4.7 C 6.39 g/m*3 4.7 C 0 km/h
1330 11-12-2013 14:45:00 4.8 C 6.44 g/m*3 4.8 C 0 km/h
1331 11-12-2013 14:50:00 4.8 C 6.44 g/m*3 4.8 C 0 km/h
1332 11-12-2013 14:55:00 4.8 C 6.44 g/m*3 4.8 C 0 km/h
1333 11-12-2013 15:00:00 4.8 C 6.44 g/m*3 4.8 C 0 km/h
1334 11-12-2013 15:05:00 4.8 C 6.37 g/m*3 4.8 C 3.2 km/h
1335 11-12-2013 15:10:00 4.8 C 6.44 g/m*3 4.8 C 0 km/h
1336 11-12-2013 15:15:00 4.8 C 6.44 g/m*3 4.8 C 1.6 km/h
1337 11-12-2013 15:20:00 4.8 C 6.44 g/m*3 4.8 C 0 km/h
1338 11-12-2013 15:25:00 4.9 C 6.48 g/m*3 4.9 C 0 km/h
1339 11-12-2013 15:30:00 4.9 C 6.48 g/m*3 4.9 C 0 km/h
1340 11-12-2013 15:35:00 5 C 6.52 g/m*3 5 C 0 km/h
1341 11-12-2013 15:40:00 5 C 6.52 g/m*3 5 C 0 km/h
1342 11-12-2013 15:45:00 5 C 6.52 g/m*3 5 C 0 km/h
1343 11-12-2013 15:50:00 5.1 C 6.57 g/m*3 5.1 C 0 km/h
1344 11-12-2013 15:55:00 5.1 C 6.57 g/m*3 5.1 C 0 km/h
1345 11-12-2013 16:00:00 5.2 C 6.61 g/m*3 5.2 C 0 km/h
1346 11-12-2013 16:05:00 5.2 C 6.61 g/m*3 5.2 C 0 km/h
1347 11-12-2013 16:10:00 5.2 C 6.61 g/m*3 5.2 C 0 km/h
1348 11-12-2013 16:15:00 5.2 C 6.61 g/m*3 5.2 C 0 km/h
1349 11-12-2013 16:20:00 5.3 C 6.65 g/m*3 5.3 C 0 km/h
1350 11-12-2013 16:25:00 5.3 C 6.65 g/m*3 5.3 C 0 km/h
Sensor: Nr:Datum:Temp:Abs-Feuchte:Windchill:Wind:
Aussen-T/F 1351 11-12-2013 16:30:00 5.3 C 6.65 g/m*3 5.3 C 0 km/h
1352 11-12-2013 16:35:00 5.3 C 6.65 g/m*3 5.3 C 0 km/h
1353 11-12-2013 16:40:00 5.3 C 6.65 g/m*3 5.3 C 0 km/h
1354 11-12-2013 16:45:00 5.3 C 6.65 g/m*3 5.3 C 0 km/h
1355 11-12-2013 16:50:00 5.3 C 6.65 g/m*3 5.3 C 0 km/h
1356 11-12-2013 16:55:00 5.4 C 6.7 g/m*3 5.4 C 0 km/h
1357 11-12-2013 17:00:00 5.4 C 6.7 g/m*3 5.4 C 0 km/h
1358 11-12-2013 17:05:00 5.4 C 6.7 g/m*3 5.4 C 1.6 km/h
1359 11-12-2013 17:10:00 5.4 C 6.7 g/m*3 5.4 C 0 km/h
1360 11-12-2013 17:15:00 5.4 C 6.7 g/m*3 5.4 C 3.2 km/h
1361 11-12-2013 17:20:00 5.4 C 6.7 g/m*3 5.4 C 0 km/h
1362 11-12-2013 17:25:00 5.4 C 6.7 g/m*3 5.4 C 0 km/h
1363 11-12-2013 17:30:00 5.4 C 6.7 g/m*3 5.4 C 0 km/h
1364 11-12-2013 17:35:00 5.5 C 6.74 g/m*3 5.5 C 1.6 km/h
1365 11-12-2013 17:40:00 5.5 C 6.74 g/m*3 5.5 C 0 km/h
1366 11-12-2013 17:45:00 5.5 C 6.74 g/m*3 5.5 C 0 km/h
1367 11-12-2013 17:50:00 5.5 C 6.74 g/m*3 5.5 C 0 km/h
1368 11-12-2013 17:55:00 5.5 C 6.74 g/m*3 5.5 C 0 km/h
1369 11-12-2013 18:00:00 5.5 C 6.74 g/m*3 5.5 C 0 km/h
1370 11-12-2013 18:05:00 5.5 C 6.74 g/m*3 5.5 C 0 km/h
1371 11-12-2013 18:10:00 5.4 C 6.7 g/m*3 5.4 C 0 km/h
1372 11-12-2013 18:15:00 5.4 C 6.7 g/m*3 5.4 C 0 km/h
1373 11-12-2013 18:20:00 5.4 C 6.7 g/m*3 5.4 C 0 km/h
1374 11-12-2013 18:25:00 5.4 C 6.7 g/m*3 5.4 C 0 km/h
1375 11-12-2013 18:30:00 5.4 C 6.63 g/m*3 5.4 C 0 km/h
Sensor: Nr:Datum:Temp:Abs-Feuchte:Windchill:Wind:
Aussen-T/F 1376 11-12-2013 18:35:00 5.4 C 6.7 g/m*3 5.4 C 0 km/h
1377 11-12-2013 18:40:00 5.4 C 6.7 g/m*3 5.4 C 0 km/h
1378 11-12-2013 18:45:00 5.4 C 6.7 g/m*3 5.4 C 0 km/h
1379 11-12-2013 18:50:00 5.4 C 6.7 g/m*3 5.4 C 0 km/h
1380 11-12-2013 18:55:00 5.4 C 6.63 g/m*3 5.4 C 1.6 km/h
1381 11-12-2013 19:00:00 5.4 C 6.63 g/m*3 5.4 C 0 km/h
1382 11-12-2013 19:05:00 5.4 C 6.63 g/m*3 5.4 C 0 km/h
1383 11-12-2013 19:10:00 5.3 C 6.58 g/m*3 5.3 C 0 km/h
1384 11-12-2013 19:15:00 5.3 C 6.58 g/m*3 5.3 C 0 km/h
1385 11-12-2013 19:20:00 5.3 C 6.58 g/m*3 5.3 C 1.6 km/h
1386 11-12-2013 19:25:00 5.3 C 6.58 g/m*3 5.3 C 1.6 km/h
1387 11-12-2013 19:30:00 5.3 C 6.58 g/m*3 5.3 C 4.8 km/h
1388 11-12-2013 19:35:00 5.3 C 6.58 g/m*3 5.3 C 4.8 km/h
1389 11-12-2013 19:40:00 5.3 C 6.58 g/m*3 5.3 C 1.6 km/h
1390 11-12-2013 19:45:00 5.2 C 6.54 g/m*3 5.2 C 1.6 km/h
1391 11-12-2013 19:50:00 5.2 C 6.54 g/m*3 5.2 C 3.2 km/h
1392 11-12-2013 19:55:00 5.2 C 6.54 g/m*3 5.2 C 1.6 km/h
1393 11-12-2013 20:00:00 5.2 C 6.54 g/m*3 5.2 C 3.2 km/h
1394 11-12-2013 20:05:00 5.2 C 6.54 g/m*3 5.2 C 0 km/h
1395 11-12-2013 20:10:00 5.2 C 6.54 g/m*3 5.2 C 0 km/h
1396 11-12-2013 20:15:00 5.2 C 6.54 g/m*3 5.2 C 3.2 km/h
1397 11-12-2013 20:20:00 5.2 C 6.54 g/m*3 5.2 C 3.2 km/h
1398 11-12-2013 20:25:00 5.1 C 6.5 g/m*3 5.1 C 0 km/h
1399 11-12-2013 20:30:00 5.1 C 6.5 g/m*3 5.1 C 1.6 km/h
1400 11-12-2013 20:35:00 5.1 C 6.5 g/m*3 5.1 C 0 km/h
Sensor: Nr:Datum:Temp:Abs-Feuchte:Windchill:Wind:
Aussen-T/F 1401 11-12-2013 20:40:00 5.1 C 6.5 g/m*3 5.1 C 0 km/h
1402 11-12-2013 20:45:00 5.1 C 6.43 g/m*3 5.1 C 0 km/h
1403 11-12-2013 20:50:00 5.1 C 6.43 g/m*3 5.1 C 3.2 km/h
1404 11-12-2013 20:55:00 5.1 C 6.43 g/m*3 5.1 C 3.2 km/h
1405 11-12-2013 21:00:00 5.1 C 6.43 g/m*3 3.23 C 8.1 km/h
1406 11-12-2013 21:05:00 5.1 C 6.43 g/m*3 5.1 C 0 km/h
1407 11-12-2013 21:10:00 5 C 6.39 g/m*3 5 C 0 km/h
1408 11-12-2013 21:15:00 5.1 C 6.5 g/m*3 5.1 C 0 km/h
1409 11-12-2013 21:20:00 5 C 6.46 g/m*3 5 C 0 km/h
1410 11-12-2013 21:25:00 5 C 6.46 g/m*3 5 C 0 km/h
1411 11-12-2013 21:30:00 5 C 6.46 g/m*3 5 C 0 km/h
1412 11-12-2013 21:35:00 5 C 6.46 g/m*3 3.59 C 6.4 km/h
1413 11-12-2013 21:40:00 4.9 C 6.35 g/m*3 4.9 C 4.8 km/h
1414 11-12-2013 21:45:00 4.9 C 6.35 g/m*3 4.9 C 3.2 km/h
1415 11-12-2013 21:50:00 4.9 C 6.35 g/m*3 2.99 C 8.1 km/h
1416 11-12-2013 21:55:00 4.9 C 6.35 g/m*3 4.9 C 1.6 km/h
1417 11-12-2013 22:00:00 4.9 C 6.41 g/m*3 4.9 C 1.6 km/h
1418 11-12-2013 22:05:00 4.9 C 6.41 g/m*3 4.9 C 3.2 km/h
1419 11-12-2013 22:10:00 4.9 C 6.41 g/m*3 4.9 C 3.2 km/h
1420 11-12-2013 22:15:00 4.8 C 6.37 g/m*3 4.8 C 0 km/h
1421 11-12-2013 22:20:00 4.8 C 6.37 g/m*3 4.8 C 1.6 km/h
1422 11-12-2013 22:25:00 4.8 C 6.37 g/m*3 4.8 C 3.2 km/h
1423 11-12-2013 22:30:00 4.8 C 6.37 g/m*3 4.8 C 1.6 km/h
1424 11-12-2013 22:35:00 4.8 C 6.3 g/m*3 2.87 C 8.1 km/h
1425 11-12-2013 22:40:00 4.8 C 6.3 g/m*3 4.8 C 3.2 km/h
Sensor: Nr:Datum:Temp:Abs-Feuchte:Windchill:Wind:
Aussen-T/F 1426 11-12-2013 22:45:00 4.8 C 6.3 g/m*3 4.8 C 4.8 km/h
1427 11-12-2013 22:50:00 4.8 C 6.3 g/m*3 4.8 C 3.2 km/h
1428 11-12-2013 22:55:00 4.7 C 6.26 g/m*3 4.7 C 0 km/h
1429 11-12-2013 23:00:00 4.7 C 6.26 g/m*3 4.7 C 3.2 km/h
1430 11-12-2013 23:05:00 4.7 C 6.26 g/m*3 4.7 C 3.2 km/h
1431 11-12-2013 23:10:00 4.7 C 6.26 g/m*3 4.7 C 4.8 km/h
1432 11-12-2013 23:15:00 4.7 C 6.26 g/m*3 2.76 C 8.1 km/h
1433 11-12-2013 23:20:00 4.7 C 6.26 g/m*3 4.7 C 4.8 km/h
1434 11-12-2013 23:25:00 4.7 C 6.26 g/m*3 2.37 C 9.7 km/h
1435 11-12-2013 23:30:00 4.7 C 6.26 g/m*3 4.7 C 4.8 km/h
1436 11-12-2013 23:35:00 4.6 C 6.22 g/m*3 4.6 C 1.6 km/h
1437 11-12-2013 23:40:00 4.6 C 6.22 g/m*3 4.6 C 1.6 km/h
1438 11-12-2013 23:45:00 4.6 C 6.22 g/m*3 4.6 C 4.8 km/h
1439 11-12-2013 23:50:00 4.6 C 6.22 g/m*3 4.6 C 3.2 km/h
1440 11-12-2013 23:55:00 4.6 C 6.22 g/m*3 4.6 C 0 km/h
1441 12-12-2013 00:00:00 4.6 C 6.22 g/m*3 4.6 C 3.2 km/h
1442 12-12-2013 00:05:00 4.5 C 6.18 g/m*3 4.5 C 0 km/h
1443 12-12-2013 00:10:00 4.5 C 6.18 g/m*3 4.5 C 1.6 km/h
1444 12-12-2013 00:15:00 4.5 C 6.18 g/m*3 4.5 C 0 km/h
1445 12-12-2013 00:20:00 4.5 C 6.18 g/m*3 4.5 C 0 km/h
1446 12-12-2013 00:25:00 4.5 C 6.18 g/m*3 4.5 C 1.6 km/h
1447 12-12-2013 00:30:00 4.4 C 6.14 g/m*3 4.4 C 3.2 km/h
1448 12-12-2013 00:35:00 4.4 C 6.14 g/m*3 4.4 C 1.6 km/h
1449 12-12-2013 00:40:00 4.4 C 6.14 g/m*3 4.4 C 3.2 km/h
1450 12-12-2013 00:45:00 4.4 C 6.14 g/m*3 4.4 C 1.6 km/h
Sensor: Nr:Datum:Temp:Abs-Feuchte:Windchill:Wind:
Aussen-T/F 1451 12-12-2013 00:50:00 4.4 C 6.14 g/m*3 4.4 C 0 km/h
1452 12-12-2013 00:55:00 4.4 C 6.14 g/m*3 4.4 C 1.6 km/h
1453 12-12-2013 01:00:00 4.4 C 6.14 g/m*3 4.4 C 0 km/h
1454 12-12-2013 01:05:00 4.4 C 6.14 g/m*3 4.4 C 0 km/h
1455 12-12-2013 01:10:00 4.4 C 6.14 g/m*3 4.4 C 0 km/h
1456 12-12-2013 01:15:00 4.3 C 6.1 g/m*3 4.3 C 4.8 km/h
1457 12-12-2013 01:20:00 4.3 C 6.1 g/m*3 4.3 C 4.8 km/h
1458 12-12-2013 01:25:00 4.3 C 6.1 g/m*3 4.3 C 3.2 km/h
1459 12-12-2013 01:30:00 4.3 C 6.1 g/m*3 4.3 C 3.2 km/h
1460 12-12-2013 01:35:00 4.3 C 6.1 g/m*3 4.3 C 1.6 km/h
1461 12-12-2013 01:40:00 4.3 C 6.1 g/m*3 4.3 C 3.2 km/h
1462 12-12-2013 01:45:00 4.3 C 6.1 g/m*3 2.78 C 6.4 km/h
1463 12-12-2013 01:50:00 4.3 C 6.1 g/m*3 4.3 C 3.2 km/h
1464 12-12-2013 01:55:00 4.3 C 6.1 g/m*3 4.3 C 4.8 km/h
1465 12-12-2013 02:00:00 4.3 C 6.1 g/m*3 4.3 C 3.2 km/h
1466 12-12-2013 02:05:00 4.3 C 6.1 g/m*3 4.3 C 0 km/h
1467 12-12-2013 02:10:00 4.3 C 6.1 g/m*3 4.3 C 0 km/h
1468 12-12-2013 02:15:00 4.3 C 6.1 g/m*3 4.3 C 3.2 km/h
1469 12-12-2013 02:20:00 4.3 C 6.1 g/m*3 4.3 C 3.2 km/h
1470 12-12-2013 02:25:00 4.3 C 6.1 g/m*3 4.3 C 3.2 km/h
1471 12-12-2013 02:30:00 4.2 C 6.06 g/m*3 4.2 C 1.6 km/h
1472 12-12-2013 02:35:00 4.3 C 6.1 g/m*3 4.3 C 0 km/h
1473 12-12-2013 02:40:00 4.2 C 6.06 g/m*3 4.2 C 0 km/h
1474 12-12-2013 02:45:00 4.2 C 6.06 g/m*3 4.2 C 1.6 km/h
1475 12-12-2013 02:50:00 4.2 C 6.06 g/m*3 4.2 C 3.2 km/h
Sensor: Nr:Datum:Temp:Abs-Feuchte:Windchill:Wind:
Aussen-T/F 1476 12-12-2013 02:55:00 4.2 C 6.06 g/m*3 4.2 C 1.6 km/h
1477 12-12-2013 03:00:00 4.3 C 6.16 g/m*3 4.3 C 0 km/h
1478 12-12-2013 03:05:00 4.2 C 6.06 g/m*3 4.2 C 0 km/h
1479 12-12-2013 03:10:00 4.3 C 6.16 g/m*3 4.3 C 0 km/h
1480 12-12-2013 03:15:00 4.3 C 6.16 g/m*3 4.3 C 0 km/h
1481 12-12-2013 03:20:00 4.3 C 6.16 g/m*3 4.3 C 1.6 km/h
1482 12-12-2013 03:25:00 4.3 C 6.1 g/m*3 4.3 C 0 km/h
1483 12-12-2013 03:30:00 4.3 C 6.1 g/m*3 4.3 C 0 km/h
1484 12-12-2013 03:35:00 4.3 C 6.1 g/m*3 4.3 C 0 km/h
1485 12-12-2013 03:40:00 4.3 C 6.1 g/m*3 4.3 C 0 km/h
1486 12-12-2013 03:45:00 4.3 C 6.1 g/m*3 4.3 C 0 km/h
1487 12-12-2013 03:50:00 4.3 C 6.1 g/m*3 4.3 C 0 km/h
1488 12-12-2013 03:55:00 4.3 C 6.1 g/m*3 4.3 C 0 km/h
1489 12-12-2013 04:00:00 4.3 C 6.1 g/m*3 4.3 C 0 km/h
1490 12-12-2013 04:05:00 4.3 C 6.1 g/m*3 4.3 C 1.6 km/h
1491 12-12-2013 04:10:00 4.3 C 6.1 g/m*3 4.3 C 0 km/h
1492 12-12-2013 04:15:00 4.3 C 6.1 g/m*3 4.3 C 1.6 km/h
1493 12-12-2013 04:20:00 4.3 C 6.1 g/m*3 4.3 C 1.6 km/h
1494 12-12-2013 04:25:00 4.3 C 6.1 g/m*3 4.3 C 3.2 km/h
1495 12-12-2013 04:30:00 4.3 C 6.1 g/m*3 4.3 C 0 km/h
1496 12-12-2013 04:35:00 4.3 C 6.1 g/m*3 4.3 C 0 km/h
1497 12-12-2013 04:40:00 4.3 C 6.1 g/m*3 4.3 C 1.6 km/h
1498 12-12-2013 04:45:00 4.3 C 6.1 g/m*3 4.3 C 3.2 km/h
1499 12-12-2013 04:50:00 4.3 C 6.1 g/m*3 4.3 C 3.2 km/h
1500 12-12-2013 04:55:00 4.3 C 6.1 g/m*3 4.3 C 4.8 km/h
Sensor: Nr:Datum:Temp:Abs-Feuchte:Windchill:Wind:
Aussen-T/F 1501 12-12-2013 05:00:00 4.3 C 6.1 g/m*3 2.29 C 8.1 km/h
1502 12-12-2013 05:05:00 4.3 C 6.1 g/m*3 4.3 C 1.6 km/h
1503 12-12-2013 05:10:00 4.3 C 6.1 g/m*3 4.3 C 0 km/h
1504 12-12-2013 05:15:00 4.3 C 6.1 g/m*3 4.3 C 0 km/h
1505 12-12-2013 05:20:00 4.3 C 6.1 g/m*3 4.3 C 0 km/h
1506 12-12-2013 05:25:00 4.2 C 6.06 g/m*3 4.2 C 0 km/h
1507 12-12-2013 05:30:00 4.3 C 6.1 g/m*3 4.3 C 1.6 km/h
1508 12-12-2013 05:35:00 4.3 C 6.1 g/m*3 4.3 C 0 km/h
1509 12-12-2013 05:40:00 4.2 C 6.06 g/m*3 4.2 C 1.6 km/h
1510 12-12-2013 05:45:00 4.3 C 6.1 g/m*3 4.3 C 0 km/h
1511 12-12-2013 05:50:00 4.2 C 6.06 g/m*3 4.2 C 1.6 km/h
1512 12-12-2013 05:55:00 4.2 C 6.06 g/m*3 4.2 C 0 km/h
1513 12-12-2013 06:00:00 4.2 C 6.06 g/m*3 4.2 C 0 km/h
1514 12-12-2013 06:05:00 4.2 C 6.06 g/m*3 4.2 C 3.2 km/h
1515 12-12-2013 06:10:00 4.2 C 6.06 g/m*3 4.2 C 3.2 km/h
1516 12-12-2013 06:15:00 4.2 C 6.06 g/m*3 4.2 C 1.6 km/h
1517 12-12-2013 06:20:00 4.2 C 6.06 g/m*3 4.2 C 1.6 km/h
1518 12-12-2013 06:25:00 4.1 C 6.02 g/m*3 4.1 C 1.6 km/h
1519 12-12-2013 06:30:00 4.1 C 6.02 g/m*3 4.1 C 1.6 km/h
1520 12-12-2013 06:35:00 4.1 C 6.02 g/m*3 4.1 C 1.6 km/h
1521 12-12-2013 06:40:00 4.1 C 6.02 g/m*3 4.1 C 3.2 km/h
1522 12-12-2013 06:45:00 4.1 C 6.02 g/m*3 2.05 C 8.1 km/h
1523 12-12-2013 06:50:00 4.1 C 6.02 g/m*3 4.1 C 4.8 km/h
1524 12-12-2013 06:55:00 4.1 C 6.02 g/m*3 2.55 C 6.4 km/h
1525 12-12-2013 07:00:00 4.1 C 6.02 g/m*3 4.1 C 0 km/h
Sensor: Nr:Datum:Temp:Abs-Feuchte:Windchill:Wind:
Aussen-T/F 1526 12-12-2013 07:05:00 4.1 C 5.95 g/m*3 2.55 C 6.4 km/h
1527 12-12-2013 07:10:00 4.1 C 5.95 g/m*3 2.55 C 6.4 km/h
1528 12-12-2013 07:15:00 4.1 C 5.95 g/m*3 2.55 C 6.4 km/h
1529 12-12-2013 07:20:00 4.1 C 5.95 g/m*3 4.1 C 1.6 km/h
1530 12-12-2013 07:25:00 4 C 5.91 g/m*3 4 C 0 km/h
1531 12-12-2013 07:30:00 4 C 5.91 g/m*3 4 C 4.8 km/h
1532 12-12-2013 07:35:00 4 C 5.91 g/m*3 4 C 0 km/h
1533 12-12-2013 07:40:00 4 C 5.91 g/m*3 4 C 3.2 km/h
1534 12-12-2013 07:45:00 4 C 5.91 g/m*3 4 C 3.2 km/h
1535 12-12-2013 07:50:00 3.9 C 5.87 g/m*3 3.9 C 3.2 km/h
1536 12-12-2013 07:55:00 3.9 C 5.87 g/m*3 3.9 C 3.2 km/h
1537 12-12-2013 08:00:00 3.9 C 5.87 g/m*3 3.9 C 1.6 km/h
1538 12-12-2013 08:05:00 3.9 C 5.87 g/m*3 3.9 C 3.2 km/h
1539 12-12-2013 08:10:00 3.9 C 5.87 g/m*3 3.9 C 1.6 km/h
1540 12-12-2013 08:15:00 3.9 C 5.87 g/m*3 3.9 C 0 km/h
1541 12-12-2013 08:20:00 3.8 C 5.77 g/m*3 3.8 C 0 km/h
1542 12-12-2013 08:25:00 3.8 C 5.77 g/m*3 3.8 C 0 km/h
1543 12-12-2013 08:30:00 3.8 C 5.77 g/m*3 3.8 C 3.2 km/h
1544 12-12-2013 08:35:00 3.8 C 5.83 g/m*3 3.8 C 4.8 km/h
1545 12-12-2013 08:40:00 3.9 C 5.87 g/m*3 3.9 C 4.8 km/h
1546 12-12-2013 08:45:00 3.8 C 5.77 g/m*3 3.8 C 3.2 km/h
1547 12-12-2013 08:50:00 3.8 C 5.77 g/m*3 3.8 C 4.8 km/h
1548 12-12-2013 08:55:00 3.9 C 5.87 g/m*3 3.9 C 4.8 km/h
1549 12-12-2013 09:00:00 3.9 C 5.87 g/m*3 3.9 C 4.8 km/h
1550 12-12-2013 09:05:00 3.9 C 5.87 g/m*3 2.32 C 6.4 km/h
Sensor: Nr:Datum:Temp:Abs-Feuchte:Windchill:Wind:
Aussen-T/F 1551 12-12-2013 09:10:00 3.9 C 5.87 g/m*3 3.9 C 4.8 km/h
1552 12-12-2013 09:15:00 3.9 C 5.81 g/m*3 2.32 C 6.4 km/h
1553 12-12-2013 09:20:00 3.9 C 5.81 g/m*3 3.9 C 4.8 km/h
1554 12-12-2013 09:25:00 3.9 C 5.81 g/m*3 3.9 C 0 km/h
1555 12-12-2013 09:30:00 3.9 C 5.81 g/m*3 3.9 C 4.8 km/h
1556 12-12-2013 09:35:00 3.9 C 5.75 g/m*3 2.32 C 6.4 km/h
1557 12-12-2013 09:40:00 3.9 C 5.81 g/m*3 3.9 C 3.2 km/h
1558 12-12-2013 09:45:00 4 C 5.79 g/m*3 4 C 3.2 km/h
1559 12-12-2013 09:50:00 3.9 C 5.75 g/m*3 3.9 C 4.8 km/h
1560 12-12-2013 09:55:00 4 C 5.79 g/m*3 4 C 4.8 km/h
1561 12-12-2013 10:00:00 4 C 5.79 g/m*3 4 C 3.2 km/h
1562 12-12-2013 10:05:00 4 C 5.79 g/m*3 4 C 0 km/h
1563 12-12-2013 10:10:00 4.1 C 5.82 g/m*3 2.55 C 6.4 km/h
1564 12-12-2013 10:15:00 4.1 C 5.82 g/m*3 2.55 C 6.4 km/h
1565 12-12-2013 10:20:00 4.1 C 5.76 g/m*3 4.1 C 3.2 km/h
1566 12-12-2013 10:25:00 4.1 C 5.82 g/m*3 4.1 C 3.2 km/h
1567 12-12-2013 10:30:00 4.1 C 5.76 g/m*3 4.1 C 1.6 km/h
1568 12-12-2013 10:35:00 4.1 C 5.76 g/m*3 4.1 C 3.2 km/h
1569 12-12-2013 10:40:00 4.2 C 5.8 g/m*3 4.2 C 4.8 km/h
1570 12-12-2013 10:45:00 4.2 C 5.8 g/m*3 4.2 C 3.2 km/h
1571 12-12-2013 10:50:00 4.2 C 5.8 g/m*3 4.2 C 0 km/h
1572 12-12-2013 10:55:00 4.2 C 5.8 g/m*3 4.2 C 4.8 km/h
1573 12-12-2013 11:00:00 4.2 C 5.8 g/m*3 4.2 C 3.2 km/h
1574 12-12-2013 11:05:00 4.2 C 5.8 g/m*3 4.2 C 4.8 km/h
1575 12-12-2013 11:10:00 4.2 C 5.8 g/m*3 4.2 C 4.8 km/h
Sensor: Nr:Datum:Temp:Abs-Feuchte:Windchill:Wind:
Aussen-T/F 1576 12-12-2013 11:15:00 4.2 C 5.8 g/m*3 2.67 C 6.4 km/h
1577 12-12-2013 11:20:00 4.2 C 5.8 g/m*3 4.2 C 4.8 km/h
1578 12-12-2013 11:25:00 4.3 C 5.84 g/m*3 4.3 C 4.8 km/h
1579 12-12-2013 11:30:00 4.3 C 5.84 g/m*3 4.3 C 4.8 km/h
1580 12-12-2013 11:35:00 4.3 C 5.84 g/m*3 2.78 C 6.4 km/h
1581 12-12-2013 11:40:00 4.3 C 5.84 g/m*3 4.3 C 4.8 km/h
1582 12-12-2013 11:45:00 4.3 C 5.84 g/m*3 4.3 C 3.2 km/h
1583 12-12-2013 11:50:00 4.3 C 5.84 g/m*3 4.3 C 1.6 km/h
1584 12-12-2013 11:55:00 4.4 C 5.88 g/m*3 4.4 C 1.6 km/h
1585 12-12-2013 12:00:00 4.4 C 5.88 g/m*3 4.4 C 3.2 km/h
1586 12-12-2013 12:05:00 4.4 C 5.88 g/m*3 4.4 C 3.2 km/h
1587 12-12-2013 12:10:00 4.5 C 5.92 g/m*3 4.5 C 1.6 km/h
1588 12-12-2013 12:15:00 4.6 C 5.96 g/m*3 4.6 C 4.8 km/h
1589 12-12-2013 12:20:00 4.6 C 5.96 g/m*3 4.6 C 0 km/h
1590 12-12-2013 12:25:00 4.6 C 5.96 g/m*3 4.6 C 3.2 km/h
1591 12-12-2013 12:30:00 4.7 C 6 g/m*3 4.7 C 4.8 km/h
1592 12-12-2013 12:35:00 4.7 C 6 g/m*3 4.7 C 4.8 km/h
1593 12-12-2013 12:40:00 4.6 C 5.89 g/m*3 4.6 C 4.8 km/h
1594 12-12-2013 12:45:00 4.7 C 6 g/m*3 4.7 C 1.6 km/h
1595 12-12-2013 12:50:00 4.7 C 6 g/m*3 4.7 C 3.2 km/h
1596 12-12-2013 12:55:00 4.7 C 6 g/m*3 4.7 C 3.2 km/h
1597 12-12-2013 13:00:00 4.7 C 6 g/m*3 4.7 C 3.2 km/h
1598 12-12-2013 13:05:00 4.7 C 6 g/m*3 3.25 C 6.4 km/h
1599 12-12-2013 13:10:00 4.7 C 5.93 g/m*3 4.7 C 4.8 km/h
1600 12-12-2013 13:15:00 4.7 C 5.93 g/m*3 3.25 C 6.4 km/h
Sensor: Nr:Datum:Temp:Abs-Feuchte:Windchill:Wind:
Aussen-T/F 1601 12-12-2013 13:20:00 4.8 C 6.04 g/m*3 3.36 C 6.4 km/h
1602 12-12-2013 13:25:00 4.8 C 5.97 g/m*3 2.87 C 8.1 km/h
1603 12-12-2013 13:30:00 4.8 C 5.97 g/m*3 3.36 C 6.4 km/h
1604 12-12-2013 13:35:00 4.8 C 6.04 g/m*3 3.36 C 6.4 km/h
1605 12-12-2013 13:40:00 4.8 C 5.97 g/m*3 4.8 C 4.8 km/h
1606 12-12-2013 13:45:00 4.8 C 5.97 g/m*3 3.36 C 6.4 km/h
1607 12-12-2013 13:50:00 4.9 C 6.08 g/m*3 4.9 C 3.2 km/h
1608 12-12-2013 13:55:00 4.9 C 6.08 g/m*3 4.9 C 3.2 km/h
1609 12-12-2013 14:00:00 4.9 C 6.08 g/m*3 4.9 C 0 km/h
1610 12-12-2013 14:05:00 4.9 C 6.01 g/m*3 4.9 C 3.2 km/h
1611 12-12-2013 14:10:00 4.9 C 6.08 g/m*3 4.9 C 0 km/h
1612 12-12-2013 14:15:00 4.9 C 6.08 g/m*3 4.9 C 0 km/h
1613 12-12-2013 14:20:00 5 C 6.12 g/m*3 5 C 3.2 km/h
1614 12-12-2013 14:25:00 5.1 C 6.09 g/m*3 5.1 C 1.6 km/h
1615 12-12-2013 14:30:00 5.1 C 6.09 g/m*3 3.71 C 6.4 km/h
1616 12-12-2013 14:35:00 5 C 6.05 g/m*3 5 C 3.2 km/h
1617 12-12-2013 14:40:00 5.1 C 6.09 g/m*3 5.1 C 4.8 km/h
1618 12-12-2013 14:45:00 5 C 6.05 g/m*3 5 C 4.8 km/h
1619 12-12-2013 14:50:00 5 C 6.05 g/m*3 5 C 0 km/h
1620 12-12-2013 14:55:00 5 C 6.05 g/m*3 5 C 0 km/h
1621 12-12-2013 15:00:00 5 C 6.05 g/m*3 5 C 3.2 km/h
1622 12-12-2013 15:05:00 5 C 6.05 g/m*3 5 C 3.2 km/h
1623 12-12-2013 15:10:00 4.9 C 6.01 g/m*3 4.9 C 3.2 km/h
1624 12-12-2013 15:15:00 5 C 6.05 g/m*3 5 C 3.2 km/h
1625 12-12-2013 15:20:00 4.9 C 6.01 g/m*3 4.9 C 1.6 km/h
Sensor: Nr:Datum:Temp:Abs-Feuchte:Windchill:Wind:
Aussen-T/F 1626 12-12-2013 15:25:00 4.9 C 6.01 g/m*3 4.9 C 3.2 km/h
1627 12-12-2013 15:30:00 4.8 C 5.97 g/m*3 4.8 C 4.8 km/h
1628 12-12-2013 15:35:00 4.7 C 5.93 g/m*3 4.7 C 4.8 km/h
1629 12-12-2013 15:40:00 4.6 C 5.96 g/m*3 4.6 C 4.8 km/h
1630 12-12-2013 15:45:00 4.4 C 5.88 g/m*3 4.4 C 3.2 km/h
1631 12-12-2013 15:50:00 4.4 C 5.88 g/m*3 4.4 C 4.8 km/h
1632 12-12-2013 15:55:00 4.3 C 5.84 g/m*3 4.3 C 4.8 km/h
1633 12-12-2013 16:00:00 4.2 C 5.86 g/m*3 2.67 C 6.4 km/h
1634 12-12-2013 16:05:00 4.1 C 5.82 g/m*3 4.1 C 4.8 km/h
1635 12-12-2013 16:10:00 4 C 5.79 g/m*3 4 C 3.2 km/h
1636 12-12-2013 16:15:00 3.9 C 5.75 g/m*3 3.9 C 3.2 km/h
1637 12-12-2013 16:20:00 3.8 C 5.71 g/m*3 3.8 C 4.8 km/h
1638 12-12-2013 16:25:00 3.8 C 5.71 g/m*3 3.8 C 4.8 km/h
1639 12-12-2013 16:30:00 3.8 C 5.77 g/m*3 3.8 C 1.6 km/h
1640 12-12-2013 16:35:00 3.8 C 5.77 g/m*3 3.8 C 4.8 km/h
1641 12-12-2013 16:40:00 3.7 C 5.73 g/m*3 3.7 C 4.8 km/h
1642 12-12-2013 16:45:00 3.7 C 5.73 g/m*3 3.7 C 3.2 km/h
1643 12-12-2013 16:50:00 3.7 C 5.73 g/m*3 2.09 C 6.4 km/h
1644 12-12-2013 16:55:00 3.6 C 5.69 g/m*3 3.6 C 4.8 km/h
1645 12-12-2013 17:00:00 3.6 C 5.69 g/m*3 3.6 C 3.2 km/h
1646 12-12-2013 17:05:00 3.6 C 5.69 g/m*3 1.98 C 6.4 km/h
1647 12-12-2013 17:10:00 3.6 C 5.69 g/m*3 3.6 C 4.8 km/h
1648 12-12-2013 17:15:00 3.6 C 5.69 g/m*3 3.6 C 4.8 km/h
1649 12-12-2013 17:20:00 3.6 C 5.69 g/m*3 3.6 C 3.2 km/h
1650 12-12-2013 17:25:00 3.6 C 5.69 g/m*3 3.6 C 0 km/h
Sensor: Nr:Datum:Temp:Abs-Feuchte:Windchill:Wind:
Aussen-T/F 1651 12-12-2013 17:30:00 3.6 C 5.69 g/m*3 3.6 C 3.2 km/h
1652 12-12-2013 17:35:00 3.6 C 5.69 g/m*3 3.6 C 1.6 km/h
1653 12-12-2013 17:40:00 3.6 C 5.69 g/m*3 3.6 C 1.6 km/h
1654 12-12-2013 17:45:00 3.6 C 5.69 g/m*3 3.6 C 0 km/h
1655 12-12-2013 17:50:00 3.6 C 5.69 g/m*3 3.6 C 3.2 km/h
1656 12-12-2013 17:55:00 3.6 C 5.69 g/m*3 3.6 C 1.6 km/h
1657 12-12-2013 18:00:00 3.6 C 5.69 g/m*3 3.6 C 3.2 km/h
1658 12-12-2013 18:05:00 3.6 C 5.69 g/m*3 3.6 C 1.6 km/h
1659 12-12-2013 18:10:00 3.6 C 5.69 g/m*3 3.6 C 0 km/h
1660 12-12-2013 18:15:00 3.6 C 5.69 g/m*3 3.6 C 0 km/h
1661 12-12-2013 18:20:00 3.6 C 5.69 g/m*3 3.6 C 0 km/h
1662 12-12-2013 18:25:00 3.6 C 5.69 g/m*3 3.6 C 0 km/h
1663 12-12-2013 18:30:00 3.6 C 5.69 g/m*3 3.6 C 0 km/h
1664 12-12-2013 18:35:00 3.6 C 5.69 g/m*3 3.6 C 0 km/h
1665 12-12-2013 18:40:00 3.6 C 5.69 g/m*3 3.6 C 0 km/h
1666 12-12-2013 18:45:00 3.6 C 5.69 g/m*3 3.6 C 0 km/h
1667 12-12-2013 18:50:00 3.6 C 5.69 g/m*3 3.6 C 0 km/h
1668 12-12-2013 18:55:00 3.6 C 5.69 g/m*3 3.6 C 3.2 km/h
1669 12-12-2013 19:00:00 3.6 C 5.69 g/m*3 3.6 C 1.6 km/h
1670 12-12-2013 19:05:00 3.6 C 5.69 g/m*3 3.6 C 0 km/h
1671 12-12-2013 19:10:00 3.6 C 5.69 g/m*3 3.6 C 3.2 km/h
1672 12-12-2013 19:15:00 3.6 C 5.69 g/m*3 3.6 C 0 km/h
1673 12-12-2013 19:20:00 3.6 C 5.69 g/m*3 3.6 C 0 km/h
1674 12-12-2013 19:25:00 3.5 C 5.66 g/m*3 3.5 C 0 km/h
1675 12-12-2013 19:30:00 3.5 C 5.66 g/m*3 3.5 C 0 km/h
Sensor: Nr:Datum:Temp:Abs-Feuchte:Windchill:Wind:
Aussen-T/F 1676 12-12-2013 19:35:00 3.5 C 5.66 g/m*3 3.5 C 0 km/h
1677 12-12-2013 19:40:00 3.5 C 5.66 g/m*3 3.5 C 0 km/h
1678 12-12-2013 19:45:00 3.5 C 5.66 g/m*3 3.5 C 0 km/h
1679 12-12-2013 19:50:00 3.5 C 5.66 g/m*3 3.5 C 0 km/h
1680 12-12-2013 19:55:00 3.5 C 5.66 g/m*3 3.5 C 0 km/h
1681 12-12-2013 20:00:00 3.5 C 5.72 g/m*3 3.5 C 0 km/h
1682 12-12-2013 20:05:00 3.5 C 5.72 g/m*3 3.5 C 0 km/h
1683 12-12-2013 20:10:00 3.5 C 5.72 g/m*3 3.5 C 0 km/h
1684 12-12-2013 20:15:00 3.5 C 5.72 g/m*3 3.5 C 0 km/h
1685 12-12-2013 20:20:00 3.5 C 5.72 g/m*3 3.5 C 0 km/h
1686 12-12-2013 20:25:00 3.5 C 5.72 g/m*3 3.5 C 0 km/h
1687 12-12-2013 20:30:00 3.5 C 5.72 g/m*3 3.5 C 0 km/h
1688 12-12-2013 20:35:00 3.5 C 5.72 g/m*3 3.5 C 0 km/h
1689 12-12-2013 20:40:00 3.5 C 5.72 g/m*3 3.5 C 0 km/h
1690 12-12-2013 20:45:00 3.6 C 5.76 g/m*3 3.6 C 0 km/h
1691 12-12-2013 20:50:00 3.6 C 5.76 g/m*3 3.6 C 0 km/h
1692 12-12-2013 20:55:00 3.6 C 5.76 g/m*3 3.6 C 0 km/h
1693 12-12-2013 21:00:00 3.6 C 5.76 g/m*3 3.6 C 0 km/h
1694 12-12-2013 21:05:00 3.6 C 5.76 g/m*3 3.6 C 0 km/h
1695 12-12-2013 21:10:00 3.6 C 5.76 g/m*3 3.6 C 0 km/h
1696 12-12-2013 21:15:00 3.6 C 5.76 g/m*3 3.6 C 0 km/h
1697 12-12-2013 21:20:00 3.6 C 5.76 g/m*3 3.6 C 0 km/h
1698 12-12-2013 21:25:00 3.6 C 5.76 g/m*3 3.6 C 0 km/h
1699 12-12-2013 21:30:00 3.6 C 5.76 g/m*3 3.6 C 0 km/h
1700 12-12-2013 21:35:00 3.6 C 5.76 g/m*3 3.6 C 0 km/h
Sensor: Nr:Datum:Temp:Abs-Feuchte:Windchill:Wind:
Aussen-T/F 1701 12-12-2013 21:40:00 3.6 C 5.76 g/m*3 3.6 C 0 km/h
1702 12-12-2013 21:45:00 3.6 C 5.76 g/m*3 3.6 C 0 km/h
1703 12-12-2013 21:50:00 3.6 C 5.76 g/m*3 3.6 C 0 km/h
1704 12-12-2013 21:55:00 3.7 C 5.8 g/m*3 3.7 C 0 km/h
1705 12-12-2013 22:00:00 3.7 C 5.8 g/m*3 3.7 C 0 km/h
1706 12-12-2013 22:05:00 3.7 C 5.8 g/m*3 3.7 C 0 km/h
1707 12-12-2013 22:10:00 3.7 C 5.8 g/m*3 3.7 C 0 km/h
1708 12-12-2013 22:15:00 3.6 C 5.76 g/m*3 3.6 C 0 km/h
1709 12-12-2013 22:20:00 3.6 C 5.76 g/m*3 3.6 C 0 km/h
1710 12-12-2013 22:25:00 3.6 C 5.76 g/m*3 3.6 C 0 km/h
1711 12-12-2013 22:30:00 3.6 C 5.76 g/m*3 3.6 C 0 km/h
1712 12-12-2013 22:35:00 3.6 C 5.76 g/m*3 3.6 C 0 km/h
1713 12-12-2013 22:40:00 3.6 C 5.76 g/m*3 3.6 C 0 km/h
1714 12-12-2013 22:45:00 3.6 C 5.76 g/m*3 3.6 C 0 km/h
1715 12-12-2013 22:50:00 3.5 C 5.72 g/m*3 3.5 C 0 km/h
1716 12-12-2013 22:55:00 3.4 C 5.68 g/m*3 3.4 C 0 km/h
1717 12-12-2013 23:00:00 3.4 C 5.68 g/m*3 3.4 C 0 km/h
1718 12-12-2013 23:05:00 3.5 C 5.66 g/m*3 3.5 C 1.6 km/h
1719 12-12-2013 23:10:00 3.5 C 5.66 g/m*3 3.5 C 0 km/h
1720 12-12-2013 23:15:00 3.5 C 5.66 g/m*3 3.5 C 0 km/h
1721 12-12-2013 23:20:00 3.5 C 5.72 g/m*3 3.5 C 0 km/h
1722 12-12-2013 23:25:00 3.6 C 5.76 g/m*3 3.6 C 0 km/h
1723 12-12-2013 23:30:00 3.6 C 5.69 g/m*3 3.6 C 1.6 km/h
1724 12-12-2013 23:35:00 3.5 C 5.66 g/m*3 3.5 C 1.6 km/h
1725 12-12-2013 23:40:00 3.5 C 5.66 g/m*3 3.5 C 0 km/h
Sensor: Nr:Datum:Temp:Abs-Feuchte:Windchill:Wind:
Aussen-T/F 1726 12-12-2013 23:45:00 3.5 C 5.66 g/m*3 3.5 C 0 km/h
1727 12-12-2013 23:50:00 3.5 C 5.66 g/m*3 3.5 C 0 km/h
1728 12-12-2013 23:55:00 3.5 C 5.6 g/m*3 3.5 C 3.2 km/h
1729 13-12-2013 00:00:00 3.4 C 5.56 g/m*3 3.4 C 0 km/h
1730 13-12-2013 00:05:00 3.4 C 5.56 g/m*3 3.4 C 0 km/h
1731 13-12-2013 00:10:00 3.4 C 5.56 g/m*3 3.4 C 4.8 km/h
1732 13-12-2013 00:15:00 3.4 C 5.56 g/m*3 3.4 C 0 km/h
1733 13-12-2013 00:20:00 3.3 C 5.52 g/m*3 3.3 C 0 km/h
1734 13-12-2013 00:25:00 3.3 C 5.52 g/m*3 3.3 C 4.8 km/h
1735 13-12-2013 00:30:00 3.3 C 5.52 g/m*3 3.3 C 3.2 km/h
1736 13-12-2013 00:35:00 3.3 C 5.46 g/m*3 1.63 C 6.4 km/h
1737 13-12-2013 00:40:00 3.3 C 5.46 g/m*3 1.63 C 6.4 km/h
1738 13-12-2013 00:45:00 3.3 C 5.46 g/m*3 1.11 C 8.1 km/h
1739 13-12-2013 00:50:00 3.3 C 5.46 g/m*3 1.63 C 6.4 km/h
1740 13-12-2013 00:55:00 3.2 C 5.42 g/m*3 0.99 C 8.1 km/h
1741 13-12-2013 01:00:00 3.2 C 5.42 g/m*3 1.51 C 6.4 km/h
1742 13-12-2013 01:05:00 3.2 C 5.42 g/m*3 1.51 C 6.4 km/h
1743 13-12-2013 01:10:00 3.2 C 5.42 g/m*3 1.51 C 6.4 km/h
1744 13-12-2013 01:15:00 3.1 C 5.39 g/m*3 1.4 C 6.4 km/h
1745 13-12-2013 01:20:00 3.1 C 5.39 g/m*3 1.4 C 6.4 km/h
1746 13-12-2013 01:25:00 3.1 C 5.33 g/m*3 1.4 C 6.4 km/h
1747 13-12-2013 01:30:00 2.9 C 5.26 g/m*3 1.17 C 6.4 km/h
1748 13-12-2013 01:35:00 2.9 C 5.32 g/m*3 2.9 C 4.8 km/h
1749 13-12-2013 01:40:00 2.8 C 5.28 g/m*3 2.8 C 4.8 km/h
1750 13-12-2013 01:45:00 2.8 C 5.28 g/m*3 1.05 C 6.4 km/h
Sensor: Nr:Datum:Temp:Abs-Feuchte:Windchill:Wind:
Aussen-T/F 1751 13-12-2013 01:50:00 2.8 C 5.28 g/m*3 2.8 C 4.8 km/h
1752 13-12-2013 01:55:00 2.8 C 5.28 g/m*3 2.8 C 4.8 km/h
1753 13-12-2013 02:00:00 2.8 C 5.28 g/m*3 1.05 C 6.4 km/h
1754 13-12-2013 02:05:00 2.7 C 5.3 g/m*3 2.7 C 3.2 km/h
1755 13-12-2013 02:10:00 2.7 C 5.3 g/m*3 0.4 C 8.1 km/h
1756 13-12-2013 02:15:00 2.7 C 5.3 g/m*3 -0.02 C 9.7 km/h
1757 13-12-2013 02:20:00 2.6 C 5.27 g/m*3 0.29 C 8.1 km/h
1758 13-12-2013 02:25:00 2.6 C 5.27 g/m*3 2.6 C 4.8 km/h
1759 13-12-2013 02:30:00 2.5 C 5.23 g/m*3 2.5 C 4.8 km/h
1760 13-12-2013 02:35:00 2.4 C 5.25 g/m*3 0.05 C 8.1 km/h
1761 13-12-2013 02:40:00 2.4 C 5.25 g/m*3 0.59 C 6.4 km/h
1762 13-12-2013 02:45:00 2.4 C 5.25 g/m*3 0.05 C 8.1 km/h
1763 13-12-2013 02:50:00 2.4 C 5.25 g/m*3 0.59 C 6.4 km/h
1764 13-12-2013 02:55:00 2.4 C 5.25 g/m*3 0.59 C 6.4 km/h
1765 13-12-2013 03:00:00 2.4 C 5.25 g/m*3 0.59 C 6.4 km/h
1766 13-12-2013 03:05:00 2.4 C 5.25 g/m*3 2.4 C 4.8 km/h
1767 13-12-2013 03:10:00 2.4 C 5.25 g/m*3 0.05 C 8.1 km/h
1768 13-12-2013 03:15:00 2.4 C 5.25 g/m*3 -0.37 C 9.7 km/h
1769 13-12-2013 03:20:00 2.4 C 5.25 g/m*3 0.05 C 8.1 km/h
1770 13-12-2013 03:25:00 2.4 C 5.25 g/m*3 0.05 C 8.1 km/h
1771 13-12-2013 03:30:00 2.4 C 5.25 g/m*3 0.59 C 6.4 km/h
1772 13-12-2013 03:35:00 2.4 C 5.25 g/m*3 -0.37 C 9.7 km/h
1773 13-12-2013 03:40:00 2.4 C 5.25 g/m*3 0.59 C 6.4 km/h
1774 13-12-2013 03:45:00 2.4 C 5.25 g/m*3 0.59 C 6.4 km/h
1775 13-12-2013 03:50:00 2.4 C 5.25 g/m*3 0.59 C 6.4 km/h
Sensor: Nr:Datum:Temp:Abs-Feuchte:Windchill:Wind:
Aussen-T/F 1776 13-12-2013 03:55:00 2.4 C 5.25 g/m*3 0.05 C 8.1 km/h
1777 13-12-2013 04:00:00 2.4 C 5.25 g/m*3 0.59 C 6.4 km/h
1778 13-12-2013 04:05:00 2.4 C 5.25 g/m*3 2.4 C 4.8 km/h
1779 13-12-2013 04:10:00 2.4 C 5.25 g/m*3 0.59 C 6.4 km/h
1780 13-12-2013 04:15:00 2.4 C 5.25 g/m*3 0.05 C 8.1 km/h
1781 13-12-2013 04:20:00 2.4 C 5.25 g/m*3 0.05 C 8.1 km/h
1782 13-12-2013 04:25:00 2.4 C 5.25 g/m*3 0.59 C 6.4 km/h
1783 13-12-2013 04:30:00 2.4 C 5.25 g/m*3 2.4 C 4.8 km/h
1784 13-12-2013 04:35:00 2.4 C 5.25 g/m*3 0.59 C 6.4 km/h
1785 13-12-2013 04:40:00 2.4 C 5.25 g/m*3 0.59 C 6.4 km/h
1786 13-12-2013 04:45:00 2.4 C 5.25 g/m*3 0.59 C 6.4 km/h
1787 13-12-2013 04:50:00 2.4 C 5.25 g/m*3 0.59 C 6.4 km/h
1788 13-12-2013 04:55:00 2.4 C 5.2 g/m*3 0.59 C 6.4 km/h
1789 13-12-2013 05:00:00 2.4 C 5.2 g/m*3 0.59 C 6.4 km/h
1790 13-12-2013 05:05:00 2.4 C 5.2 g/m*3 0.59 C 6.4 km/h
1791 13-12-2013 05:10:00 2.3 C 5.16 g/m*3 0.47 C 6.4 km/h
1792 13-12-2013 05:15:00 2.3 C 5.22 g/m*3 2.3 C 4.8 km/h
1793 13-12-2013 05:20:00 2.3 C 5.22 g/m*3 -0.07 C 8.1 km/h
1794 13-12-2013 05:25:00 2.3 C 5.22 g/m*3 -0.49 C 9.7 km/h
1795 13-12-2013 05:30:00 2.3 C 5.22 g/m*3 -0.07 C 8.1 km/h
1796 13-12-2013 05:35:00 2.3 C 5.22 g/m*3 0.47 C 6.4 km/h
1797 13-12-2013 05:40:00 2.3 C 5.22 g/m*3 -0.49 C 9.7 km/h
1798 13-12-2013 05:45:00 2.3 C 5.22 g/m*3 0.47 C 6.4 km/h
1799 13-12-2013 05:50:00 2.3 C 5.22 g/m*3 -0.49 C 9.7 km/h
1800 13-12-2013 05:55:00 2.3 C 5.22 g/m*3 -0.87 C 11.3 km/h
Sensor: Nr:Datum:Temp:Abs-Feuchte:Windchill:Wind:
Aussen-T/F 1801 13-12-2013 06:00:00 2.4 C 5.25 g/m*3 0.05 C 8.1 km/h
1802 13-12-2013 06:05:00 2.4 C 5.2 g/m*3 -1.07 C 12.9 km/h
1803 13-12-2013 06:10:00 2.3 C 5.16 g/m*3 -0.07 C 8.1 km/h
1804 13-12-2013 06:15:00 2.3 C 5.16 g/m*3 -0.49 C 9.7 km/h
1805 13-12-2013 06:20:00 2.3 C 5.22 g/m*3 2.3 C 3.2 km/h
1806 13-12-2013 06:25:00 2.3 C 5.22 g/m*3 0.47 C 6.4 km/h
1807 13-12-2013 06:30:00 2.3 C 5.22 g/m*3 -0.49 C 9.7 km/h
1808 13-12-2013 06:35:00 2.3 C 5.16 g/m*3 0.47 C 6.4 km/h
1809 13-12-2013 06:40:00 2.3 C 5.16 g/m*3 -0.49 C 9.7 km/h
1810 13-12-2013 06:45:00 2.3 C 5.16 g/m*3 0.47 C 6.4 km/h
1811 13-12-2013 06:50:00 2.2 C 5.13 g/m*3 0.36 C 6.4 km/h
1812 13-12-2013 06:55:00 2.2 C 5.18 g/m*3 2.2 C 4.8 km/h
1813 13-12-2013 07:00:00 2.2 C 5.18 g/m*3 0.36 C 6.4 km/h
1814 13-12-2013 07:05:00 2.2 C 5.18 g/m*3 -0.61 C 9.7 km/h
1815 13-12-2013 07:10:00 2.1 C 5.15 g/m*3 -0.73 C 9.7 km/h
1816 13-12-2013 07:15:00 2.1 C 5.15 g/m*3 -0.73 C 9.7 km/h
1817 13-12-2013 07:20:00 2.1 C 5.15 g/m*3 -0.3 C 8.1 km/h
1818 13-12-2013 07:25:00 2.1 C 5.15 g/m*3 -0.3 C 8.1 km/h
1819 13-12-2013 07:30:00 2.1 C 5.15 g/m*3 -0.73 C 9.7 km/h
1820 13-12-2013 07:35:00 2.1 C 5.15 g/m*3 -1.11 C 11.3 km/h
1821 13-12-2013 07:40:00 2.1 C 5.15 g/m*3 -0.3 C 8.1 km/h
1822 13-12-2013 07:45:00 2.1 C 5.15 g/m*3 -0.3 C 8.1 km/h
1823 13-12-2013 07:50:00 2.1 C 5.15 g/m*3 -0.3 C 8.1 km/h
1824 13-12-2013 07:55:00 2.1 C 5.15 g/m*3 2.1 C 4.8 km/h
1825 13-12-2013 08:00:00 2.1 C 5.15 g/m*3 2.1 C 4.8 km/h
Sensor: Nr:Datum:Temp:Abs-Feuchte:Windchill:Wind:
Aussen-T/F 1826 13-12-2013 08:05:00 2.1 C 5.15 g/m*3 0.24 C 6.4 km/h
1827 13-12-2013 08:10:00 2.1 C 5.15 g/m*3 -0.3 C 8.1 km/h
1828 13-12-2013 08:15:00 2.1 C 5.15 g/m*3 -0.3 C 8.1 km/h
1829 13-12-2013 08:20:00 2.1 C 5.15 g/m*3 2.1 C 4.8 km/h
1830 13-12-2013 08:25:00 2.1 C 5.15 g/m*3 2.1 C 3.2 km/h
1831 13-12-2013 08:30:00 2.1 C 5.15 g/m*3 -0.3 C 8.1 km/h
1832 13-12-2013 08:35:00 2.1 C 5.15 g/m*3 0.24 C 6.4 km/h
1833 13-12-2013 08:40:00 2.1 C 5.15 g/m*3 2.1 C 4.8 km/h
1834 13-12-2013 08:45:00 2 C 5.11 g/m*3 -0.42 C 8.1 km/h
1835 13-12-2013 08:50:00 2 C 5.11 g/m*3 0.13 C 6.4 km/h
1836 13-12-2013 08:55:00 2 C 5.11 g/m*3 0.13 C 6.4 km/h
1837 13-12-2013 09:00:00 2 C 5.11 g/m*3 2 C 4.8 km/h
1838 13-12-2013 09:05:00 2 C 5.11 g/m*3 2 C 4.8 km/h
1839 13-12-2013 09:10:00 2 C 5.11 g/m*3 -0.42 C 8.1 km/h
1840 13-12-2013 09:15:00 1.9 C 5.08 g/m*3 1.9 C 3.2 km/h
1841 13-12-2013 09:20:00 2 C 5.11 g/m*3 2 C 4.8 km/h
1842 13-12-2013 09:25:00 2 C 5.11 g/m*3 0.13 C 6.4 km/h
1843 13-12-2013 09:30:00 2 C 5.11 g/m*3 2 C 4.8 km/h
1844 13-12-2013 09:35:00 2.1 C 5.15 g/m*3 -0.3 C 8.1 km/h
1845 13-12-2013 09:40:00 2.1 C 5.15 g/m*3 2.1 C 4.8 km/h
1846 13-12-2013 09:45:00 2.1 C 5.15 g/m*3 2.1 C 4.8 km/h
1847 13-12-2013 09:50:00 2.2 C 5.13 g/m*3 2.2 C 4.8 km/h
1848 13-12-2013 09:55:00 2.2 C 5.13 g/m*3 2.2 C 4.8 km/h
1849 13-12-2013 10:00:00 2.2 C 5.13 g/m*3 -0.18 C 8.1 km/h
1850 13-12-2013 10:05:00 2.2 C 5.13 g/m*3 0.36 C 6.4 km/h
Sensor: Nr:Datum:Temp:Abs-Feuchte:Windchill:Wind:
Aussen-T/F 1851 13-12-2013 10:10:00 2.2 C 5.13 g/m*3 2.2 C 4.8 km/h
1852 13-12-2013 10:15:00 2.2 C 5.13 g/m*3 0.36 C 6.4 km/h
1853 13-12-2013 10:20:00 2.2 C 5.13 g/m*3 -0.18 C 8.1 km/h
1854 13-12-2013 10:25:00 2.2 C 5.13 g/m*3 -0.18 C 8.1 km/h
1855 13-12-2013 10:30:00 2.3 C 5.16 g/m*3 0.47 C 6.4 km/h
1856 13-12-2013 10:35:00 2.3 C 5.22 g/m*3 2.3 C 4.8 km/h
1857 13-12-2013 10:40:00 2.3 C 5.22 g/m*3 0.47 C 6.4 km/h
1858 13-12-2013 10:45:00 2.4 C 5.2 g/m*3 0.05 C 8.1 km/h
1859 13-12-2013 10:50:00 2.4 C 5.2 g/m*3 0.05 C 8.1 km/h
1860 13-12-2013 10:55:00 2.4 C 5.2 g/m*3 0.59 C 6.4 km/h
1861 13-12-2013 11:00:00 2.4 C 5.2 g/m*3 0.05 C 8.1 km/h
1862 13-12-2013 11:05:00 2.5 C 5.23 g/m*3 0.17 C 8.1 km/h
1863 13-12-2013 11:10:00 2.5 C 5.23 g/m*3 -0.26 C 9.7 km/h
1864 13-12-2013 11:15:00 2.5 C 5.23 g/m*3 0.17 C 8.1 km/h
1865 13-12-2013 11:20:00 2.6 C 5.27 g/m*3 0.82 C 6.4 km/h
1866 13-12-2013 11:25:00 2.6 C 5.21 g/m*3 0.29 C 8.1 km/h
1867 13-12-2013 11:30:00 2.6 C 5.21 g/m*3 0.82 C 6.4 km/h
1868 13-12-2013 11:35:00 2.7 C 5.24 g/m*3 0.4 C 8.1 km/h
1869 13-12-2013 11:40:00 2.7 C 5.3 g/m*3 0.4 C 8.1 km/h
1870 13-12-2013 11:45:00 2.8 C 5.28 g/m*3 1.05 C 6.4 km/h
1871 13-12-2013 11:50:00 2.8 C 5.28 g/m*3 1.05 C 6.4 km/h
1872 13-12-2013 11:55:00 2.8 C 5.28 g/m*3 0.52 C 8.1 km/h
1873 13-12-2013 12:00:00 2.8 C 5.28 g/m*3 1.05 C 6.4 km/h
1874 13-12-2013 12:05:00 2.8 C 5.28 g/m*3 0.52 C 8.1 km/h
1875 13-12-2013 12:10:00 2.8 C 5.28 g/m*3 1.05 C 6.4 km/h
Sensor: Nr:Datum:Temp:Abs-Feuchte:Windchill:Wind:
Aussen-T/F 1876 13-12-2013 12:15:00 2.9 C 5.32 g/m*3 2.9 C 4.8 km/h
1877 13-12-2013 12:20:00 2.9 C 5.32 g/m*3 0.64 C 8.1 km/h
1878 13-12-2013 12:25:00 2.9 C 5.32 g/m*3 1.17 C 6.4 km/h
1879 13-12-2013 12:30:00 3 C 5.35 g/m*3 3 C 4.8 km/h
1880 13-12-2013 12:35:00 3 C 5.35 g/m*3 1.28 C 6.4 km/h
1881 13-12-2013 12:40:00 3.1 C 5.33 g/m*3 1.4 C 6.4 km/h
1882 13-12-2013 12:45:00 3.1 C 5.33 g/m*3 1.4 C 6.4 km/h
1883 13-12-2013 12:50:00 3.1 C 5.33 g/m*3 1.4 C 6.4 km/h
1884 13-12-2013 12:55:00 3.2 C 5.36 g/m*3 3.2 C 4.8 km/h
1885 13-12-2013 13:00:00 3.2 C 5.36 g/m*3 3.2 C 4.8 km/h
1886 13-12-2013 13:05:00 3.2 C 5.36 g/m*3 1.51 C 6.4 km/h
1887 13-12-2013 13:10:00 3.2 C 5.36 g/m*3 1.51 C 6.4 km/h
1888 13-12-2013 13:15:00 3.2 C 5.36 g/m*3 0.99 C 8.1 km/h
1889 13-12-2013 13:20:00 3.2 C 5.36 g/m*3 1.51 C 6.4 km/h
1890 13-12-2013 13:25:00 3.2 C 5.36 g/m*3 1.51 C 6.4 km/h
1891 13-12-2013 13:30:00 3.2 C 5.36 g/m*3 3.2 C 4.8 km/h
1892 13-12-2013 13:35:00 3.2 C 5.36 g/m*3 1.51 C 6.4 km/h
1893 13-12-2013 13:40:00 3.2 C 5.36 g/m*3 1.51 C 6.4 km/h
1894 13-12-2013 13:45:00 3.2 C 5.36 g/m*3 1.51 C 6.4 km/h
1895 13-12-2013 13:50:00 3.2 C 5.36 g/m*3 3.2 C 4.8 km/h
1896 13-12-2013 13:55:00 3.2 C 5.36 g/m*3 3.2 C 3.2 km/h
1897 13-12-2013 14:00:00 3.3 C 5.4 g/m*3 3.3 C 4.8 km/h
1898 13-12-2013 14:05:00 3.3 C 5.4 g/m*3 3.3 C 3.2 km/h
1899 13-12-2013 14:10:00 3.3 C 5.4 g/m*3 3.3 C 1.6 km/h
1900 13-12-2013 14:15:00 3.4 C 5.44 g/m*3 3.4 C 3.2 km/h
Sensor: Nr:Datum:Temp:Abs-Feuchte:Windchill:Wind:
Aussen-T/F 1901 13-12-2013 14:20:00 3.4 C 5.44 g/m*3 3.4 C 3.2 km/h
1902 13-12-2013 14:25:00 3.4 C 5.44 g/m*3 3.4 C 3.2 km/h
1903 13-12-2013 14:30:00 3.4 C 5.44 g/m*3 3.4 C 3.2 km/h
1904 13-12-2013 14:35:00 3.5 C 5.47 g/m*3 3.5 C 3.2 km/h
1905 13-12-2013 14:40:00 3.6 C 5.51 g/m*3 3.6 C 0 km/h
1906 13-12-2013 14:45:00 3.6 C 5.51 g/m*3 3.6 C 4.8 km/h
1907 13-12-2013 14:50:00 3.6 C 5.45 g/m*3 3.6 C 3.2 km/h
1908 13-12-2013 14:55:00 3.6 C 5.45 g/m*3 3.6 C 4.8 km/h
1909 13-12-2013 15:00:00 3.6 C 5.45 g/m*3 3.6 C 3.2 km/h
1910 13-12-2013 15:05:00 3.6 C 5.45 g/m*3 1.98 C 6.4 km/h
1911 13-12-2013 15:10:00 3.6 C 5.45 g/m*3 1.98 C 6.4 km/h
1912 13-12-2013 15:15:00 3.5 C 5.41 g/m*3 1.86 C 6.4 km/h
1913 13-12-2013 15:20:00 3.4 C 5.37 g/m*3 3.4 C 4.8 km/h
1914 13-12-2013 15:25:00 3.4 C 5.37 g/m*3 1.75 C 6.4 km/h
1915 13-12-2013 15:30:00 3.3 C 5.34 g/m*3 1.11 C 8.1 km/h
1916 13-12-2013 15:35:00 3.3 C 5.34 g/m*3 3.3 C 3.2 km/h
1917 13-12-2013 15:40:00 3.3 C 5.4 g/m*3 3.3 C 4.8 km/h
1918 13-12-2013 15:45:00 3.2 C 5.36 g/m*3 3.2 C 4.8 km/h
1919 13-12-2013 15:50:00 3.2 C 5.36 g/m*3 3.2 C 1.6 km/h
1920 13-12-2013 15:55:00 3.2 C 5.36 g/m*3 3.2 C 1.6 km/h
1921 13-12-2013 16:00:00 3.2 C 5.36 g/m*3 3.2 C 3.2 km/h
1922 13-12-2013 16:05:00 3.2 C 5.36 g/m*3 3.2 C 3.2 km/h
1923 13-12-2013 16:10:00 3.2 C 5.36 g/m*3 3.2 C 1.6 km/h
1924 13-12-2013 16:15:00 3.2 C 5.36 g/m*3 3.2 C 4.8 km/h
1925 13-12-2013 16:20:00 3.1 C 5.33 g/m*3 3.1 C 1.6 km/h
Sensor: Nr:Datum:Temp:Abs-Feuchte:Windchill:Wind:
Aussen-T/F 1926 13-12-2013 16:25:00 3.1 C 5.33 g/m*3 3.1 C 1.6 km/h
1927 13-12-2013 16:30:00 3.1 C 5.33 g/m*3 3.1 C 0 km/h
1928 13-12-2013 16:35:00 3.1 C 5.33 g/m*3 3.1 C 3.2 km/h
1929 13-12-2013 16:40:00 3.1 C 5.33 g/m*3 3.1 C 3.2 km/h
1930 13-12-2013 16:45:00 3 C 5.35 g/m*3 3 C 1.6 km/h
1931 13-12-2013 16:50:00 3.1 C 5.39 g/m*3 3.1 C 0 km/h
1932 13-12-2013 16:55:00 3 C 5.35 g/m*3 3 C 1.6 km/h
1933 13-12-2013 17:00:00 2.9 C 5.32 g/m*3 2.9 C 4.8 km/h
1934 13-12-2013 17:05:00 2.9 C 5.32 g/m*3 2.9 C 0 km/h
1935 13-12-2013 17:10:00 2.9 C 5.32 g/m*3 2.9 C 0 km/h
1936 13-12-2013 17:15:00 2.9 C 5.32 g/m*3 2.9 C 3.2 km/h
1937 13-12-2013 17:20:00 2.8 C 5.28 g/m*3 2.8 C 3.2 km/h
1938 13-12-2013 17:25:00 2.8 C 5.28 g/m*3 2.8 C 1.6 km/h
1939 13-12-2013 17:30:00 2.8 C 5.28 g/m*3 2.8 C 0 km/h
1940 13-12-2013 17:35:00 2.8 C 5.28 g/m*3 2.8 C 1.6 km/h
1941 13-12-2013 17:40:00 2.8 C 5.28 g/m*3 2.8 C 1.6 km/h
1942 13-12-2013 17:45:00 2.8 C 5.28 g/m*3 2.8 C 0 km/h
1943 13-12-2013 17:50:00 2.8 C 5.28 g/m*3 2.8 C 3.2 km/h
1944 13-12-2013 17:55:00 2.8 C 5.28 g/m*3 2.8 C 0 km/h
1945 13-12-2013 18:00:00 2.8 C 5.34 g/m*3 2.8 C 0 km/h
1946 13-12-2013 18:05:00 2.8 C 5.34 g/m*3 2.8 C 0 km/h
1947 13-12-2013 18:10:00 2.9 C 5.37 g/m*3 2.9 C 1.6 km/h
1948 13-12-2013 18:15:00 2.9 C 5.37 g/m*3 2.9 C 1.6 km/h
1949 13-12-2013 18:20:00 2.9 C 5.37 g/m*3 2.9 C 0 km/h
1950 13-12-2013 18:25:00 2.9 C 5.37 g/m*3 2.9 C 1.6 km/h
Sensor: Nr:Datum:Temp:Abs-Feuchte:Windchill:Wind:
Aussen-T/F 1951 13-12-2013 18:30:00 2.9 C 5.37 g/m*3 2.9 C 3.2 km/h
1952 13-12-2013 18:35:00 3 C 5.41 g/m*3 3 C 0 km/h
1953 13-12-2013 18:40:00 2.9 C 5.37 g/m*3 2.9 C 0 km/h
1954 13-12-2013 18:45:00 2.9 C 5.37 g/m*3 2.9 C 1.6 km/h
1955 13-12-2013 18:50:00 2.9 C 5.32 g/m*3 2.9 C 3.2 km/h
1956 13-12-2013 18:55:00 2.9 C 5.32 g/m*3 2.9 C 1.6 km/h
1957 13-12-2013 19:00:00 2.9 C 5.32 g/m*3 2.9 C 3.2 km/h
1958 13-12-2013 19:05:00 2.9 C 5.32 g/m*3 2.9 C 0 km/h
1959 13-12-2013 19:10:00 2.9 C 5.32 g/m*3 2.9 C 1.6 km/h
1960 13-12-2013 19:15:00 2.9 C 5.32 g/m*3 2.9 C 4.8 km/h
1961 13-12-2013 19:20:00 2.9 C 5.32 g/m*3 2.9 C 3.2 km/h
1962 13-12-2013 19:25:00 2.8 C 5.28 g/m*3 2.8 C 3.2 km/h
1963 13-12-2013 19:30:00 2.8 C 5.22 g/m*3 1.05 C 6.4 km/h
1964 13-12-2013 19:35:00 2.7 C 5.19 g/m*3 2.7 C 4.8 km/h
1965 13-12-2013 19:40:00 2.7 C 5.19 g/m*3 2.7 C 3.2 km/h
1966 13-12-2013 19:45:00 2.6 C 5.15 g/m*3 2.6 C 3.2 km/h
1967 13-12-2013 19:50:00 2.6 C 5.15 g/m*3 2.6 C 4.8 km/h
1968 13-12-2013 19:55:00 2.5 C 5.12 g/m*3 2.5 C 3.2 km/h
1969 13-12-2013 20:00:00 2.5 C 5.12 g/m*3 2.5 C 3.2 km/h
1970 13-12-2013 20:05:00 2.5 C 5.12 g/m*3 2.5 C 0 km/h
1971 13-12-2013 20:10:00 2.5 C 5.17 g/m*3 2.5 C 0 km/h
1972 13-12-2013 20:15:00 2.5 C 5.17 g/m*3 2.5 C 1.6 km/h
1973 13-12-2013 20:20:00 2.5 C 5.17 g/m*3 2.5 C 0 km/h
1974 13-12-2013 20:25:00 2.5 C 5.17 g/m*3 2.5 C 0 km/h
1975 13-12-2013 20:30:00 2.6 C 5.21 g/m*3 2.6 C 4.8 km/h
Sensor: Nr:Datum:Temp:Abs-Feuchte:Windchill:Wind:
Aussen-T/F 1976 13-12-2013 20:35:00 2.6 C 5.21 g/m*3 2.6 C 3.2 km/h
1977 13-12-2013 20:40:00 2.6 C 5.21 g/m*3 2.6 C 0 km/h
1978 13-12-2013 20:45:00 2.6 C 5.21 g/m*3 2.6 C 0 km/h
1979 13-12-2013 20:50:00 2.6 C 5.27 g/m*3 2.6 C 3.2 km/h
1980 13-12-2013 20:55:00 2.7 C 5.3 g/m*3 2.7 C 1.6 km/h
1981 13-12-2013 21:00:00 2.7 C 5.3 g/m*3 2.7 C 0 km/h
1982 13-12-2013 21:05:00 2.7 C 5.3 g/m*3 2.7 C 0 km/h
1983 13-12-2013 21:10:00 2.7 C 5.3 g/m*3 2.7 C 0 km/h
1984 13-12-2013 21:15:00 2.7 C 5.3 g/m*3 2.7 C 3.2 km/h
1985 13-12-2013 21:20:00 2.7 C 5.3 g/m*3 2.7 C 3.2 km/h
1986 13-12-2013 21:25:00 2.7 C 5.3 g/m*3 2.7 C 3.2 km/h
1987 13-12-2013 21:30:00 2.7 C 5.3 g/m*3 2.7 C 4.8 km/h
1988 13-12-2013 21:35:00 2.7 C 5.3 g/m*3 2.7 C 1.6 km/h
1989 13-12-2013 21:40:00 2.7 C 5.24 g/m*3 2.7 C 4.8 km/h
1990 13-12-2013 21:45:00 2.6 C 5.21 g/m*3 2.6 C 4.8 km/h
1991 13-12-2013 21:50:00 2.6 C 5.21 g/m*3 2.6 C 4.8 km/h
1992 13-12-2013 21:55:00 2.5 C 5.17 g/m*3 2.5 C 3.2 km/h
1993 13-12-2013 22:00:00 2.5 C 5.17 g/m*3 2.5 C 1.6 km/h
1994 13-12-2013 22:05:00 2.4 C 5.14 g/m*3 2.4 C 4.8 km/h
1995 13-12-2013 22:10:00 2.4 C 5.2 g/m*3 2.4 C 3.2 km/h
1996 13-12-2013 22:15:00 2.4 C 5.2 g/m*3 2.4 C 3.2 km/h
1997 13-12-2013 22:20:00 2.4 C 5.2 g/m*3 2.4 C 4.8 km/h
1998 13-12-2013 22:25:00 2.4 C 5.2 g/m*3 2.4 C 3.2 km/h
1999 13-12-2013 22:30:00 2.4 C 5.2 g/m*3 2.4 C 0 km/h
2000 13-12-2013 22:35:00 2.4 C 5.2 g/m*3 0.59 C 6.4 km/h
Sensor: Nr:Datum:Temp:Abs-Feuchte:Windchill:Wind:
Aussen-T/F 2001 13-12-2013 22:40:00 2.4 C 5.14 g/m*3 0.59 C 6.4 km/h
2002 13-12-2013 22:45:00 2.5 C 5.17 g/m*3 0.71 C 6.4 km/h
2003 13-12-2013 22:50:00 2.5 C 5.17 g/m*3 0.71 C 6.4 km/h
2004 13-12-2013 22:55:00 2.4 C 5.14 g/m*3 -0.37 C 9.7 km/h
2005 13-12-2013 23:00:00 2.3 C 5.05 g/m*3 -0.49 C 9.7 km/h
2006 13-12-2013 23:05:00 2.3 C 5.05 g/m*3 -0.07 C 8.1 km/h
2007 13-12-2013 23:10:00 2.2 C 5.01 g/m*3 -0.18 C 8.1 km/h
2008 13-12-2013 23:15:00 2.1 C 5.04 g/m*3 2.1 C 3.2 km/h
2009 13-12-2013 23:20:00 2.1 C 5.04 g/m*3 2.1 C 1.6 km/h
2010 13-12-2013 23:25:00 2 C 5 g/m*3 2 C 0 km/h
2011 13-12-2013 23:30:00 2 C 5 g/m*3 0.13 C 6.4 km/h
2012 13-12-2013 23:35:00 2 C 5 g/m*3 2 C 1.6 km/h
2013 13-12-2013 23:40:00 2 C 5 g/m*3 2 C 1.6 km/h
2014 13-12-2013 23:45:00 2 C 5.06 g/m*3 0.13 C 6.4 km/h
2015 13-12-2013 23:50:00 2 C 5 g/m*3 -0.42 C 8.1 km/h
2016 13-12-2013 23:55:00 2 C 5 g/m*3 -0.42 C 8.1 km/h
2017 14-12-2013 00:00:00 1.9 C 4.97 g/m*3 -0.97 C 9.7 km/h
2018 14-12-2013 00:05:00 1.9 C 4.97 g/m*3 -0.54 C 8.1 km/h
2019 14-12-2013 00:10:00 1.9 C 4.97 g/m*3 -0.54 C 8.1 km/h
2020 14-12-2013 00:15:00 1.9 C 4.97 g/m*3 1.9 C 3.2 km/h
2021 14-12-2013 00:20:00 1.9 C 4.97 g/m*3 1.9 C 4.8 km/h
2022 14-12-2013 00:25:00 1.8 C 4.93 g/m*3 1.8 C 4.8 km/h
2023 14-12-2013 00:30:00 1.9 C 4.97 g/m*3 -0.54 C 8.1 km/h
2024 14-12-2013 00:35:00 1.9 C 4.97 g/m*3 0.01 C 6.4 km/h
2025 14-12-2013 00:40:00 1.9 C 4.97 g/m*3 0.01 C 6.4 km/h
Sensor: Nr:Datum:Temp:Abs-Feuchte:Windchill:Wind:
Aussen-T/F 2026 14-12-2013 00:45:00 1.9 C 4.97 g/m*3 1.9 C 3.2 km/h
2027 14-12-2013 00:50:00 1.9 C 4.97 g/m*3 0.01 C 6.4 km/h
2028 14-12-2013 00:55:00 1.9 C 4.97 g/m*3 1.9 C 4.8 km/h
2029 14-12-2013 01:00:00 1.9 C 4.97 g/m*3 0.01 C 6.4 km/h
2030 14-12-2013 01:05:00 1.9 C 4.97 g/m*3 1.9 C 3.2 km/h
2031 14-12-2013 01:10:00 2 C 5 g/m*3 -0.85 C 9.7 km/h
2032 14-12-2013 01:15:00 1.9 C 4.97 g/m*3 -0.97 C 9.7 km/h
2033 14-12-2013 01:20:00 1.9 C 4.97 g/m*3 -0.54 C 8.1 km/h
2034 14-12-2013 01:25:00 1.9 C 4.97 g/m*3 -0.54 C 8.1 km/h
2035 14-12-2013 01:30:00 1.9 C 4.97 g/m*3 -0.97 C 9.7 km/h
2036 14-12-2013 01:35:00 1.9 C 4.97 g/m*3 -0.54 C 8.1 km/h
2037 14-12-2013 01:40:00 1.9 C 4.97 g/m*3 -0.97 C 9.7 km/h
2038 14-12-2013 01:45:00 1.9 C 4.91 g/m*3 -0.54 C 8.1 km/h
2039 14-12-2013 01:50:00 1.8 C 4.93 g/m*3 -1.47 C 11.3 km/h
2040 14-12-2013 01:55:00 1.7 C 4.9 g/m*3 -1.59 C 11.3 km/h
2041 14-12-2013 02:00:00 1.7 C 4.9 g/m*3 1.7 C 4.8 km/h
2042 14-12-2013 02:05:00 1.7 C 4.95 g/m*3 1.7 C 1.6 km/h
2043 14-12-2013 02:10:00 1.6 C 4.92 g/m*3 1.6 C 3.2 km/h
2044 14-12-2013 02:15:00 1.6 C 4.92 g/m*3 1.6 C 3.2 km/h
2045 14-12-2013 02:20:00 1.6 C 4.92 g/m*3 1.6 C 3.2 km/h
2046 14-12-2013 02:25:00 1.6 C 4.92 g/m*3 1.6 C 4.8 km/h
2047 14-12-2013 02:30:00 1.6 C 4.92 g/m*3 1.6 C 4.8 km/h
2048 14-12-2013 02:35:00 1.6 C 4.92 g/m*3 -0.89 C 8.1 km/h
2049 14-12-2013 02:40:00 1.6 C 4.92 g/m*3 -0.33 C 6.4 km/h
2050 14-12-2013 02:45:00 1.6 C 4.92 g/m*3 -0.89 C 8.1 km/h
Sensor: Nr:Datum:Temp:Abs-Feuchte:Windchill:Wind:
Aussen-T/F 2051 14-12-2013 02:50:00 1.6 C 4.92 g/m*3 1.6 C 3.2 km/h
2052 14-12-2013 02:55:00 1.7 C 5.01 g/m*3 -0.22 C 6.4 km/h
2053 14-12-2013 03:00:00 1.6 C 4.97 g/m*3 1.6 C 4.8 km/h
2054 14-12-2013 03:05:00 1.6 C 4.97 g/m*3 1.6 C 4.8 km/h
2055 14-12-2013 03:10:00 1.7 C 5.01 g/m*3 -0.77 C 8.1 km/h
2056 14-12-2013 03:15:00 1.7 C 5.01 g/m*3 -0.22 C 6.4 km/h
2057 14-12-2013 03:20:00 1.7 C 5.01 g/m*3 -0.22 C 6.4 km/h
2058 14-12-2013 03:25:00 1.7 C 5.01 g/m*3 1.7 C 3.2 km/h
2059 14-12-2013 03:30:00 1.7 C 5.01 g/m*3 -0.22 C 6.4 km/h
2060 14-12-2013 03:35:00 1.7 C 5.01 g/m*3 1.7 C 4.8 km/h
2061 14-12-2013 03:40:00 1.8 C 5.04 g/m*3 1.8 C 3.2 km/h
2062 14-12-2013 03:45:00 1.8 C 5.04 g/m*3 1.8 C 1.6 km/h
2063 14-12-2013 03:50:00 1.8 C 5.04 g/m*3 1.8 C 1.6 km/h
2064 14-12-2013 03:55:00 1.8 C 5.04 g/m*3 1.8 C 1.6 km/h
2065 14-12-2013 04:00:00 1.8 C 5.04 g/m*3 1.8 C 0 km/h
2066 14-12-2013 04:05:00 1.9 C 5.08 g/m*3 1.9 C 1.6 km/h
2067 14-12-2013 04:10:00 1.9 C 5.08 g/m*3 1.9 C 1.6 km/h
2068 14-12-2013 04:15:00 1.9 C 5.08 g/m*3 1.9 C 0 km/h
2069 14-12-2013 04:20:00 1.9 C 5.08 g/m*3 1.9 C 0 km/h
2070 14-12-2013 04:25:00 1.9 C 5.08 g/m*3 1.9 C 0 km/h
2071 14-12-2013 04:30:00 1.9 C 5.08 g/m*3 1.9 C 0 km/h
2072 14-12-2013 04:35:00 1.9 C 5.08 g/m*3 1.9 C 0 km/h
2073 14-12-2013 04:40:00 2 C 5.11 g/m*3 2 C 0 km/h
2074 14-12-2013 04:45:00 2 C 5.11 g/m*3 2 C 0 km/h
2075 14-12-2013 04:50:00 2 C 5.11 g/m*3 2 C 0 km/h
Sensor: Nr:Datum:Temp:Abs-Feuchte:Windchill:Wind:
Aussen-T/F 2076 14-12-2013 04:55:00 2.1 C 5.2 g/m*3 2.1 C 0 km/h
2077 14-12-2013 05:00:00 2.1 C 5.2 g/m*3 2.1 C 0 km/h
2078 14-12-2013 05:05:00 2.1 C 5.2 g/m*3 2.1 C 0 km/h
2079 14-12-2013 05:10:00 2.1 C 5.2 g/m*3 2.1 C 0 km/h
2080 14-12-2013 05:15:00 2.1 C 5.2 g/m*3 2.1 C 0 km/h
2081 14-12-2013 05:20:00 2.1 C 5.2 g/m*3 2.1 C 0 km/h
2082 14-12-2013 05:25:00 2.2 C 5.24 g/m*3 2.2 C 0 km/h
2083 14-12-2013 05:30:00 2.2 C 5.24 g/m*3 2.2 C 0 km/h
2084 14-12-2013 05:35:00 2.2 C 5.24 g/m*3 2.2 C 0 km/h
2085 14-12-2013 05:40:00 2.2 C 5.24 g/m*3 2.2 C 0 km/h
2086 14-12-2013 05:45:00 2.3 C 5.27 g/m*3 2.3 C 0 km/h
2087 14-12-2013 05:50:00 2.3 C 5.27 g/m*3 2.3 C 0 km/h
2088 14-12-2013 05:55:00 2.3 C 5.27 g/m*3 2.3 C 0 km/h
2089 14-12-2013 06:00:00 2.3 C 5.27 g/m*3 2.3 C 3.2 km/h
2090 14-12-2013 06:05:00 2.3 C 5.27 g/m*3 2.3 C 0 km/h
2091 14-12-2013 06:10:00 2.3 C 5.27 g/m*3 2.3 C 3.2 km/h
2092 14-12-2013 06:15:00 2.4 C 5.31 g/m*3 2.4 C 1.6 km/h
2093 14-12-2013 06:20:00 2.4 C 5.31 g/m*3 2.4 C 1.6 km/h
2094 14-12-2013 06:25:00 2.5 C 5.35 g/m*3 2.5 C 1.6 km/h
2095 14-12-2013 06:30:00 2.6 C 5.38 g/m*3 2.6 C 3.2 km/h
2096 14-12-2013 06:35:00 2.6 C 5.38 g/m*3 0.82 C 6.4 km/h
2097 14-12-2013 06:40:00 2.8 C 5.46 g/m*3 0.52 C 8.1 km/h
2098 14-12-2013 06:45:00 2.8 C 5.46 g/m*3 -0.26 C 11.3 km/h
2099 14-12-2013 06:50:00 2.9 C 5.49 g/m*3 0.64 C 8.1 km/h
2100 14-12-2013 06:55:00 2.9 C 5.49 g/m*3 1.17 C 6.4 km/h
Sensor: Nr:Datum:Temp:Abs-Feuchte:Windchill:Wind:
Aussen-T/F 2101 14-12-2013 07:00:00 3 C 5.53 g/m*3 0.76 C 8.1 km/h
2102 14-12-2013 07:05:00 3.1 C 5.57 g/m*3 0.46 C 9.7 km/h
2103 14-12-2013 07:10:00 3.1 C 5.57 g/m*3 0.87 C 8.1 km/h
2104 14-12-2013 07:15:00 3.1 C 5.57 g/m*3 0.87 C 8.1 km/h
2105 14-12-2013 07:20:00 3.1 C 5.57 g/m*3 3.1 C 4.8 km/h
2106 14-12-2013 07:25:00 3.1 C 5.63 g/m*3 0.1 C 11.3 km/h
2107 14-12-2013 07:30:00 3 C 5.59 g/m*3 -0.34 C 12.9 km/h
2108 14-12-2013 07:35:00 3 C 5.59 g/m*3 -0.02 C 11.3 km/h
2109 14-12-2013 07:40:00 3 C 5.59 g/m*3 0.76 C 8.1 km/h
2110 14-12-2013 07:45:00 3 C 5.65 g/m*3 -0.02 C 11.3 km/h
2111 14-12-2013 07:50:00 3.1 C 5.69 g/m*3 0.46 C 9.7 km/h
2112 14-12-2013 07:55:00 3.1 C 5.63 g/m*3 -0.22 C 12.9 km/h
2113 14-12-2013 08:00:00 3.2 C 5.72 g/m*3 0.22 C 11.3 km/h
2114 14-12-2013 08:05:00 3.2 C 5.72 g/m*3 0.99 C 8.1 km/h
2115 14-12-2013 08:10:00 3.2 C 5.72 g/m*3 1.51 C 6.4 km/h
2116 14-12-2013 08:15:00 3.2 C 5.72 g/m*3 0.99 C 8.1 km/h
2117 14-12-2013 08:20:00 3.2 C 5.72 g/m*3 1.51 C 6.4 km/h
2118 14-12-2013 08:25:00 3.2 C 5.72 g/m*3 0.22 C 11.3 km/h
2119 14-12-2013 08:30:00 3.3 C 5.76 g/m*3 1.11 C 8.1 km/h
2120 14-12-2013 08:35:00 3.3 C 5.76 g/m*3 1.11 C 8.1 km/h
2121 14-12-2013 08:40:00 3.4 C 5.8 g/m*3 0.46 C 11.3 km/h
2122 14-12-2013 08:45:00 3.4 C 5.74 g/m*3 1.75 C 6.4 km/h
2123 14-12-2013 08:50:00 3.5 C 5.84 g/m*3 1.86 C 6.4 km/h
2124 14-12-2013 08:55:00 3.5 C 5.84 g/m*3 0.58 C 11.3 km/h
2125 14-12-2013 09:00:00 3.5 C 5.84 g/m*3 1.34 C 8.1 km/h
Sensor: Nr:Datum:Temp:Abs-Feuchte:Windchill:Wind:
Aussen-T/F 2126 14-12-2013 09:05:00 3.4 C 5.8 g/m*3 3.4 C 4.8 km/h
2127 14-12-2013 09:10:00 3.4 C 5.8 g/m*3 1.75 C 6.4 km/h
2128 14-12-2013 09:15:00 3.5 C 5.84 g/m*3 1.86 C 6.4 km/h
2129 14-12-2013 09:20:00 3.4 C 5.8 g/m*3 1.23 C 8.1 km/h
2130 14-12-2013 09:25:00 3.4 C 5.8 g/m*3 -0.4 C 16.1 km/h
2131 14-12-2013 09:30:00 3.4 C 5.8 g/m*3 -0.4 C 16.1 km/h
2132 14-12-2013 09:35:00 3.4 C 5.8 g/m*3 -0.14 C 14.5 km/h
2133 14-12-2013 09:40:00 3.4 C 5.8 g/m*3 0.46 C 11.3 km/h
2134 14-12-2013 09:45:00 3.5 C 5.84 g/m*3 0.94 C 9.7 km/h
2135 14-12-2013 10:00:00 3.6 C 5.88 g/m*3 1.98 C 6.4 km/h
2136 14-12-2013 10:05:00 3.7 C 5.92 g/m*3 1.58 C 8.1 km/h
2137 14-12-2013 10:10:00 3.7 C 5.92 g/m*3 2.09 C 6.4 km/h
2138 14-12-2013 10:15:00 3.7 C 5.92 g/m*3 1.18 C 9.7 km/h
2139 14-12-2013 10:20:00 3.7 C 5.92 g/m*3 0.82 C 11.3 km/h
2140 14-12-2013 10:25:00 3.7 C 5.92 g/m*3 0.23 C 14.5 km/h
2141 14-12-2013 10:30:00 3.8 C 5.96 g/m*3 0.63 C 12.9 km/h
2142 14-12-2013 10:35:00 3.8 C 5.96 g/m*3 0.94 C 11.3 km/h
2143 14-12-2013 10:40:00 3.8 C 5.9 g/m*3 0.94 C 11.3 km/h
2144 14-12-2013 10:45:00 3.8 C 5.9 g/m*3 1.29 C 9.7 km/h
2145 14-12-2013 10:50:00 3.8 C 5.9 g/m*3 1.7 C 8.1 km/h
2146 14-12-2013 10:55:00 3.8 C 5.96 g/m*3 1.7 C 8.1 km/h
2147 14-12-2013 11:00:00 3.8 C 5.96 g/m*3 1.7 C 8.1 km/h
2148 14-12-2013 11:05:00 3.8 C 5.96 g/m*3 3.8 C 4.8 km/h
2149 14-12-2013 11:10:00 3.8 C 5.96 g/m*3 0.94 C 11.3 km/h
2150 14-12-2013 11:15:00 3.9 C 6 g/m*3 1.06 C 11.3 km/h
Sensor: Nr:Datum:Temp:Abs-Feuchte:Windchill:Wind:
Aussen-T/F 2151 14-12-2013 11:20:00 4 C 6.04 g/m*3 1.18 C 11.3 km/h
2152 14-12-2013 11:25:00 4.1 C 6.02 g/m*3 0.24 C 17.7 km/h
2153 14-12-2013 11:30:00 4.2 C 6.06 g/m*3 0.36 C 17.7 km/h
2154 14-12-2013 11:35:00 4.3 C 6.1 g/m*3 2.78 C 6.4 km/h
2155 14-12-2013 11:40:00 4.3 C 6.1 g/m*3 2.29 C 8.1 km/h
2156 14-12-2013 11:45:00 4.4 C 6.14 g/m*3 4.4 C 3.2 km/h
2157 14-12-2013 11:50:00 4.4 C 6.14 g/m*3 2.9 C 6.4 km/h
2158 14-12-2013 11:55:00 4.4 C 6.14 g/m*3 4.4 C 4.8 km/h
2159 14-12-2013 12:00:00 4.5 C 6.18 g/m*3 2.13 C 9.7 km/h
2160 14-12-2013 12:05:00 4.5 C 6.11 g/m*3 2.13 C 9.7 km/h
2161 14-12-2013 12:10:00 4.6 C 6.22 g/m*3 1.34 C 14.5 km/h
2162 14-12-2013 12:15:00 4.6 C 6.15 g/m*3 1.91 C 11.3 km/h
2163 14-12-2013 12:20:00 4.7 C 6.19 g/m*3 2.37 C 9.7 km/h
2164 14-12-2013 12:25:00 4.7 C 6.19 g/m*3 1.73 C 12.9 km/h
2165 14-12-2013 12:30:00 4.8 C 6.24 g/m*3 2.87 C 8.1 km/h
2166 14-12-2013 12:35:00 4.9 C 6.28 g/m*3 2.27 C 11.3 km/h
2167 14-12-2013 12:40:00 4.9 C 6.28 g/m*3 1.7 C 14.5 km/h
2168 14-12-2013 12:45:00 5 C 6.32 g/m*3 3.59 C 6.4 km/h
2169 14-12-2013 12:50:00 5.1 C 6.36 g/m*3 3.71 C 6.4 km/h
2170 14-12-2013 12:55:00 5.1 C 6.36 g/m*3 3.23 C 8.1 km/h
2171 14-12-2013 13:00:00 5.1 C 6.36 g/m*3 3.71 C 6.4 km/h
2172 14-12-2013 13:05:00 5.2 C 6.4 g/m*3 3.82 C 6.4 km/h
2173 14-12-2013 13:10:00 5.1 C 6.36 g/m*3 2.51 C 11.3 km/h
2174 14-12-2013 13:15:00 5.1 C 6.36 g/m*3 3.23 C 8.1 km/h
2175 14-12-2013 13:20:00 5.1 C 6.36 g/m*3 3.23 C 8.1 km/h
Sensor: Nr:Datum:Temp:Abs-Feuchte:Windchill:Wind:
Aussen-T/F 2176 14-12-2013 13:25:00 5 C 6.32 g/m*3 3.11 C 8.1 km/h
2177 14-12-2013 13:30:00 5.1 C 6.36 g/m*3 2.84 C 9.7 km/h
2178 14-12-2013 13:35:00 5.1 C 6.36 g/m*3 2.22 C 12.9 km/h
2179 14-12-2013 13:40:00 5.1 C 6.36 g/m*3 3.71 C 6.4 km/h
2180 14-12-2013 13:45:00 5.2 C 6.4 g/m*3 3.34 C 8.1 km/h
2181 14-12-2013 13:50:00 5.2 C 6.4 g/m*3 3.82 C 6.4 km/h
2182 14-12-2013 13:55:00 5.3 C 6.45 g/m*3 3.46 C 8.1 km/h
2183 14-12-2013 14:00:00 5.3 C 6.45 g/m*3 2.75 C 11.3 km/h
2184 14-12-2013 14:05:00 5.4 C 6.42 g/m*3 2.08 C 16.1 km/h
2185 14-12-2013 14:10:00 5.5 C 6.46 g/m*3 2.99 C 11.3 km/h
2186 14-12-2013 14:15:00 5.6 C 6.5 g/m*3 3.44 C 9.7 km/h
2187 14-12-2013 14:20:00 5.6 C 6.5 g/m*3 3.81 C 8.1 km/h
2188 14-12-2013 14:25:00 5.6 C 6.5 g/m*3 3.44 C 9.7 km/h
2189 14-12-2013 14:30:00 5.6 C 6.5 g/m*3 3.44 C 9.7 km/h
2190 14-12-2013 14:35:00 5.7 C 6.55 g/m*3 5.7 C 4.8 km/h
2191 14-12-2013 14:40:00 5.7 C 6.48 g/m*3 3.93 C 8.1 km/h
2192 14-12-2013 14:45:00 5.6 C 6.43 g/m*3 5.6 C 4.8 km/h
2193 14-12-2013 14:50:00 5.6 C 6.43 g/m*3 3.44 C 9.7 km/h
2194 14-12-2013 14:55:00 5.6 C 6.43 g/m*3 3.81 C 8.1 km/h
2195 14-12-2013 15:00:00 5.6 C 6.43 g/m*3 5.6 C 4.8 km/h
2196 14-12-2013 15:05:00 5.5 C 6.39 g/m*3 5.5 C 4.8 km/h
2197 14-12-2013 15:10:00 5.5 C 6.39 g/m*3 3.32 C 9.7 km/h
2198 14-12-2013 15:15:00 5.4 C 6.42 g/m*3 5.4 C 4.8 km/h
2199 14-12-2013 15:20:00 5.4 C 6.42 g/m*3 3.58 C 8.1 km/h
2200 14-12-2013 15:25:00 5.4 C 6.42 g/m*3 5.4 C 4.8 km/h
Sensor: Nr:Datum:Temp:Abs-Feuchte:Windchill:Wind:
Aussen-T/F 2201 14-12-2013 15:30:00 5.4 C 6.42 g/m*3 3.58 C 8.1 km/h
2202 14-12-2013 15:35:00 5.4 C 6.42 g/m*3 4.06 C 6.4 km/h
2203 14-12-2013 15:40:00 5.4 C 6.42 g/m*3 3.58 C 8.1 km/h
2204 14-12-2013 15:45:00 5.4 C 6.35 g/m*3 4.06 C 6.4 km/h
2205 14-12-2013 15:50:00 5.4 C 6.42 g/m*3 4.06 C 6.4 km/h
2206 14-12-2013 15:55:00 5.4 C 6.35 g/m*3 4.06 C 6.4 km/h
2207 14-12-2013 16:00:00 5.4 C 6.42 g/m*3 5.4 C 4.8 km/h
2208 14-12-2013 16:05:00 5.4 C 6.42 g/m*3 4.06 C 6.4 km/h
2209 14-12-2013 16:10:00 5.3 C 6.38 g/m*3 5.3 C 4.8 km/h
2210 14-12-2013 16:15:00 5.3 C 6.38 g/m*3 5.3 C 4.8 km/h
2211 14-12-2013 16:20:00 5.3 C 6.31 g/m*3 3.08 C 9.7 km/h
2212 14-12-2013 16:25:00 5.3 C 6.31 g/m*3 3.94 C 6.4 km/h
2213 14-12-2013 16:30:00 5.3 C 6.31 g/m*3 5.3 C 4.8 km/h
2214 14-12-2013 16:35:00 5.4 C 6.35 g/m*3 5.4 C 4.8 km/h
2215 14-12-2013 16:40:00 5.4 C 6.42 g/m*3 4.06 C 6.4 km/h
2216 14-12-2013 16:45:00 5.4 C 6.35 g/m*3 3.58 C 8.1 km/h
2217 14-12-2013 16:50:00 5.5 C 6.39 g/m*3 2.7 C 12.9 km/h
2218 14-12-2013 16:55:00 5.5 C 6.39 g/m*3 5.5 C 4.8 km/h
2219 14-12-2013 17:00:00 5.6 C 6.43 g/m*3 3.44 C 9.7 km/h
2220 14-12-2013 17:05:00 5.6 C 6.36 g/m*3 3.44 C 9.7 km/h
2221 14-12-2013 17:10:00 5.4 C 6.35 g/m*3 4.06 C 6.4 km/h
2222 14-12-2013 17:15:00 5.4 C 6.35 g/m*3 5.4 C 4.8 km/h
2223 14-12-2013 17:20:00 5.3 C 6.31 g/m*3 5.3 C 4.8 km/h
2224 14-12-2013 17:25:00 5.1 C 6.29 g/m*3 5.1 C 4.8 km/h
2225 14-12-2013 17:30:00 4.8 C 6.17 g/m*3 4.8 C 3.2 km/h
Sensor: Nr:Datum:Temp:Abs-Feuchte:Windchill:Wind:
Aussen-T/F 2226 14-12-2013 17:35:00 4.6 C 6.09 g/m*3 4.6 C 3.2 km/h
2227 14-12-2013 17:40:00 4.2 C 5.99 g/m*3 4.2 C 3.2 km/h
2228 14-12-2013 17:45:00 3.9 C 5.87 g/m*3 3.9 C 3.2 km/h
2229 14-12-2013 17:50:00 3.7 C 5.86 g/m*3 3.7 C 4.8 km/h
2230 14-12-2013 17:55:00 3.6 C 5.82 g/m*3 3.6 C 3.2 km/h
2231 14-12-2013 18:00:00 3.4 C 5.74 g/m*3 3.4 C 3.2 km/h
2232 14-12-2013 18:05:00 3.3 C 5.76 g/m*3 3.3 C 3.2 km/h
2233 14-12-2013 18:10:00 3.2 C 5.72 g/m*3 3.2 C 4.8 km/h
2234 14-12-2013 18:15:00 3.2 C 5.72 g/m*3 3.2 C 3.2 km/h
2235 14-12-2013 18:20:00 3.1 C 5.69 g/m*3 3.1 C 3.2 km/h
2236 14-12-2013 18:25:00 3 C 5.65 g/m*3 3 C 3.2 km/h
2237 14-12-2013 18:30:00 3 C 5.71 g/m*3 3 C 3.2 km/h
2238 14-12-2013 18:35:00 3 C 5.71 g/m*3 3 C 3.2 km/h
2239 14-12-2013 18:40:00 3.1 C 5.75 g/m*3 3.1 C 4.8 km/h
2240 14-12-2013 18:45:00 2.9 C 5.67 g/m*3 2.9 C 1.6 km/h
2241 14-12-2013 18:50:00 2.9 C 5.67 g/m*3 2.9 C 3.2 km/h
2242 14-12-2013 18:55:00 2.8 C 5.63 g/m*3 2.8 C 3.2 km/h
2243 14-12-2013 19:00:00 2.8 C 5.63 g/m*3 2.8 C 3.2 km/h
2244 14-12-2013 19:05:00 2.8 C 5.63 g/m*3 2.8 C 3.2 km/h
2245 14-12-2013 19:10:00 3 C 5.77 g/m*3 3 C 4.8 km/h
2246 14-12-2013 19:15:00 3.4 C 5.92 g/m*3 1.23 C 8.1 km/h
2247 14-12-2013 19:20:00 3.7 C 6.04 g/m*3 1.18 C 9.7 km/h
2248 14-12-2013 19:25:00 4 C 6.1 g/m*3 0.6 C 14.5 km/h
2249 14-12-2013 19:30:00 4.2 C 6.12 g/m*3 1.77 C 9.7 km/h
2250 14-12-2013 19:35:00 4.2 C 6.12 g/m*3 2.17 C 8.1 km/h
Sensor: Nr:Datum:Temp:Abs-Feuchte:Windchill:Wind:
Aussen-T/F 2251 14-12-2013 19:40:00 4.3 C 6.1 g/m*3 2.78 C 6.4 km/h
2252 14-12-2013 19:45:00 4.4 C 6.14 g/m*3 2.01 C 9.7 km/h
2253 14-12-2013 19:50:00 4.2 C 5.99 g/m*3 4.2 C 4.8 km/h
2254 14-12-2013 19:55:00 4.2 C 5.99 g/m*3 1.77 C 9.7 km/h
2255 14-12-2013 20:00:00 4.1 C 5.95 g/m*3 4.1 C 4.8 km/h
2256 14-12-2013 20:05:00 4.1 C 5.95 g/m*3 2.55 C 6.4 km/h
2257 14-12-2013 20:10:00 4.1 C 5.95 g/m*3 2.55 C 6.4 km/h
2258 14-12-2013 20:15:00 4.2 C 5.99 g/m*3 4.2 C 4.8 km/h
2259 14-12-2013 20:20:00 4.1 C 5.95 g/m*3 4.1 C 4.8 km/h
2260 14-12-2013 20:25:00 4.1 C 5.95 g/m*3 2.05 C 8.1 km/h
2261 14-12-2013 20:30:00 3.9 C 5.81 g/m*3 2.32 C 6.4 km/h
2262 14-12-2013 20:35:00 3.9 C 5.87 g/m*3 3.9 C 4.8 km/h
2263 14-12-2013 20:40:00 3.8 C 5.83 g/m*3 3.8 C 4.8 km/h
2264 14-12-2013 20:45:00 3.7 C 5.8 g/m*3 2.09 C 6.4 km/h
2265 14-12-2013 20:50:00 3.6 C 5.76 g/m*3 3.6 C 4.8 km/h
2266 14-12-2013 20:55:00 3.6 C 5.82 g/m*3 3.6 C 4.8 km/h
2267 14-12-2013 21:00:00 3.6 C 5.82 g/m*3 3.6 C 4.8 km/h
2268 14-12-2013 21:05:00 3.7 C 5.86 g/m*3 3.7 C 4.8 km/h
2269 14-12-2013 21:10:00 3.8 C 5.83 g/m*3 1.7 C 8.1 km/h
2270 14-12-2013 21:15:00 3.8 C 5.83 g/m*3 1.7 C 8.1 km/h
2271 14-12-2013 21:20:00 3.8 C 5.83 g/m*3 3.8 C 4.8 km/h
2272 14-12-2013 21:25:00 3.8 C 5.83 g/m*3 3.8 C 4.8 km/h
2273 14-12-2013 21:30:00 3.9 C 5.87 g/m*3 2.32 C 6.4 km/h
2274 14-12-2013 21:35:00 3.9 C 5.81 g/m*3 2.32 C 6.4 km/h
2275 14-12-2013 21:40:00 3.8 C 5.77 g/m*3 1.7 C 8.1 km/h
Sensor: Nr:Datum:Temp:Abs-Feuchte:Windchill:Wind:
Aussen-T/F 2276 14-12-2013 21:45:00 3.9 C 5.81 g/m*3 2.32 C 6.4 km/h
2277 14-12-2013 21:50:00 3.9 C 5.81 g/m*3 1.41 C 9.7 km/h
2278 14-12-2013 21:55:00 4.1 C 5.82 g/m*3 2.55 C 6.4 km/h
2279 14-12-2013 22:00:00 3.8 C 5.71 g/m*3 3.8 C 4.8 km/h
2280 14-12-2013 22:05:00 3.7 C 5.73 g/m*3 1.18 C 9.7 km/h
2281 14-12-2013 22:10:00 3.8 C 5.77 g/m*3 2.21 C 6.4 km/h
2282 14-12-2013 22:15:00 3.9 C 5.81 g/m*3 3.9 C 4.8 km/h
2283 14-12-2013 22:20:00 3.9 C 5.81 g/m*3 1.82 C 8.1 km/h
2284 14-12-2013 22:25:00 4.2 C 5.93 g/m*3 2.17 C 8.1 km/h
2285 14-12-2013 22:30:00 4.3 C 5.97 g/m*3 2.29 C 8.1 km/h
2286 14-12-2013 22:35:00 4.5 C 5.98 g/m*3 1.79 C 11.3 km/h
2287 14-12-2013 22:40:00 4.7 C 6.06 g/m*3 1.21 C 16.1 km/h
2288 14-12-2013 22:45:00 4.7 C 6 g/m*3 1.21 C 16.1 km/h
2289 14-12-2013 22:50:00 4.7 C 6 g/m*3 1.73 C 12.9 km/h
2290 14-12-2013 22:55:00 4.7 C 6.06 g/m*3 2.03 C 11.3 km/h
2291 14-12-2013 23:00:00 4.7 C 6.06 g/m*3 0.78 C 19.3 km/h
2292 14-12-2013 23:05:00 4.7 C 6 g/m*3 0.78 C 19.3 km/h
2293 14-12-2013 23:10:00 4.7 C 6.06 g/m*3 1.21 C 16.1 km/h
2294 14-12-2013 23:15:00 4.7 C 6.06 g/m*3 1.73 C 12.9 km/h
2295 14-12-2013 23:20:00 4.7 C 6.06 g/m*3 1.73 C 12.9 km/h
2296 14-12-2013 23:25:00 4.7 C 6.06 g/m*3 1.46 C 14.5 km/h
2297 14-12-2013 23:30:00 4.8 C 6.04 g/m*3 0.9 C 19.3 km/h
2298 14-12-2013 23:35:00 4.8 C 6.1 g/m*3 2.87 C 8.1 km/h
2299 14-12-2013 23:40:00 4.8 C 6.1 g/m*3 1.85 C 12.9 km/h
2300 14-12-2013 23:45:00 4.9 C 6.08 g/m*3 2.27 C 11.3 km/h
Sensor: Nr:Datum:Temp:Abs-Feuchte:Windchill:Wind:
Aussen-T/F 2301 14-12-2013 23:50:00 4.9 C 6.08 g/m*3 1.97 C 12.9 km/h
2302 14-12-2013 23:55:00 4.9 C 6.08 g/m*3 3.48 C 6.4 km/h
2303 15-12-2013 00:00:00 5 C 6.12 g/m*3 5 C 4.8 km/h
2304 15-12-2013 00:05:00 5 C 6.05 g/m*3 2.39 C 11.3 km/h
2305 15-12-2013 00:10:00 5.1 C 6.09 g/m*3 3.23 C 8.1 km/h
2306 15-12-2013 00:15:00 5.1 C 6.09 g/m*3 1.09 C 20.9 km/h
2307 15-12-2013 00:20:00 5.1 C 6.09 g/m*3 2.84 C 9.7 km/h
2308 15-12-2013 00:25:00 5.1 C 6.09 g/m*3 2.22 C 12.9 km/h
2309 15-12-2013 00:30:00 5.1 C 6.09 g/m*3 2.51 C 11.3 km/h
2310 15-12-2013 00:35:00 5.1 C 6.09 g/m*3 3.71 C 6.4 km/h
2311 15-12-2013 00:40:00 5.1 C 6.09 g/m*3 5.1 C 4.8 km/h
2312 15-12-2013 00:45:00 5 C 6.05 g/m*3 5 C 3.2 km/h
2313 15-12-2013 00:50:00 4.9 C 6.01 g/m*3 3.48 C 6.4 km/h
2314 15-12-2013 00:55:00 4.9 C 6.01 g/m*3 4.9 C 4.8 km/h
2315 15-12-2013 01:00:00 4.9 C 6.08 g/m*3 4.9 C 4.8 km/h
2316 15-12-2013 01:05:00 4.9 C 6.08 g/m*3 4.9 C 4.8 km/h
2317 15-12-2013 01:10:00 4.9 C 6.08 g/m*3 3.48 C 6.4 km/h
2318 15-12-2013 01:15:00 4.9 C 6.08 g/m*3 4.9 C 3.2 km/h
2319 15-12-2013 01:20:00 4.9 C 6.08 g/m*3 2.99 C 8.1 km/h
2320 15-12-2013 01:25:00 4.9 C 6.08 g/m*3 3.48 C 6.4 km/h
2321 15-12-2013 01:30:00 4.9 C 6.08 g/m*3 3.48 C 6.4 km/h
2322 15-12-2013 01:35:00 4.9 C 6.08 g/m*3 3.48 C 6.4 km/h
2323 15-12-2013 01:40:00 4.9 C 6.08 g/m*3 3.48 C 6.4 km/h
2324 15-12-2013 01:45:00 4.9 C 6.08 g/m*3 2.27 C 11.3 km/h
2325 15-12-2013 01:50:00 4.9 C 6.08 g/m*3 3.48 C 6.4 km/h
Sensor: Nr:Datum:Temp:Abs-Feuchte:Windchill:Wind:
Aussen-T/F 2326 15-12-2013 01:55:00 4.9 C 6.08 g/m*3 4.9 C 3.2 km/h
2327 15-12-2013 02:00:00 4.9 C 6.08 g/m*3 4.9 C 0 km/h
2328 15-12-2013 02:05:00 4.9 C 6.08 g/m*3 4.9 C 3.2 km/h
2329 15-12-2013 02:10:00 4.9 C 6.08 g/m*3 4.9 C 4.8 km/h
2330 15-12-2013 02:15:00 5 C 6.12 g/m*3 3.59 C 6.4 km/h
2331 15-12-2013 02:20:00 5.1 C 6.16 g/m*3 3.71 C 6.4 km/h
2332 15-12-2013 02:25:00 5.1 C 6.16 g/m*3 3.71 C 6.4 km/h
2333 15-12-2013 02:30:00 5.1 C 6.16 g/m*3 5.1 C 3.2 km/h
2334 15-12-2013 02:35:00 5.1 C 6.16 g/m*3 5.1 C 3.2 km/h
2335 15-12-2013 02:40:00 5.1 C 6.16 g/m*3 5.1 C 4.8 km/h
2336 15-12-2013 02:45:00 5.1 C 6.09 g/m*3 2.84 C 9.7 km/h
2337 15-12-2013 02:50:00 5.1 C 6.09 g/m*3 3.23 C 8.1 km/h
2338 15-12-2013 02:55:00 5.1 C 6.16 g/m*3 3.23 C 8.1 km/h
2339 15-12-2013 03:00:00 5.1 C 6.16 g/m*3 5.1 C 3.2 km/h
2340 15-12-2013 03:05:00 5.1 C 6.16 g/m*3 5.1 C 3.2 km/h
2341 15-12-2013 03:10:00 5.2 C 6.2 g/m*3 5.2 C 3.2 km/h
2342 15-12-2013 03:15:00 5.2 C 6.13 g/m*3 5.2 C 3.2 km/h
2343 15-12-2013 03:20:00 5.2 C 6.13 g/m*3 5.2 C 3.2 km/h
2344 15-12-2013 03:25:00 5.2 C 6.2 g/m*3 5.2 C 1.6 km/h
2345 15-12-2013 03:30:00 5.1 C 6.16 g/m*3 2.84 C 9.7 km/h
2346 15-12-2013 03:35:00 5.2 C 6.2 g/m*3 5.2 C 3.2 km/h
2347 15-12-2013 03:40:00 5.1 C 6.16 g/m*3 3.23 C 8.1 km/h
2348 15-12-2013 03:45:00 5.2 C 6.13 g/m*3 3.82 C 6.4 km/h
2349 15-12-2013 03:50:00 5.2 C 6.13 g/m*3 3.34 C 8.1 km/h
2350 15-12-2013 03:55:00 5.2 C 6.13 g/m*3 5.2 C 4.8 km/h
Sensor: Nr:Datum:Temp:Abs-Feuchte:Windchill:Wind:
Aussen-T/F 2351 15-12-2013 04:00:00 5.2 C 6.13 g/m*3 5.2 C 4.8 km/h
2352 15-12-2013 04:05:00 5.2 C 6.13 g/m*3 5.2 C 3.2 km/h
2353 15-12-2013 04:10:00 5.2 C 6.13 g/m*3 5.2 C 4.8 km/h
2354 15-12-2013 04:15:00 5.3 C 6.1 g/m*3 3.94 C 6.4 km/h
2355 15-12-2013 04:20:00 5.3 C 6.1 g/m*3 5.3 C 3.2 km/h
2356 15-12-2013 04:25:00 5.3 C 6.1 g/m*3 5.3 C 3.2 km/h
2357 15-12-2013 04:30:00 5.3 C 6.17 g/m*3 5.3 C 1.6 km/h
2358 15-12-2013 04:35:00 5.1 C 6.09 g/m*3 5.1 C 1.6 km/h
2359 15-12-2013 04:40:00 4.9 C 6.08 g/m*3 4.9 C 1.6 km/h
2360 15-12-2013 04:45:00 4.8 C 6.1 g/m*3 4.8 C 3.2 km/h
2361 15-12-2013 04:50:00 4.7 C 6.06 g/m*3 4.7 C 3.2 km/h
2362 15-12-2013 04:55:00 4.6 C 6.02 g/m*3 4.6 C 1.6 km/h
2363 15-12-2013 05:00:00 4.4 C 6.01 g/m*3 4.4 C 3.2 km/h
2364 15-12-2013 05:05:00 4.3 C 5.97 g/m*3 4.3 C 4.8 km/h
2365 15-12-2013 05:10:00 4.3 C 6.03 g/m*3 4.3 C 4.8 km/h
2366 15-12-2013 05:15:00 4.4 C 6.01 g/m*3 2.01 C 9.7 km/h
2367 15-12-2013 05:20:00 4.7 C 6.06 g/m*3 4.7 C 4.8 km/h
2368 15-12-2013 05:25:00 4.9 C 6.08 g/m*3 2.61 C 9.7 km/h
2369 15-12-2013 05:30:00 5.2 C 6.13 g/m*3 2.07 C 14.5 km/h
2370 15-12-2013 05:35:00 5.2 C 6.13 g/m*3 2.96 C 9.7 km/h
2371 15-12-2013 05:40:00 5.3 C 6.17 g/m*3 3.46 C 8.1 km/h
2372 15-12-2013 05:45:00 5.4 C 6.14 g/m*3 4.06 C 6.4 km/h
2373 15-12-2013 05:50:00 5.4 C 6.14 g/m*3 4.06 C 6.4 km/h
2374 15-12-2013 05:55:00 5.4 C 6.07 g/m*3 4.06 C 6.4 km/h
2375 15-12-2013 06:00:00 5.4 C 6.07 g/m*3 5.4 C 3.2 km/h
Sensor: Nr:Datum:Temp:Abs-Feuchte:Windchill:Wind:
Aussen-T/F 2376 15-12-2013 06:05:00 5.4 C 6.07 g/m*3 5.4 C 4.8 km/h
2377 15-12-2013 06:10:00 5.4 C 6 g/m*3 2.08 C 16.1 km/h
2378 15-12-2013 06:15:00 5.6 C 6.08 g/m*3 4.29 C 6.4 km/h
2379 15-12-2013 06:20:00 5.7 C 6.05 g/m*3 4.4 C 6.4 km/h
2380 15-12-2013 06:25:00 5.7 C 5.98 g/m*3 4.4 C 6.4 km/h
2381 15-12-2013 06:30:00 5.7 C 5.98 g/m*3 5.7 C 4.8 km/h
2382 15-12-2013 06:35:00 5.8 C 5.95 g/m*3 4.05 C 8.1 km/h
2383 15-12-2013 06:40:00 5.7 C 6.05 g/m*3 5.7 C 3.2 km/h
2384 15-12-2013 06:45:00 5.5 C 6.04 g/m*3 5.5 C 1.6 km/h
2385 15-12-2013 06:50:00 5.3 C 5.89 g/m*3 3.08 C 9.7 km/h
2386 15-12-2013 06:55:00 5.5 C 5.83 g/m*3 2.99 C 11.3 km/h
2387 15-12-2013 07:00:00 5.6 C 5.87 g/m*3 5.6 C 4.8 km/h
2388 15-12-2013 07:05:00 5.6 C 5.94 g/m*3 3.81 C 8.1 km/h
2389 15-12-2013 07:10:00 5.5 C 5.97 g/m*3 5.5 C 0 km/h
2390 15-12-2013 07:15:00 5.3 C 5.89 g/m*3 5.3 C 0 km/h
2391 15-12-2013 07:20:00 5.2 C 5.92 g/m*3 5.2 C 3.2 km/h
2392 15-12-2013 07:25:00 5.1 C 5.95 g/m*3 5.1 C 3.2 km/h
2393 15-12-2013 07:30:00 4.9 C 5.87 g/m*3 4.9 C 3.2 km/h
2394 15-12-2013 07:35:00 4.9 C 5.94 g/m*3 4.9 C 0 km/h
2395 15-12-2013 07:40:00 4.8 C 5.9 g/m*3 4.8 C 3.2 km/h
2396 15-12-2013 07:45:00 4.8 C 5.97 g/m*3 4.8 C 1.6 km/h
2397 15-12-2013 07:50:00 4.8 C 5.83 g/m*3 4.8 C 4.8 km/h
2398 15-12-2013 07:55:00 4.9 C 5.87 g/m*3 4.9 C 1.6 km/h
2399 15-12-2013 08:00:00 4.9 C 5.94 g/m*3 4.9 C 0 km/h
2400 15-12-2013 08:05:00 4.9 C 5.94 g/m*3 4.9 C 3.2 km/h
Sensor: Nr:Datum:Temp:Abs-Feuchte:Windchill:Wind:
Aussen-T/F 2401 15-12-2013 08:10:00 4.8 C 5.97 g/m*3 4.8 C 1.6 km/h
2402 15-12-2013 08:15:00 4.8 C 5.97 g/m*3 4.8 C 0 km/h
2403 15-12-2013 08:20:00 4.8 C 5.97 g/m*3 4.8 C 0 km/h
2404 15-12-2013 08:25:00 4.8 C 5.97 g/m*3 4.8 C 1.6 km/h
2405 15-12-2013 08:30:00 4.8 C 5.9 g/m*3 4.8 C 3.2 km/h
2406 15-12-2013 08:35:00 4.9 C 5.87 g/m*3 4.9 C 1.6 km/h
2407 15-12-2013 08:40:00 4.9 C 6.01 g/m*3 4.9 C 0 km/h
2408 15-12-2013 08:45:00 4.9 C 6.01 g/m*3 4.9 C 1.6 km/h
2409 15-12-2013 08:50:00 4.8 C 6.04 g/m*3 4.8 C 0 km/h
2410 15-12-2013 08:55:00 4.8 C 6.1 g/m*3 4.8 C 0 km/h
2411 15-12-2013 09:00:00 4.8 C 6.04 g/m*3 4.8 C 1.6 km/h
2412 15-12-2013 09:05:00 4.8 C 5.97 g/m*3 4.8 C 1.6 km/h
2413 15-12-2013 09:10:00 4.9 C 5.94 g/m*3 3.48 C 6.4 km/h
2414 15-12-2013 09:15:00 5 C 5.91 g/m*3 5 C 1.6 km/h
2415 15-12-2013 09:20:00 5.1 C 6.02 g/m*3 5.1 C 0 km/h
2416 15-12-2013 09:25:00 5.2 C 5.92 g/m*3 3.34 C 8.1 km/h
2417 15-12-2013 09:30:00 5.3 C 5.82 g/m*3 3.46 C 8.1 km/h
2418 15-12-2013 09:35:00 5.6 C 5.87 g/m*3 3.11 C 11.3 km/h
2419 15-12-2013 09:40:00 5.8 C 5.95 g/m*3 4.52 C 6.4 km/h
2420 15-12-2013 09:45:00 6 C 5.81 g/m*3 3.6 C 11.3 km/h
2421 15-12-2013 09:50:00 6.3 C 5.85 g/m*3 2.98 C 17.7 km/h
2422 15-12-2013 09:55:00 6.6 C 5.81 g/m*3 3.79 C 14.5 km/h
2423 15-12-2013 10:00:00 6.6 C 5.89 g/m*3 6.6 C 4.8 km/h
2424 15-12-2013 10:05:00 6.5 C 5.85 g/m*3 5.33 C 6.4 km/h
2425 15-12-2013 10:10:00 6.5 C 5.85 g/m*3 5.33 C 6.4 km/h
Sensor: Nr:Datum:Temp:Abs-Feuchte:Windchill:Wind:
Aussen-T/F 2426 15-12-2013 10:15:00 6.5 C 5.77 g/m*3 6.5 C 4.8 km/h
2427 15-12-2013 10:20:00 6.6 C 5.81 g/m*3 5.44 C 6.4 km/h
2428 15-12-2013 10:25:00 6.6 C 5.81 g/m*3 4.63 C 9.7 km/h
2429 15-12-2013 10:30:00 6.7 C 5.85 g/m*3 4.75 C 9.7 km/h
2430 15-12-2013 10:35:00 6.7 C 5.77 g/m*3 5.11 C 8.1 km/h
2431 15-12-2013 10:40:00 6.8 C 5.81 g/m*3 4.29 C 12.9 km/h
2432 15-12-2013 10:45:00 6.8 C 5.81 g/m*3 4.29 C 12.9 km/h
2433 15-12-2013 10:50:00 6.8 C 5.81 g/m*3 4.04 C 14.5 km/h
2434 15-12-2013 10:55:00 6.8 C 5.81 g/m*3 4.04 C 14.5 km/h
2435 15-12-2013 11:00:00 6.8 C 5.81 g/m*3 4.56 C 11.3 km/h
2436 15-12-2013 11:05:00 6.8 C 5.81 g/m*3 4.87 C 9.7 km/h
2437 15-12-2013 11:10:00 6.8 C 5.81 g/m*3 4.29 C 12.9 km/h
2438 15-12-2013 11:15:00 6.8 C 5.81 g/m*3 4.04 C 14.5 km/h
2439 15-12-2013 11:20:00 6.8 C 5.81 g/m*3 4.56 C 11.3 km/h
2440 15-12-2013 11:25:00 6.9 C 5.77 g/m*3 3.94 C 16.1 km/h
2441 15-12-2013 11:30:00 6.9 C 5.85 g/m*3 4.16 C 14.5 km/h
2442 15-12-2013 11:35:00 7 C 5.81 g/m*3 4.29 C 14.5 km/h
2443 15-12-2013 11:40:00 7.1 C 5.85 g/m*3 4.19 C 16.1 km/h
2444 15-12-2013 11:45:00 7.1 C 5.85 g/m*3 4.41 C 14.5 km/h
2445 15-12-2013 11:50:00 7.2 C 5.89 g/m*3 4.77 C 12.9 km/h
2446 15-12-2013 11:55:00 7.2 C 5.81 g/m*3 4.77 C 12.9 km/h
2447 15-12-2013 12:00:00 7.3 C 5.85 g/m*3 4.66 C 14.5 km/h
2448 15-12-2013 12:05:00 7.4 C 5.88 g/m*3 5.28 C 11.3 km/h
2449 15-12-2013 12:10:00 7.5 C 5.84 g/m*3 4.68 C 16.1 km/h
2450 15-12-2013 12:15:00 7.6 C 5.88 g/m*3 5.26 C 12.9 km/h
Sensor: Nr:Datum:Temp:Abs-Feuchte:Windchill:Wind:
Aussen-T/F 2451 15-12-2013 12:20:00 7.7 C 5.84 g/m*3 4.38 C 20.9 km/h
2452 15-12-2013 12:25:00 7.8 C 5.88 g/m*3 5.27 C 14.5 km/h
2453 15-12-2013 12:30:00 7.8 C 5.96 g/m*3 5.77 C 11.3 km/h
2454 15-12-2013 12:35:00 7.8 C 5.79 g/m*3 4.68 C 19.3 km/h
2455 15-12-2013 12:40:00 7.8 C 5.88 g/m*3 5.27 C 14.5 km/h
2456 15-12-2013 12:45:00 7.8 C 5.88 g/m*3 5.06 C 16.1 km/h
2457 15-12-2013 12:50:00 7.9 C 5.83 g/m*3 5.39 C 14.5 km/h
2458 15-12-2013 12:55:00 7.9 C 5.91 g/m*3 4.47 C 22.5 km/h
2459 15-12-2013 13:00:00 8 C 5.95 g/m*3 4.6 C 22.5 km/h
2460 15-12-2013 13:05:00 8 C 5.87 g/m*3 5.52 C 14.5 km/h
2461 15-12-2013 13:10:00 8.1 C 5.91 g/m*3 5.43 C 16.1 km/h
2462 15-12-2013 13:15:00 8.2 C 5.95 g/m*3 6.54 C 9.7 km/h
2463 15-12-2013 13:20:00 8.3 C 5.9 g/m*3 5.31 C 19.3 km/h
2464 15-12-2013 13:25:00 8.3 C 5.82 g/m*3 5.68 C 16.1 km/h
2465 15-12-2013 13:30:00 8.3 C 5.82 g/m*3 5.68 C 16.1 km/h
2466 15-12-2013 13:35:00 8.3 C 5.82 g/m*3 6.37 C 11.3 km/h
2467 15-12-2013 13:40:00 8.3 C 5.82 g/m*3 5.31 C 19.3 km/h
2468 15-12-2013 13:45:00 8.3 C 5.9 g/m*3 6.37 C 11.3 km/h
2469 15-12-2013 13:50:00 8.3 C 5.9 g/m*3 5.89 C 14.5 km/h
2470 15-12-2013 13:55:00 8.2 C 5.86 g/m*3 6.87 C 8.1 km/h
2471 15-12-2013 14:00:00 8.2 C 5.95 g/m*3 6.87 C 8.1 km/h
2472 15-12-2013 14:05:00 8.1 C 5.91 g/m*3 6.75 C 8.1 km/h
2473 15-12-2013 14:10:00 8 C 5.95 g/m*3 6.3 C 9.7 km/h
2474 15-12-2013 14:15:00 7.9 C 6.08 g/m*3 6.94 C 6.4 km/h
2475 15-12-2013 14:20:00 7.9 C 6 g/m*3 6.52 C 8.1 km/h
Sensor: Nr:Datum:Temp:Abs-Feuchte:Windchill:Wind:
Aussen-T/F 2476 15-12-2013 14:25:00 7.8 C 6.04 g/m*3 6.83 C 6.4 km/h
2477 15-12-2013 14:30:00 7.9 C 6.08 g/m*3 6.18 C 9.7 km/h
2478 15-12-2013 14:35:00 7.9 C 5.91 g/m*3 5.89 C 11.3 km/h
2479 15-12-2013 14:40:00 8.1 C 6.07 g/m*3 6.75 C 8.1 km/h
2480 15-12-2013 14:45:00 8.1 C 6.24 g/m*3 8.1 C 4.8 km/h
2481 15-12-2013 14:50:00 7.7 C 6.16 g/m*3 7.7 C 3.2 km/h
2482 15-12-2013 14:55:00 7.4 C 6.04 g/m*3 7.4 C 3.2 km/h
2483 15-12-2013 15:00:00 7.2 C 6.12 g/m*3 7.2 C 3.2 km/h
2484 15-12-2013 15:05:00 7.2 C 6.12 g/m*3 5.69 C 8.1 km/h
2485 15-12-2013 15:10:00 7 C 6.12 g/m*3 7 C 3.2 km/h
2486 15-12-2013 15:15:00 6.8 C 6.12 g/m*3 6.8 C 3.2 km/h
2487 15-12-2013 15:20:00 6.6 C 6.11 g/m*3 6.6 C 3.2 km/h
2488 15-12-2013 15:25:00 6.3 C 6.07 g/m*3 6.3 C 3.2 km/h
2489 15-12-2013 15:30:00 6.2 C 6.1 g/m*3 6.2 C 3.2 km/h
2490 15-12-2013 15:35:00 6.1 C 6.14 g/m*3 6.1 C 3.2 km/h
2491 15-12-2013 15:41:00 5.9 C 6.13 g/m*3 5.9 C 4.8 km/h
2492 15-12-2013 15:45:00 5.8 C 6.09 g/m*3 5.8 C 3.2 km/h
2493 15-12-2013 15:50:00 5.8 C 6.02 g/m*3 5.8 C 3.2 km/h
2494 15-12-2013 15:55:00 5.8 C 6.09 g/m*3 5.8 C 3.2 km/h
2495 15-12-2013 16:00:00 5.6 C 6.08 g/m*3 5.6 C 1.6 km/h
2496 15-12-2013 16:05:00 5.4 C 6 g/m*3 5.4 C 3.2 km/h
2497 15-12-2013 16:10:00 5.3 C 5.96 g/m*3 5.3 C 4.8 km/h
2498 15-12-2013 16:15:00 5.3 C 6.03 g/m*3 5.3 C 4.8 km/h
2499 15-12-2013 16:20:00 5.2 C 5.99 g/m*3 5.2 C 3.2 km/h
2500 15-12-2013 16:25:00 5.1 C 5.95 g/m*3 5.1 C 4.8 km/h
Sensor: Nr:Datum:Temp:Abs-Feuchte:Windchill:Wind:
Aussen-T/F 2501 15-12-2013 16:30:00 5 C 5.84 g/m*3 5 C 3.2 km/h
2502 15-12-2013 16:35:00 4.9 C 5.87 g/m*3 4.9 C 3.2 km/h
2503 15-12-2013 16:40:00 4.9 C 5.87 g/m*3 4.9 C 3.2 km/h
2504 15-12-2013 16:45:00 4.8 C 5.83 g/m*3 4.8 C 4.8 km/h
2505 15-12-2013 16:50:00 4.7 C 5.86 g/m*3 4.7 C 1.6 km/h
2506 15-12-2013 16:55:00 4.7 C 5.86 g/m*3 4.7 C 1.6 km/h
2507 15-12-2013 17:00:00 4.7 C 5.86 g/m*3 4.7 C 3.2 km/h
2508 15-12-2013 17:05:00 4.8 C 5.77 g/m*3 4.8 C 4.8 km/h
2509 15-12-2013 17:10:00 4.8 C 5.83 g/m*3 4.8 C 3.2 km/h
2510 15-12-2013 17:15:00 4.6 C 5.76 g/m*3 4.6 C 3.2 km/h
2511 15-12-2013 17:20:00 4.4 C 5.68 g/m*3 4.4 C 3.2 km/h
2512 15-12-2013 17:25:00 4.3 C 5.71 g/m*3 4.3 C 1.6 km/h
2513 15-12-2013 17:30:00 4.4 C 5.81 g/m*3 4.4 C 3.2 km/h
2514 15-12-2013 17:35:00 4.3 C 5.71 g/m*3 4.3 C 3.2 km/h
2515 15-12-2013 17:40:00 4.3 C 5.77 g/m*3 4.3 C 1.6 km/h
2516 15-12-2013 17:45:00 4.2 C 5.73 g/m*3 4.2 C 0 km/h
2517 15-12-2013 17:50:00 4.2 C 5.73 g/m*3 4.2 C 3.2 km/h
2518 15-12-2013 17:55:00 4.2 C 5.8 g/m*3 4.2 C 0 km/h
2519 15-12-2013 18:00:00 4.3 C 5.84 g/m*3 4.3 C 0 km/h
2520 15-12-2013 18:05:00 4.3 C 5.9 g/m*3 4.3 C 1.6 km/h
2521 15-12-2013 18:10:00 4.4 C 5.94 g/m*3 4.4 C 3.2 km/h
2522 15-12-2013 18:15:00 4.6 C 6.02 g/m*3 4.6 C 1.6 km/h
2523 15-12-2013 18:20:00 4.6 C 5.96 g/m*3 4.6 C 0 km/h
2524 15-12-2013 18:25:00 4.7 C 6 g/m*3 4.7 C 0 km/h
2525 15-12-2013 18:30:00 4.7 C 6 g/m*3 4.7 C 3.2 km/h
Sensor: Nr:Datum:Temp:Abs-Feuchte:Windchill:Wind:
Aussen-T/F 2526 15-12-2013 18:38:00 4.7 C 5.93 g/m*3 4.7 C 0 km/h
2527 15-12-2013 18:40:00 4.6 C 5.89 g/m*3 4.6 C 0 km/h
2528 15-12-2013 18:45:00 4.5 C 5.85 g/m*3 4.5 C 1.6 km/h
2529 15-12-2013 18:50:00 4.4 C 5.81 g/m*3 4.4 C 0 km/h
2530 15-12-2013 18:55:00 4.4 C 5.81 g/m*3 4.4 C 0 km/h
2531 15-12-2013 19:00:00 4.2 C 5.73 g/m*3 4.2 C 1.6 km/h
2532 15-12-2013 19:05:00 4.1 C 5.7 g/m*3 4.1 C 0 km/h
2533 15-12-2013 19:10:00 3.9 C 5.68 g/m*3 3.9 C 0 km/h
2534 15-12-2013 19:15:00 3.8 C 5.65 g/m*3 3.8 C 3.2 km/h
2535 15-12-2013 19:20:00 3.7 C 5.61 g/m*3 3.7 C 1.6 km/h
2536 15-12-2013 19:25:00 3.6 C 5.57 g/m*3 3.6 C 0 km/h
2537 15-12-2013 19:30:00 3.4 C 5.56 g/m*3 3.4 C 0 km/h
2538 15-12-2013 19:35:00 3.3 C 5.52 g/m*3 3.3 C 1.6 km/h
2539 15-12-2013 19:40:00 3.2 C 5.48 g/m*3 3.2 C 0 km/h
2540 15-12-2013 19:45:00 3.1 C 5.45 g/m*3 3.1 C 0 km/h
2541 15-12-2013 19:50:00 3.1 C 5.51 g/m*3 3.1 C 1.6 km/h
2542 15-12-2013 19:55:00 3.1 C 5.51 g/m*3 3.1 C 0 km/h
2543 15-12-2013 20:00:00 3 C 5.47 g/m*3 3 C 0 km/h
2544 15-12-2013 20:05:00 2.9 C 5.43 g/m*3 2.9 C 0 km/h
2545 15-12-2013 20:10:00 2.8 C 5.4 g/m*3 2.8 C 0 km/h
2546 15-12-2013 20:15:00 2.8 C 5.4 g/m*3 2.8 C 0 km/h
2547 15-12-2013 20:20:00 2.7 C 5.42 g/m*3 2.7 C 0 km/h
2548 15-12-2013 20:25:00 2.7 C 5.42 g/m*3 2.7 C 0 km/h
2549 15-12-2013 20:30:00 2.7 C 5.42 g/m*3 2.7 C 1.6 km/h
2550 15-12-2013 20:35:00 2.6 C 5.38 g/m*3 2.6 C 1.6 km/h
Sensor: Nr:Datum:Temp:Abs-Feuchte:Windchill:Wind:
Aussen-T/F 2551 15-12-2013 20:40:00 2.5 C 5.29 g/m*3 2.5 C 0 km/h
2552 15-12-2013 20:45:00 2.4 C 5.25 g/m*3 2.4 C 0 km/h
2553 15-12-2013 20:50:00 2.3 C 5.27 g/m*3 2.3 C 0 km/h
2554 15-12-2013 20:55:00 2.3 C 5.27 g/m*3 2.3 C 0 km/h
2555 15-12-2013 21:00:00 2.4 C 5.31 g/m*3 2.4 C 0 km/h
2556 15-12-2013 21:05:00 2.3 C 5.27 g/m*3 2.3 C 0 km/h
2557 15-12-2013 21:10:00 2.3 C 5.27 g/m*3 2.3 C 0 km/h
2558 15-12-2013 21:15:00 2.2 C 5.24 g/m*3 2.2 C 0 km/h
2559 15-12-2013 21:20:00 2.1 C 5.2 g/m*3 2.1 C 0 km/h
2560 15-12-2013 21:25:00 2.1 C 5.2 g/m*3 2.1 C 1.6 km/h
2561 15-12-2013 21:30:00 2.1 C 5.26 g/m*3 2.1 C 0 km/h
2562 15-12-2013 21:35:00 2 C 5.22 g/m*3 2 C 0 km/h
2563 15-12-2013 21:40:00 1.9 C 5.13 g/m*3 1.9 C 0 km/h
2564 15-12-2013 21:45:00 1.9 C 5.19 g/m*3 1.9 C 1.6 km/h
2565 15-12-2013 21:50:00 1.9 C 5.19 g/m*3 1.9 C 0 km/h
2566 15-12-2013 21:55:00 1.9 C 5.19 g/m*3 1.9 C 0 km/h
2567 15-12-2013 22:00:00 1.8 C 5.1 g/m*3 1.8 C 0 km/h
2568 15-12-2013 22:05:00 1.7 C 5.06 g/m*3 1.7 C 0 km/h
2569 15-12-2013 22:10:00 1.6 C 5.08 g/m*3 1.6 C 0 km/h
2570 15-12-2013 22:15:00 1.6 C 5.08 g/m*3 1.6 C 0 km/h
2571 15-12-2013 22:20:00 1.6 C 5.08 g/m*3 1.6 C 0 km/h
2572 15-12-2013 22:25:00 1.5 C 5.05 g/m*3 1.5 C 0 km/h
2573 15-12-2013 22:30:00 1.4 C 5.01 g/m*3 1.4 C 0 km/h
2574 15-12-2013 22:35:00 1.4 C 5.01 g/m*3 1.4 C 1.6 km/h
2575 15-12-2013 22:40:00 1.3 C 4.98 g/m*3 1.3 C 0 km/h
Sensor: Nr:Datum:Temp:Abs-Feuchte:Windchill:Wind:
Aussen-T/F 2576 15-12-2013 22:45:00 1.3 C 4.98 g/m*3 1.3 C 1.6 km/h
2577 15-12-2013 22:50:00 1.3 C 4.98 g/m*3 1.3 C 1.6 km/h
2578 15-12-2013 22:55:00 1.3 C 4.98 g/m*3 1.3 C 1.6 km/h
2579 15-12-2013 23:00:00 1.3 C 4.98 g/m*3 1.3 C 0 km/h
2580 15-12-2013 23:05:00 1.2 C 4.95 g/m*3 1.2 C 0 km/h
2581 15-12-2013 23:10:00 1.3 C 5.03 g/m*3 1.3 C 0 km/h
2582 15-12-2013 23:15:00 1.2 C 5 g/m*3 1.2 C 0 km/h
2583 15-12-2013 23:20:00 1.2 C 5 g/m*3 1.2 C 0 km/h
2584 15-12-2013 23:25:00 1.2 C 4.95 g/m*3 1.2 C 0 km/h
2585 15-12-2013 23:30:00 1.2 C 4.95 g/m*3 1.2 C 1.6 km/h
2586 15-12-2013 23:35:00 1.2 C 5 g/m*3 1.2 C 0 km/h
2587 15-12-2013 23:40:00 1.2 C 5 g/m*3 1.2 C 0 km/h
2588 15-12-2013 23:45:00 1.2 C 5 g/m*3 1.2 C 0 km/h
2589 15-12-2013 23:50:00 1.2 C 5 g/m*3 1.2 C 0 km/h
2590 15-12-2013 23:55:00 1.2 C 5 g/m*3 1.2 C 0 km/h
2591 16-12-2013 00:00:00 1.1 C 4.96 g/m*3 1.1 C 0 km/h
2592 16-12-2013 00:05:00 1.1 C 4.96 g/m*3 1.1 C 0 km/h
2593 16-12-2013 00:10:00 1.1 C 4.96 g/m*3 1.1 C 1.6 km/h
2594 16-12-2013 00:15:00 0.9 C 4.9 g/m*3 0.9 C 0 km/h
2595 16-12-2013 00:20:00 0.9 C 4.9 g/m*3 0.9 C 1.6 km/h
2596 16-12-2013 00:25:00 1.2 C 5 g/m*3 1.2 C 3.2 km/h
2597 16-12-2013 00:30:00 1.3 C 5.03 g/m*3 1.3 C 1.6 km/h
2598 16-12-2013 00:35:00 1.2 C 5 g/m*3 1.2 C 0 km/h
2599 16-12-2013 00:40:00 1.1 C 4.96 g/m*3 1.1 C 0 km/h
2600 16-12-2013 00:45:00 0.9 C 4.9 g/m*3 0.9 C 0 km/h
Sensor: Nr:Datum:Temp:Abs-Feuchte:Windchill:Wind:
Aussen-T/F 2601 16-12-2013 00:50:00 0.9 C 4.9 g/m*3 0.9 C 0 km/h
2602 16-12-2013 00:55:00 0.9 C 4.9 g/m*3 0.9 C 0 km/h
2603 16-12-2013 01:00:00 0.9 C 4.9 g/m*3 0.9 C 0 km/h
2604 16-12-2013 01:05:00 0.9 C 4.9 g/m*3 0.9 C 0 km/h
2605 16-12-2013 01:10:00 0.9 C 4.9 g/m*3 0.9 C 0 km/h
2606 16-12-2013 01:15:00 0.9 C 4.9 g/m*3 0.9 C 0 km/h
2607 16-12-2013 01:20:00 0.9 C 4.9 g/m*3 0.9 C 0 km/h
2608 16-12-2013 01:25:00 0.8 C 4.86 g/m*3 0.8 C 0 km/h
2609 16-12-2013 01:30:00 0.7 C 4.83 g/m*3 0.7 C 0 km/h
2610 16-12-2013 01:35:00 0.7 C 4.83 g/m*3 0.7 C 0 km/h
2611 16-12-2013 01:40:00 0.7 C 4.83 g/m*3 0.7 C 0 km/h
2612 16-12-2013 01:45:00 0.7 C 4.83 g/m*3 0.7 C 0 km/h
2613 16-12-2013 01:50:00 0.7 C 4.83 g/m*3 0.7 C 0 km/h
2614 16-12-2013 01:55:00 0.6 C 4.8 g/m*3 0.6 C 0 km/h
2615 16-12-2013 02:00:00 0.6 C 4.8 g/m*3 0.6 C 0 km/h
2616 16-12-2013 02:05:00 0.6 C 4.8 g/m*3 0.6 C 0 km/h
2617 16-12-2013 02:10:00 0.4 C 4.73 g/m*3 0.4 C 0 km/h
2618 16-12-2013 02:15:00 0.4 C 4.73 g/m*3 0.4 C 0 km/h
2619 16-12-2013 02:20:00 0.4 C 4.73 g/m*3 0.4 C 0 km/h
2620 16-12-2013 02:25:00 0.4 C 4.73 g/m*3 0.4 C 0 km/h
2621 16-12-2013 02:30:00 0.4 C 4.73 g/m*3 0.4 C 0 km/h
2622 16-12-2013 02:35:00 0.4 C 4.73 g/m*3 0.4 C 0 km/h
2623 16-12-2013 02:40:00 0.4 C 4.73 g/m*3 0.4 C 0 km/h
2624 16-12-2013 02:45:00 0.5 C 4.76 g/m*3 0.5 C 1.6 km/h
2625 16-12-2013 02:50:00 0.5 C 4.76 g/m*3 0.5 C 3.2 km/h
Sensor: Nr:Datum:Temp:Abs-Feuchte:Windchill:Wind:
Aussen-T/F 2626 16-12-2013 02:55:00 0.7 C 4.83 g/m*3 0.7 C 3.2 km/h
2627 16-12-2013 03:00:00 0.7 C 4.83 g/m*3 0.7 C 1.6 km/h
2628 16-12-2013 03:05:00 0.6 C 4.8 g/m*3 0.6 C 3.2 km/h
2629 16-12-2013 03:10:00 0.5 C 4.76 g/m*3 0.5 C 1.6 km/h
2630 16-12-2013 03:15:00 0.4 C 4.73 g/m*3 0.4 C 0 km/h
2631 16-12-2013 03:20:00 0.4 C 4.73 g/m*3 0.4 C 0 km/h
2632 16-12-2013 03:25:00 0.3 C 4.7 g/m*3 0.3 C 1.6 km/h
2633 16-12-2013 03:30:00 0.3 C 4.7 g/m*3 0.3 C 0 km/h
2634 16-12-2013 03:35:00 0.2 C 4.67 g/m*3 0.2 C 0 km/h
2635 16-12-2013 03:40:00 0.2 C 4.67 g/m*3 0.2 C 0 km/h
2636 16-12-2013 03:45:00 0.2 C 4.67 g/m*3 0.2 C 0 km/h
2637 16-12-2013 03:50:00 0.1 C 4.63 g/m*3 0.1 C 0 km/h
2638 16-12-2013 03:55:00 0 C 4.6 g/m*3 0 C 0 km/h
2639 16-12-2013 04:00:00 0 C 4.6 g/m*3 0 C 0 km/h
2640 16-12-2013 04:05:00 0 C 4.6 g/m*3 0 C 0 km/h
2641 16-12-2013 04:10:00 0 C 4.6 g/m*3 0 C 0 km/h
2642 16-12-2013 04:15:00 -0.1 C 4.57 g/m*3 -0.1 C 0 km/h
2643 16-12-2013 04:20:00 -0.1 C 4.57 g/m*3 -0.1 C 0 km/h
2644 16-12-2013 04:25:00 -0.1 C 4.57 g/m*3 -0.1 C 0 km/h
2645 16-12-2013 04:30:00 -0.1 C 4.57 g/m*3 -0.1 C 0 km/h
2646 16-12-2013 04:35:00 -0.1 C 4.57 g/m*3 -0.1 C 0 km/h
2647 16-12-2013 04:40:00 -0.1 C 4.57 g/m*3 -0.1 C 0 km/h
2648 16-12-2013 04:45:00 -0.1 C 4.57 g/m*3 -0.1 C 0 km/h
2649 16-12-2013 04:50:00 0.1 C 4.68 g/m*3 0.1 C 0 km/h
2650 16-12-2013 04:55:00 0.2 C 4.72 g/m*3 0.2 C 1.6 km/h
Sensor: Nr:Datum:Temp:Abs-Feuchte:Windchill:Wind:
Aussen-T/F 2651 16-12-2013 05:00:00 0.2 C 4.72 g/m*3 0.2 C 1.6 km/h
2652 16-12-2013 05:05:00 0.2 C 4.72 g/m*3 0.2 C 0 km/h
2653 16-12-2013 05:10:00 0.2 C 4.72 g/m*3 0.2 C 0 km/h
2654 16-12-2013 05:15:00 0.3 C 4.75 g/m*3 0.3 C 0 km/h
2655 16-12-2013 05:20:00 0.3 C 4.75 g/m*3 0.3 C 0 km/h
2656 16-12-2013 05:25:00 0.4 C 4.78 g/m*3 0.4 C 0 km/h
2657 16-12-2013 05:30:00 0.4 C 4.78 g/m*3 0.4 C 0 km/h
2658 16-12-2013 05:35:00 0.4 C 4.78 g/m*3 0.4 C 0 km/h
2659 16-12-2013 05:40:00 0.3 C 4.75 g/m*3 0.3 C 0 km/h
2660 16-12-2013 05:45:00 0.3 C 4.75 g/m*3 0.3 C 0 km/h
2661 16-12-2013 05:50:00 0.2 C 4.67 g/m*3 0.2 C 0 km/h
2662 16-12-2013 05:55:00 0.3 C 4.75 g/m*3 0.3 C 1.6 km/h
2663 16-12-2013 06:00:00 0.3 C 4.75 g/m*3 0.3 C 1.6 km/h
2664 16-12-2013 06:05:00 0.3 C 4.75 g/m*3 0.3 C 0 km/h
2665 16-12-2013 06:10:00 0.3 C 4.75 g/m*3 0.3 C 0 km/h
2666 16-12-2013 06:15:00 0.3 C 4.7 g/m*3 0.3 C 1.6 km/h
2667 16-12-2013 06:20:00 0.2 C 4.67 g/m*3 0.2 C 0 km/h
2668 16-12-2013 06:25:00 0 C 4.6 g/m*3 0 C 0 km/h
2669 16-12-2013 06:30:00 -0.1 C 4.57 g/m*3 -0.1 C 0 km/h
2670 16-12-2013 06:35:00 -0.4 C 4.52 g/m*3 -0.4 C 0 km/h
2671 16-12-2013 06:40:00 -0.3 C 4.56 g/m*3 -0.3 C 0 km/h
2672 16-12-2013 06:45:00 -0.3 C 4.56 g/m*3 -0.3 C 0 km/h
2673 16-12-2013 06:50:00 -0.3 C 4.56 g/m*3 -0.3 C 1.6 km/h
2674 16-12-2013 07:45:00 -0.3 C 4.56 g/m*3 -0.3 C 0 km/h
2675 16-12-2013 07:50:00 -0.3 C 4.56 g/m*3 -0.3 C 0 km/h
Sensor: Nr:Datum:Temp:Abs-Feuchte:Windchill:Wind:
Aussen-T/F 2676 16-12-2013 07:55:00 -0.3 C 4.56 g/m*3 -0.3 C 0 km/h
2677 16-12-2013 08:00:00 -0.3 C 4.56 g/m*3 -0.3 C 0 km/h
2678 16-12-2013 08:05:00 -0.3 C 4.56 g/m*3 -0.3 C 0 km/h
2679 16-12-2013 08:10:00 -0.4 C 4.52 g/m*3 -0.4 C 0 km/h
2680 16-12-2013 08:15:00 -0.4 C 4.48 g/m*3 -0.4 C 0 km/h
2681 16-12-2013 08:20:00 -0.4 C 4.52 g/m*3 -0.4 C 1.6 km/h
2682 16-12-2013 08:25:00 -0.3 C 4.56 g/m*3 -0.3 C 0 km/h
2683 16-12-2013 08:30:00 -0.2 C 4.59 g/m*3 -0.2 C 3.2 km/h
2684 16-12-2013 08:35:00 -0.3 C 4.56 g/m*3 -0.3 C 1.6 km/h
2685 16-12-2013 08:40:00 -0.3 C 4.56 g/m*3 -0.3 C 0 km/h
2686 16-12-2013 08:45:00 -0.3 C 4.56 g/m*3 -0.3 C 0 km/h
2687 16-12-2013 08:50:00 -0.3 C 4.56 g/m*3 -0.3 C 3.2 km/h
2688 16-12-2013 08:55:00 -0.2 C 4.59 g/m*3 -0.2 C 0 km/h
2689 16-12-2013 09:00:00 -0.2 C 4.59 g/m*3 -0.2 C 0 km/h
2690 16-12-2013 09:05:00 -0.2 C 4.59 g/m*3 -0.2 C 0 km/h
2691 16-12-2013 09:10:00 -0.3 C 4.56 g/m*3 -0.3 C 0 km/h
2692 16-12-2013 09:15:00 -0.3 C 4.56 g/m*3 -0.3 C 0 km/h
2693 16-12-2013 09:20:00 -0.3 C 4.56 g/m*3 -0.3 C 0 km/h
2694 16-12-2013 09:25:00 -0.3 C 4.56 g/m*3 -0.3 C 0 km/h
2695 16-12-2013 09:30:00 -0.4 C 4.52 g/m*3 -0.4 C 0 km/h
2696 16-12-2013 09:35:00 -0.4 C 4.52 g/m*3 -0.4 C 0 km/h
2697 16-12-2013 09:40:00 -0.4 C 4.52 g/m*3 -0.4 C 0 km/h
2698 16-12-2013 09:45:00 -0.3 C 4.56 g/m*3 -0.3 C 0 km/h
2699 16-12-2013 09:50:00 -0.3 C 4.56 g/m*3 -0.3 C 1.6 km/h
2700 16-12-2013 09:55:00 -0.2 C 4.59 g/m*3 -0.2 C 1.6 km/h
Sensor: Nr:Datum:Temp:Abs-Feuchte:Windchill:Wind:
Aussen-T/F 2701 16-12-2013 10:00:00 0 C 4.65 g/m*3 0 C 0 km/h
2702 16-12-2013 10:05:00 0 C 4.65 g/m*3 0 C 0 km/h
2703 16-12-2013 10:10:00 0.1 C 4.68 g/m*3 0.1 C 1.6 km/h
2704 16-12-2013 10:15:00 0.1 C 4.68 g/m*3 0.1 C 0 km/h
2705 16-12-2013 10:20:00 0.2 C 4.72 g/m*3 0.2 C 1.6 km/h
2706 16-12-2013 10:25:00 0.2 C 4.72 g/m*3 0.2 C 0 km/h
2707 16-12-2013 10:30:00 0.3 C 4.75 g/m*3 0.3 C 1.6 km/h
2708 16-12-2013 10:35:00 0.4 C 4.78 g/m*3 0.4 C 0 km/h
2709 16-12-2013 10:40:00 0.5 C 4.81 g/m*3 0.5 C 0 km/h
2710 16-12-2013 10:45:00 0.6 C 4.85 g/m*3 0.6 C 0 km/h
2711 16-12-2013 10:50:00 0.7 C 4.88 g/m*3 0.7 C 0 km/h
2712 16-12-2013 10:55:00 0.7 C 4.88 g/m*3 0.7 C 0 km/h
2713 16-12-2013 11:00:00 0.8 C 4.91 g/m*3 0.8 C 0 km/h
2714 16-12-2013 11:05:00 0.9 C 4.95 g/m*3 0.9 C 0 km/h
2715 16-12-2013 11:10:00 0.9 C 4.95 g/m*3 0.9 C 0 km/h
2716 16-12-2013 11:15:00 1 C 4.98 g/m*3 1 C 0 km/h
2717 16-12-2013 11:20:00 1.1 C 4.96 g/m*3 1.1 C 0 km/h
2718 16-12-2013 11:25:00 1.1 C 4.96 g/m*3 1.1 C 0 km/h
2719 16-12-2013 11:30:00 1.2 C 5 g/m*3 1.2 C 0 km/h
2720 16-12-2013 11:35:00 1.3 C 5.03 g/m*3 1.3 C 0 km/h
2721 16-12-2013 11:40:00 1.5 C 5.1 g/m*3 1.5 C 0 km/h
2722 16-12-2013 11:45:00 1.6 C 5.14 g/m*3 1.6 C 0 km/h
2723 16-12-2013 11:50:00 1.7 C 5.17 g/m*3 1.7 C 0 km/h
2724 16-12-2013 11:55:00 1.8 C 5.21 g/m*3 1.8 C 1.6 km/h
2725 16-12-2013 12:00:00 1.8 C 5.21 g/m*3 1.8 C 1.6 km/h
Sensor: Nr:Datum:Temp:Abs-Feuchte:Windchill:Wind:
Aussen-T/F 2726 16-12-2013 12:05:00 1.9 C 5.24 g/m*3 1.9 C 1.6 km/h
2727 16-12-2013 12:10:00 2 C 5.28 g/m*3 2 C 0 km/h
2728 16-12-2013 12:15:00 2.1 C 5.31 g/m*3 2.1 C 3.2 km/h
2729 16-12-2013 12:20:00 2.2 C 5.35 g/m*3 2.2 C 3.2 km/h
2730 16-12-2013 12:25:00 2.3 C 5.39 g/m*3 2.3 C 1.6 km/h
2731 16-12-2013 12:30:00 2.4 C 5.42 g/m*3 2.4 C 0 km/h
2732 16-12-2013 12:35:00 2.5 C 5.46 g/m*3 2.5 C 0 km/h
2733 16-12-2013 12:40:00 2.5 C 5.4 g/m*3 2.5 C 1.6 km/h
2734 16-12-2013 12:45:00 2.6 C 5.44 g/m*3 2.6 C 1.6 km/h
2735 16-12-2013 12:50:00 2.7 C 5.48 g/m*3 2.7 C 3.2 km/h
2736 16-12-2013 12:55:00 2.8 C 5.51 g/m*3 2.8 C 0 km/h
2737 16-12-2013 13:00:00 2.9 C 5.49 g/m*3 2.9 C 3.2 km/h
2738 16-12-2013 13:05:00 3.1 C 5.63 g/m*3 3.1 C 3.2 km/h
2739 16-12-2013 13:10:00 3.2 C 5.6 g/m*3 3.2 C 3.2 km/h
2740 16-12-2013 13:15:00 3.2 C 5.6 g/m*3 3.2 C 1.6 km/h
2741 16-12-2013 13:20:00 3.2 C 5.6 g/m*3 3.2 C 3.2 km/h
2742 16-12-2013 13:25:00 3.2 C 5.6 g/m*3 3.2 C 3.2 km/h
2743 16-12-2013 13:30:00 3.3 C 5.7 g/m*3 3.3 C 3.2 km/h
2744 16-12-2013 13:35:00 3.3 C 5.64 g/m*3 3.3 C 1.6 km/h
2745 16-12-2013 13:40:00 3.5 C 5.72 g/m*3 3.5 C 3.2 km/h
2746 16-12-2013 13:45:00 3.7 C 5.8 g/m*3 3.7 C 3.2 km/h
2747 16-12-2013 13:50:00 3.7 C 5.8 g/m*3 3.7 C 3.2 km/h
2748 16-12-2013 13:55:00 3.7 C 5.8 g/m*3 3.7 C 1.6 km/h
2749 16-12-2013 14:00:00 3.8 C 5.83 g/m*3 3.8 C 3.2 km/h
2750 16-12-2013 14:05:00 3.9 C 5.81 g/m*3 3.9 C 3.2 km/h
Sensor: Nr:Datum:Temp:Abs-Feuchte:Windchill:Wind:
Aussen-T/F 2751 16-12-2013 14:10:00 4 C 5.91 g/m*3 4 C 4.8 km/h
2752 16-12-2013 14:15:00 4.1 C 5.89 g/m*3 4.1 C 3.2 km/h
2753 16-12-2013 14:20:00 4.1 C 5.89 g/m*3 4.1 C 1.6 km/h
2754 16-12-2013 14:25:00 4.1 C 5.89 g/m*3 4.1 C 4.8 km/h
2755 16-12-2013 14:30:00 4.1 C 5.89 g/m*3 4.1 C 3.2 km/h
2756 16-12-2013 14:35:00 4.1 C 5.89 g/m*3 4.1 C 3.2 km/h
2757 16-12-2013 14:40:00 4.3 C 5.97 g/m*3 4.3 C 4.8 km/h
2758 16-12-2013 14:45:00 4.4 C 6.01 g/m*3 4.4 C 3.2 km/h
2759 16-12-2013 14:50:00 4.6 C 6.09 g/m*3 4.6 C 4.8 km/h
2760 16-12-2013 14:55:00 4.6 C 6.02 g/m*3 4.6 C 4.8 km/h
2761 16-12-2013 15:00:00 4.7 C 6.06 g/m*3 4.7 C 4.8 km/h
2762 16-12-2013 15:05:00 4.7 C 6.06 g/m*3 4.7 C 3.2 km/h
2763 16-12-2013 15:10:00 4.6 C 6.02 g/m*3 4.6 C 3.2 km/h
2764 16-12-2013 15:15:00 4.5 C 5.98 g/m*3 4.5 C 1.6 km/h
2765 16-12-2013 15:20:00 4.4 C 6.01 g/m*3 4.4 C 3.2 km/h
2766 16-12-2013 15:25:00 4.4 C 6.01 g/m*3 4.4 C 3.2 km/h
2767 16-12-2013 15:30:00 4.4 C 6.01 g/m*3 4.4 C 4.8 km/h
2768 16-12-2013 15:35:00 4.4 C 6.01 g/m*3 4.4 C 1.6 km/h
2769 16-12-2013 15:40:00 4.4 C 6.01 g/m*3 4.4 C 3.2 km/h
2770 16-12-2013 15:45:00 4.5 C 6.05 g/m*3 4.5 C 3.2 km/h
2771 16-12-2013 15:50:00 4.4 C 6.01 g/m*3 4.4 C 1.6 km/h
2772 16-12-2013 15:55:00 4.5 C 6.05 g/m*3 4.5 C 3.2 km/h
2773 16-12-2013 16:00:00 4.6 C 6.02 g/m*3 4.6 C 3.2 km/h
2774 16-12-2013 16:05:00 4.7 C 6.06 g/m*3 4.7 C 3.2 km/h
2775 16-12-2013 16:10:00 4.6 C 5.96 g/m*3 4.6 C 3.2 km/h
Sensor: Nr:Datum:Temp:Abs-Feuchte:Windchill:Wind:
Aussen-T/F 2776 16-12-2013 16:15:00 4.4 C 5.94 g/m*3 4.4 C 3.2 km/h
2777 16-12-2013 16:20:00 4.2 C 5.86 g/m*3 4.2 C 3.2 km/h
2778 16-12-2013 16:25:00 4.1 C 5.82 g/m*3 4.1 C 3.2 km/h
2779 16-12-2013 16:30:00 4 C 5.85 g/m*3 4 C 3.2 km/h
2780 16-12-2013 16:35:00 4 C 5.85 g/m*3 4 C 3.2 km/h
2781 16-12-2013 16:40:00 3.8 C 5.77 g/m*3 3.8 C 1.6 km/h
2782 16-12-2013 16:45:00 3.7 C 5.67 g/m*3 3.7 C 3.2 km/h
2783 16-12-2013 16:50:00 3.6 C 5.69 g/m*3 3.6 C 1.6 km/h
2784 16-12-2013 16:55:00 3.4 C 5.62 g/m*3 3.4 C 0 km/h
2785 16-12-2013 17:00:00 3.4 C 5.68 g/m*3 3.4 C 3.2 km/h
2786 16-12-2013 17:05:00 3.4 C 5.68 g/m*3 3.4 C 1.6 km/h
2787 16-12-2013 17:10:00 3.3 C 5.64 g/m*3 3.3 C 0 km/h
2788 16-12-2013 17:15:00 3.2 C 5.6 g/m*3 3.2 C 3.2 km/h
2789 16-12-2013 17:20:00 3.2 C 5.6 g/m*3 3.2 C 3.2 km/h
2790 16-12-2013 17:25:00 3.3 C 5.7 g/m*3 3.3 C 3.2 km/h
2791 16-12-2013 17:30:00 3.2 C 5.6 g/m*3 3.2 C 0 km/h
2792 16-12-2013 17:35:00 3.1 C 5.57 g/m*3 3.1 C 1.6 km/h
2793 16-12-2013 17:40:00 3.1 C 5.57 g/m*3 3.1 C 3.2 km/h
2794 16-12-2013 17:45:00 3.2 C 5.66 g/m*3 3.2 C 0 km/h
2795 16-12-2013 17:50:00 3.2 C 5.6 g/m*3 3.2 C 0 km/h
2796 16-12-2013 17:55:00 3.1 C 5.57 g/m*3 3.1 C 0 km/h
2797 16-12-2013 18:00:00 3 C 5.53 g/m*3 3 C 0 km/h
2798 16-12-2013 18:05:00 2.9 C 5.55 g/m*3 2.9 C 1.6 km/h
2799 16-12-2013 18:10:00 2.9 C 5.49 g/m*3 2.9 C 3.2 km/h
2800 16-12-2013 18:15:00 2.7 C 5.42 g/m*3 2.7 C 1.6 km/h
Sensor: Nr:Datum:Temp:Abs-Feuchte:Windchill:Wind:
Aussen-T/F 2801 16-12-2013 18:20:00 2.7 C 5.42 g/m*3 2.7 C 0 km/h
2802 16-12-2013 18:25:00 2.6 C 5.38 g/m*3 2.6 C 0 km/h
2803 16-12-2013 18:30:00 2.5 C 5.4 g/m*3 2.5 C 0 km/h
2804 16-12-2013 18:35:00 2.5 C 5.4 g/m*3 2.5 C 0 km/h
2805 16-12-2013 18:40:00 2.4 C 5.31 g/m*3 2.4 C 1.6 km/h
2806 16-12-2013 18:45:00 2.3 C 5.33 g/m*3 2.3 C 0 km/h
2807 16-12-2013 18:50:00 2.2 C 5.29 g/m*3 2.2 C 0 km/h
2808 16-12-2013 18:55:00 2.2 C 5.29 g/m*3 2.2 C 0 km/h
2809 16-12-2013 19:00:00 2.2 C 5.35 g/m*3 2.2 C 0 km/h
2810 16-12-2013 19:05:00 2.2 C 5.35 g/m*3 2.2 C 0 km/h
2811 16-12-2013 19:10:00 2.3 C 5.39 g/m*3 2.3 C 0 km/h
2812 16-12-2013 19:15:00 2.3 C 5.39 g/m*3 2.3 C 0 km/h
2813 16-12-2013 19:20:00 2.4 C 5.42 g/m*3 2.4 C 1.6 km/h
2814 16-12-2013 19:25:00 2.3 C 5.39 g/m*3 2.3 C 0 km/h
2815 16-12-2013 19:30:00 2.3 C 5.39 g/m*3 2.3 C 0 km/h
2816 16-12-2013 19:35:00 2.3 C 5.39 g/m*3 2.3 C 0 km/h
2817 16-12-2013 19:40:00 2.4 C 5.42 g/m*3 2.4 C 0 km/h
2818 16-12-2013 19:45:00 2.3 C 5.39 g/m*3 2.3 C 0 km/h
2819 16-12-2013 19:50:00 2.3 C 5.39 g/m*3 2.3 C 0 km/h
2820 16-12-2013 19:55:00 2.2 C 5.35 g/m*3 2.2 C 0 km/h
2821 16-12-2013 20:00:00 2.1 C 5.26 g/m*3 2.1 C 0 km/h
2822 16-12-2013 20:05:00 2.1 C 5.31 g/m*3 2.1 C 0 km/h
2823 16-12-2013 20:10:00 2 C 5.28 g/m*3 2 C 0 km/h
2824 16-12-2013 20:15:00 1.9 C 5.24 g/m*3 1.9 C 1.6 km/h
2825 16-12-2013 20:20:00 1.9 C 5.24 g/m*3 1.9 C 0 km/h
Sensor: Nr:Datum:Temp:Abs-Feuchte:Windchill:Wind:
Aussen-T/F 2826 16-12-2013 20:25:00 1.8 C 5.21 g/m*3 1.8 C 3.2 km/h
2827 16-12-2013 20:30:00 1.8 C 5.21 g/m*3 1.8 C 1.6 km/h
2828 16-12-2013 20:35:00 1.7 C 5.17 g/m*3 1.7 C 0 km/h
2829 16-12-2013 20:40:00 1.7 C 5.17 g/m*3 1.7 C 1.6 km/h
2830 16-12-2013 20:45:00 1.5 C 5.05 g/m*3 1.5 C 0 km/h
2831 16-12-2013 20:50:00 1.4 C 5.07 g/m*3 1.4 C 3.2 km/h
2832 16-12-2013 20:55:00 1.5 C 5.1 g/m*3 1.5 C 0 km/h
2833 16-12-2013 21:00:00 1.5 C 5.1 g/m*3 1.5 C 0 km/h
2834 16-12-2013 21:05:00 1.4 C 5.07 g/m*3 1.4 C 0 km/h
2835 16-12-2013 21:10:00 1.3 C 5.03 g/m*3 1.3 C 0 km/h
2836 16-12-2013 21:15:00 1.2 C 5 g/m*3 1.2 C 0 km/h
2837 16-12-2013 21:20:00 1.2 C 5 g/m*3 1.2 C 0 km/h
2838 16-12-2013 21:25:00 1.1 C 4.96 g/m*3 1.1 C 0 km/h
2839 16-12-2013 21:30:00 1 C 4.93 g/m*3 1 C 0 km/h
2840 16-12-2013 21:35:00 0.9 C 4.9 g/m*3 0.9 C 0 km/h
2841 16-12-2013 21:40:00 0.8 C 4.86 g/m*3 0.8 C 0 km/h
2842 16-12-2013 21:45:00 0.8 C 4.86 g/m*3 0.8 C 0 km/h
2843 16-12-2013 21:50:00 0.9 C 4.95 g/m*3 0.9 C 0 km/h
2844 16-12-2013 21:55:00 1.1 C 5.02 g/m*3 1.1 C 0 km/h
2845 16-12-2013 22:00:00 1.2 C 5.05 g/m*3 1.2 C 0 km/h
2846 16-12-2013 22:05:00 1.2 C 5.05 g/m*3 1.2 C 0 km/h
2847 16-12-2013 22:10:00 1.1 C 5.02 g/m*3 1.1 C 1.6 km/h
2848 16-12-2013 22:15:00 1.1 C 5.02 g/m*3 1.1 C 0 km/h
2849 16-12-2013 22:20:00 1 C 4.98 g/m*3 1 C 0 km/h
2850 16-12-2013 22:25:00 0.9 C 4.95 g/m*3 0.9 C 1.6 km/h
Sensor: Nr:Datum:Temp:Abs-Feuchte:Windchill:Wind:
Aussen-T/F 2851 16-12-2013 22:30:00 0.8 C 4.91 g/m*3 0.8 C 0 km/h
2852 16-12-2013 22:35:00 0.7 C 4.88 g/m*3 0.7 C 3.2 km/h
2853 16-12-2013 22:40:00 0.7 C 4.88 g/m*3 0.7 C 1.6 km/h
2854 16-12-2013 22:45:00 0.7 C 4.88 g/m*3 0.7 C 0 km/h
2855 16-12-2013 22:50:00 0.6 C 4.85 g/m*3 0.6 C 0 km/h
2856 16-12-2013 22:55:00 0.6 C 4.85 g/m*3 0.6 C 1.6 km/h
2857 16-12-2013 23:00:00 0.7 C 4.88 g/m*3 0.7 C 0 km/h
2858 16-12-2013 23:05:00 0.8 C 4.91 g/m*3 0.8 C 0 km/h
2859 16-12-2013 23:10:00 0.8 C 4.91 g/m*3 0.8 C 0 km/h
2860 16-12-2013 23:15:00 0.8 C 4.91 g/m*3 0.8 C 0 km/h
2861 16-12-2013 23:20:00 0.7 C 4.88 g/m*3 0.7 C 0 km/h
2862 16-12-2013 23:25:00 0.7 C 4.88 g/m*3 0.7 C 0 km/h
2863 16-12-2013 23:30:00 0.6 C 4.85 g/m*3 0.6 C 0 km/h
2864 16-12-2013 23:35:00 0.5 C 4.81 g/m*3 0.5 C 0 km/h
2865 16-12-2013 23:40:00 0.4 C 4.78 g/m*3 0.4 C 0 km/h
2866 16-12-2013 23:45:00 0.6 C 4.9 g/m*3 0.6 C 1.6 km/h
2867 16-12-2013 23:50:00 0.6 C 4.9 g/m*3 0.6 C 1.6 km/h
2868 16-12-2013 23:55:00 0.5 C 4.81 g/m*3 0.5 C 0 km/h
2869 17-12-2013 00:00:00 0.3 C 4.75 g/m*3 0.3 C 0 km/h
2870 17-12-2013 00:05:00 0.3 C 4.75 g/m*3 0.3 C 1.6 km/h
2871 17-12-2013 00:10:00 0.2 C 4.72 g/m*3 0.2 C 0 km/h
2872 17-12-2013 00:15:00 0.1 C 4.68 g/m*3 0.1 C 0 km/h
2873 17-12-2013 00:20:00 0.1 C 4.68 g/m*3 0.1 C 0 km/h
2874 17-12-2013 00:25:00 0.1 C 4.68 g/m*3 0.1 C 0 km/h
2875 17-12-2013 00:30:00 0.1 C 4.68 g/m*3 0.1 C 0 km/h
Sensor: Nr:Datum:Temp:Abs-Feuchte:Windchill:Wind:
Aussen-T/F 2876 17-12-2013 00:35:00 0.2 C 4.72 g/m*3 0.2 C 0 km/h
2877 17-12-2013 00:40:00 0.2 C 4.72 g/m*3 0.2 C 1.6 km/h
2878 17-12-2013 00:45:00 0.1 C 4.68 g/m*3 0.1 C 0 km/h
2879 17-12-2013 00:50:00 0.1 C 4.68 g/m*3 0.1 C 0 km/h
2880 17-12-2013 00:55:00 0 C 4.65 g/m*3 0 C 0 km/h
2881 17-12-2013 01:00:00 -0.1 C 4.62 g/m*3 -0.1 C 0 km/h
2882 17-12-2013 01:05:00 -0.1 C 4.62 g/m*3 -0.1 C 0 km/h
2883 17-12-2013 01:10:00 -0.2 C 4.59 g/m*3 -0.2 C 0 km/h
2884 17-12-2013 01:15:00 -0.2 C 4.59 g/m*3 -0.2 C 0 km/h
2885 17-12-2013 01:20:00 -0.2 C 4.59 g/m*3 -0.2 C 0 km/h
2886 17-12-2013 01:25:00 -0.2 C 4.59 g/m*3 -0.2 C 0 km/h
2887 17-12-2013 01:30:00 -0.2 C 4.64 g/m*3 -0.2 C 0 km/h
2888 17-12-2013 01:35:00 -0.2 C 4.64 g/m*3 -0.2 C 0 km/h
2889 17-12-2013 01:40:00 -0.2 C 4.64 g/m*3 -0.2 C 0 km/h
2890 17-12-2013 01:45:00 -0.1 C 4.67 g/m*3 -0.1 C 0 km/h
2891 17-12-2013 01:50:00 -0.2 C 4.64 g/m*3 -0.2 C 0 km/h
2892 17-12-2013 01:55:00 -0.2 C 4.64 g/m*3 -0.2 C 0 km/h
2893 17-12-2013 02:00:00 -0.2 C 4.64 g/m*3 -0.2 C 0 km/h
2894 17-12-2013 02:05:00 -0.2 C 4.64 g/m*3 -0.2 C 0 km/h
2895 17-12-2013 02:10:00 -0.3 C 4.6 g/m*3 -0.3 C 0 km/h
2896 17-12-2013 02:15:00 -0.3 C 4.6 g/m*3 -0.3 C 0 km/h
2897 17-12-2013 02:20:00 -0.3 C 4.6 g/m*3 -0.3 C 0 km/h
2898 17-12-2013 02:25:00 -0.3 C 4.6 g/m*3 -0.3 C 0 km/h
2899 17-12-2013 02:30:00 -0.3 C 4.6 g/m*3 -0.3 C 0 km/h
2900 17-12-2013 02:35:00 -0.3 C 4.6 g/m*3 -0.3 C 0 km/h
Sensor: Nr:Datum:Temp:Abs-Feuchte:Windchill:Wind:
Aussen-T/F 2901 17-12-2013 02:40:00 -0.4 C 4.57 g/m*3 -0.4 C 0 km/h
2902 17-12-2013 02:45:00 -0.4 C 4.57 g/m*3 -0.4 C 0 km/h
2903 17-12-2013 02:50:00 -0.4 C 4.57 g/m*3 -0.4 C 0 km/h
2904 17-12-2013 02:55:00 -0.5 C 4.54 g/m*3 -0.5 C 0 km/h
2905 17-12-2013 03:00:00 -0.6 C 4.51 g/m*3 -0.6 C 0 km/h
2906 17-12-2013 03:05:00 -0.5 C 4.54 g/m*3 -0.5 C 0 km/h
2907 17-12-2013 03:10:00 -0.4 C 4.57 g/m*3 -0.4 C 0 km/h
2908 17-12-2013 03:15:00 -0.4 C 4.57 g/m*3 -0.4 C 0 km/h
2909 17-12-2013 03:20:00 -0.5 C 4.54 g/m*3 -0.5 C 0 km/h
2910 17-12-2013 03:25:00 -0.5 C 4.54 g/m*3 -0.5 C 0 km/h
2911 17-12-2013 03:30:00 -0.6 C 4.51 g/m*3 -0.6 C 0 km/h
2912 17-12-2013 03:35:00 -0.6 C 4.51 g/m*3 -0.6 C 0 km/h
2913 17-12-2013 03:40:00 -0.7 C 4.48 g/m*3 -0.7 C 0 km/h
2914 17-12-2013 03:45:00 -0.7 C 4.48 g/m*3 -0.7 C 0 km/h
2915 17-12-2013 03:50:00 -0.7 C 4.48 g/m*3 -0.7 C 0 km/h
2916 17-12-2013 03:55:00 -0.7 C 4.48 g/m*3 -0.7 C 0 km/h
2917 17-12-2013 04:00:00 -0.7 C 4.48 g/m*3 -0.7 C 0 km/h
2918 17-12-2013 04:05:00 -0.8 C 4.45 g/m*3 -0.8 C 0 km/h
2919 17-12-2013 04:10:00 -0.8 C 4.45 g/m*3 -0.8 C 0 km/h
2920 17-12-2013 04:15:00 -0.8 C 4.45 g/m*3 -0.8 C 1.6 km/h
2921 17-12-2013 04:20:00 -0.8 C 4.45 g/m*3 -0.8 C 0 km/h
2922 17-12-2013 04:25:00 -0.8 C 4.45 g/m*3 -0.8 C 0 km/h
2923 17-12-2013 04:30:00 -0.8 C 4.45 g/m*3 -0.8 C 0 km/h
2924 17-12-2013 04:35:00 -0.9 C 4.42 g/m*3 -0.9 C 0 km/h
2925 17-12-2013 04:40:00 -0.9 C 4.42 g/m*3 -0.9 C 0 km/h
Sensor: Nr:Datum:Temp:Abs-Feuchte:Windchill:Wind:
Aussen-T/F 2926 17-12-2013 04:45:00 -1 C 4.38 g/m*3 -1 C 0 km/h
2927 17-12-2013 04:50:00 -1 C 4.38 g/m*3 -1 C 0 km/h
2928 17-12-2013 04:55:00 -1.1 C 4.35 g/m*3 -1.1 C 0 km/h
2929 17-12-2013 05:00:00 -1.1 C 4.35 g/m*3 -1.1 C 0 km/h
2930 17-12-2013 05:05:00 -1.1 C 4.35 g/m*3 -1.1 C 0 km/h
2931 17-12-2013 05:10:00 -1.1 C 4.35 g/m*3 -1.1 C 0 km/h
2932 17-12-2013 05:15:00 -1.2 C 4.32 g/m*3 -1.2 C 0 km/h
2933 17-12-2013 05:20:00 -1.2 C 4.32 g/m*3 -1.2 C 0 km/h
2934 17-12-2013 05:25:00 -1.2 C 4.32 g/m*3 -1.2 C 0 km/h
2935 17-12-2013 05:30:00 -1.2 C 4.32 g/m*3 -1.2 C 0 km/h
2936 17-12-2013 05:35:00 -1.2 C 4.32 g/m*3 -1.2 C 0 km/h
2937 17-12-2013 05:40:00 -1.2 C 4.32 g/m*3 -1.2 C 0 km/h
2938 17-12-2013 05:45:00 -1.2 C 4.32 g/m*3 -1.2 C 0 km/h
2939 17-12-2013 05:50:00 -1.2 C 4.32 g/m*3 -1.2 C 0 km/h
2940 17-12-2013 05:55:00 -1.2 C 4.32 g/m*3 -1.2 C 0 km/h
2941 17-12-2013 06:00:00 -1.2 C 4.32 g/m*3 -1.2 C 1.6 km/h
2942 17-12-2013 06:05:00 -1.2 C 4.32 g/m*3 -1.2 C 0 km/h
2943 17-12-2013 06:10:00 -1.2 C 4.32 g/m*3 -1.2 C 0 km/h
2944 17-12-2013 06:15:00 -1.2 C 4.32 g/m*3 -1.2 C 0 km/h
2945 17-12-2013 06:20:00 -1.2 C 4.32 g/m*3 -1.2 C 0 km/h
2946 17-12-2013 06:25:00 -1.1 C 4.35 g/m*3 -1.1 C 1.6 km/h
2947 17-12-2013 06:30:00 -1.1 C 4.35 g/m*3 -1.1 C 1.6 km/h
2948 17-12-2013 06:35:00 -1.1 C 4.35 g/m*3 -1.1 C 1.6 km/h
2949 17-12-2013 06:40:00 -1.1 C 4.35 g/m*3 -1.1 C 0 km/h
2950 17-12-2013 06:45:00 -1.1 C 4.35 g/m*3 -1.1 C 1.6 km/h
Sensor: Nr:Datum:Temp:Abs-Feuchte:Windchill:Wind:
Aussen-T/F 2951 17-12-2013 06:50:00 -1.1 C 4.35 g/m*3 -1.1 C 0 km/h
2952 17-12-2013 06:55:00 -1.2 C 4.32 g/m*3 -1.2 C 0 km/h
2953 17-12-2013 07:00:00 -1.3 C 4.29 g/m*3 -1.3 C 0 km/h
2954 17-12-2013 07:05:00 -1.3 C 4.29 g/m*3 -1.3 C 0 km/h
2955 17-12-2013 07:10:00 -1.3 C 4.29 g/m*3 -1.3 C 0 km/h
2956 17-12-2013 07:15:00 -1.4 C 4.26 g/m*3 -1.4 C 0 km/h
2957 17-12-2013 07:20:00 -1.4 C 4.26 g/m*3 -1.4 C 0 km/h
2958 17-12-2013 07:25:00 -1.3 C 4.29 g/m*3 -1.3 C 1.6 km/h
2959 17-12-2013 07:30:00 -1.3 C 4.29 g/m*3 -1.3 C 0 km/h
2960 17-12-2013 07:35:00 -1.3 C 4.29 g/m*3 -1.3 C 0 km/h
2961 17-12-2013 07:40:00 -1.3 C 4.29 g/m*3 -1.3 C 1.6 km/h
2962 17-12-2013 07:45:00 -1.4 C 4.26 g/m*3 -1.4 C 3.2 km/h
2963 17-12-2013 07:50:00 -1.4 C 4.26 g/m*3 -1.4 C 3.2 km/h
2964 17-12-2013 07:55:00 -1.4 C 4.26 g/m*3 -1.4 C 0 km/h
2965 17-12-2013 08:00:00 -1.4 C 4.26 g/m*3 -1.4 C 0 km/h
2966 17-12-2013 08:05:00 -1.5 C 4.23 g/m*3 -1.5 C 0 km/h
2967 17-12-2013 08:10:00 -1.5 C 4.23 g/m*3 -1.5 C 0 km/h
2968 17-12-2013 08:15:00 -1.6 C 4.21 g/m*3 -1.6 C 0 km/h
2969 17-12-2013 08:20:00 -1.6 C 4.21 g/m*3 -1.6 C 0 km/h
2970 17-12-2013 08:25:00 -1.6 C 4.21 g/m*3 -1.6 C 0 km/h
2971 17-12-2013 08:30:00 -1.5 C 4.23 g/m*3 -1.5 C 0 km/h
2972 17-12-2013 08:35:00 -1.4 C 4.26 g/m*3 -1.4 C 0 km/h
2973 17-12-2013 08:40:00 -1.4 C 4.26 g/m*3 -1.4 C 0 km/h
2974 17-12-2013 08:45:00 -1.5 C 4.23 g/m*3 -1.5 C 0 km/h
2975 17-12-2013 08:50:00 -1.5 C 4.23 g/m*3 -1.5 C 0 km/h
Sensor: Nr:Datum:Temp:Abs-Feuchte:Windchill:Wind:
Aussen-T/F 2976 17-12-2013 08:55:00 -1.5 C 4.23 g/m*3 -1.5 C 0 km/h
2977 17-12-2013 09:00:00 -1.4 C 4.26 g/m*3 -1.4 C 0 km/h
2978 17-12-2013 09:05:00 -1.3 C 4.29 g/m*3 -1.3 C 0 km/h
2979 17-12-2013 09:10:00 -1.2 C 4.32 g/m*3 -1.2 C 0 km/h
2980 17-12-2013 09:15:00 -1.1 C 4.35 g/m*3 -1.1 C 0 km/h
2981 17-12-2013 09:20:00 -1 C 4.38 g/m*3 -1 C 1.6 km/h
2982 17-12-2013 09:25:00 -0.9 C 4.46 g/m*3 -0.9 C 1.6 km/h
2983 17-12-2013 09:30:00 -0.8 C 4.49 g/m*3 -0.8 C 1.6 km/h
2984 17-12-2013 09:35:00 -0.7 C 4.48 g/m*3 -0.7 C 3.2 km/h
2985 17-12-2013 09:40:00 -0.6 C 4.56 g/m*3 -0.6 C 3.2 km/h
2986 17-12-2013 09:45:00 -0.7 C 4.48 g/m*3 -0.7 C 0 km/h
2987 17-12-2013 09:50:00 -0.8 C 4.45 g/m*3 -0.8 C 0 km/h
2988 17-12-2013 09:55:00 -0.8 C 4.45 g/m*3 -0.8 C 0 km/h
2989 17-12-2013 10:00:00 -0.8 C 4.45 g/m*3 -0.8 C 0 km/h
2990 17-12-2013 10:05:00 -0.8 C 4.45 g/m*3 -0.8 C 0 km/h
2991 17-12-2013 10:10:00 -0.8 C 4.45 g/m*3 -0.8 C 0 km/h
2992 17-12-2013 10:15:00 -0.7 C 4.48 g/m*3 -0.7 C 0 km/h
2993 17-12-2013 10:20:00 -0.7 C 4.48 g/m*3 -0.7 C 0 km/h
2994 17-12-2013 10:25:00 -0.7 C 4.48 g/m*3 -0.7 C 0 km/h
2995 17-12-2013 10:30:00 -0.7 C 4.48 g/m*3 -0.7 C 0 km/h
2996 17-12-2013 10:35:00 -0.6 C 4.51 g/m*3 -0.6 C 0 km/h
2997 17-12-2013 10:40:00 -0.4 C 4.57 g/m*3 -0.4 C 0 km/h
2998 17-12-2013 10:45:00 -0.2 C 4.68 g/m*3 -0.2 C 0 km/h
2999 17-12-2013 10:50:00 0 C 4.75 g/m*3 0 C 0 km/h
3000 17-12-2013 10:55:00 0.3 C 4.85 g/m*3 0.3 C 0 km/h
Sensor: Nr:Datum:Temp:Abs-Feuchte:Windchill:Wind:
Aussen-T/F 3001 17-12-2013 11:00:00 0.6 C 4.95 g/m*3 0.6 C 0 km/h
3002 17-12-2013 11:05:00 0.7 C 4.98 g/m*3 0.7 C 0 km/h
3003 17-12-2013 11:10:00 0.8 C 5.02 g/m*3 0.8 C 0 km/h
3004 17-12-2013 11:15:00 0.9 C 5.05 g/m*3 0.9 C 0 km/h
3005 17-12-2013 11:20:00 1 C 5.09 g/m*3 1 C 0 km/h
3006 17-12-2013 11:25:00 1.1 C 5.12 g/m*3 1.1 C 3.2 km/h
3007 17-12-2013 11:30:00 1.2 C 5.16 g/m*3 1.2 C 1.6 km/h
3008 17-12-2013 11:35:00 1.3 C 5.19 g/m*3 1.3 C 0 km/h
3009 17-12-2013 11:40:00 1.4 C 5.23 g/m*3 1.4 C 3.2 km/h
3010 17-12-2013 11:45:00 1.6 C 5.3 g/m*3 1.6 C 3.2 km/h
3011 17-12-2013 11:50:00 1.7 C 5.34 g/m*3 1.7 C 3.2 km/h
3012 17-12-2013 11:55:00 1.8 C 5.37 g/m*3 1.8 C 4.8 km/h
3013 17-12-2013 12:00:00 1.8 C 5.37 g/m*3 1.8 C 1.6 km/h
3014 17-12-2013 12:05:00 2 C 5.45 g/m*3 2 C 1.6 km/h
3015 17-12-2013 12:10:00 2.3 C 5.56 g/m*3 2.3 C 0 km/h
3016 17-12-2013 12:15:00 2.6 C 5.67 g/m*3 2.6 C 0 km/h
3017 17-12-2013 12:20:00 2.9 C 5.79 g/m*3 2.9 C 0 km/h
3018 17-12-2013 12:25:00 3.1 C 5.87 g/m*3 3.1 C 1.6 km/h
3019 17-12-2013 12:30:00 3.4 C 5.99 g/m*3 3.4 C 1.6 km/h
3020 17-12-2013 12:35:00 3.5 C 6.03 g/m*3 3.5 C 0 km/h
3021 17-12-2013 12:40:00 3.6 C 6.07 g/m*3 3.6 C 0 km/h
3022 17-12-2013 12:45:00 3.7 C 6.11 g/m*3 3.7 C 0 km/h
3023 17-12-2013 12:50:00 3.8 C 6.15 g/m*3 3.8 C 1.6 km/h
3024 17-12-2013 12:55:00 3.8 C 6.15 g/m*3 3.8 C 0 km/h
3025 17-12-2013 13:00:00 3.9 C 6.19 g/m*3 3.9 C 0 km/h
Sensor: Nr:Datum:Temp:Abs-Feuchte:Windchill:Wind:
Aussen-T/F 3026 17-12-2013 13:05:00 4 C 6.23 g/m*3 4 C 1.6 km/h
3027 17-12-2013 13:10:00 4 C 6.17 g/m*3 4 C 0 km/h
3028 17-12-2013 13:15:00 4.1 C 6.21 g/m*3 4.1 C 1.6 km/h
3029 17-12-2013 13:20:00 4.2 C 6.25 g/m*3 4.2 C 3.2 km/h
3030 17-12-2013 13:25:00 4.3 C 6.23 g/m*3 4.3 C 3.2 km/h
3031 17-12-2013 13:30:00 4.4 C 6.27 g/m*3 4.4 C 3.2 km/h
3032 17-12-2013 13:35:00 4.6 C 6.29 g/m*3 4.6 C 4.8 km/h
3033 17-12-2013 13:40:00 4.8 C 6.3 g/m*3 4.8 C 4.8 km/h
3034 17-12-2013 13:45:00 4.9 C 6.28 g/m*3 4.9 C 3.2 km/h
3035 17-12-2013 13:50:00 5 C 6.32 g/m*3 5 C 3.2 km/h
3036 17-12-2013 13:55:00 5.1 C 6.36 g/m*3 5.1 C 4.8 km/h
3037 17-12-2013 14:00:00 5.1 C 6.36 g/m*3 5.1 C 4.8 km/h
3038 17-12-2013 14:05:00 5.2 C 6.33 g/m*3 5.2 C 4.8 km/h
3039 17-12-2013 14:10:00 5.2 C 6.33 g/m*3 5.2 C 3.2 km/h
3040 17-12-2013 14:15:00 5.2 C 6.33 g/m*3 5.2 C 1.6 km/h
3041 17-12-2013 14:20:00 5.3 C 6.31 g/m*3 5.3 C 3.2 km/h
3042 17-12-2013 14:25:00 5.3 C 6.31 g/m*3 5.3 C 1.6 km/h
3043 17-12-2013 14:30:00 5.3 C 6.31 g/m*3 5.3 C 3.2 km/h
3044 17-12-2013 14:35:00 5.5 C 6.39 g/m*3 5.5 C 3.2 km/h
3045 17-12-2013 14:40:00 5.5 C 6.39 g/m*3 5.5 C 1.6 km/h
3046 17-12-2013 14:45:00 5.4 C 6.35 g/m*3 5.4 C 1.6 km/h
3047 17-12-2013 14:50:00 5.4 C 6.35 g/m*3 5.4 C 3.2 km/h
3048 17-12-2013 14:55:00 5.4 C 6.35 g/m*3 5.4 C 3.2 km/h
3049 17-12-2013 15:00:00 5.6 C 6.43 g/m*3 5.6 C 3.2 km/h
3050 17-12-2013 15:05:00 5.7 C 6.4 g/m*3 5.7 C 4.8 km/h
Sensor: Nr:Datum:Temp:Abs-Feuchte:Windchill:Wind:
Aussen-T/F 3051 17-12-2013 15:10:00 5.8 C 6.45 g/m*3 5.8 C 3.2 km/h
3052 17-12-2013 15:15:00 5.9 C 6.42 g/m*3 5.9 C 4.8 km/h
3053 17-12-2013 15:20:00 5.9 C 6.42 g/m*3 5.9 C 4.8 km/h
3054 17-12-2013 15:25:00 5.8 C 6.38 g/m*3 5.8 C 4.8 km/h
3055 17-12-2013 15:30:00 6.1 C 6.43 g/m*3 6.1 C 4.8 km/h
3056 17-12-2013 15:35:00 6.1 C 6.43 g/m*3 6.1 C 4.8 km/h
3057 17-12-2013 15:40:00 5.9 C 6.35 g/m*3 5.9 C 4.8 km/h
3058 17-12-2013 15:45:00 5.9 C 6.42 g/m*3 5.9 C 4.8 km/h
3059 17-12-2013 15:50:00 5.9 C 6.35 g/m*3 5.9 C 4.8 km/h
3060 17-12-2013 15:55:00 5.8 C 6.3 g/m*3 5.8 C 4.8 km/h
3061 17-12-2013 16:00:00 5.7 C 6.26 g/m*3 5.7 C 4.8 km/h
3062 17-12-2013 16:05:00 5.6 C 6.29 g/m*3 5.6 C 4.8 km/h
3063 17-12-2013 16:10:00 5.6 C 6.22 g/m*3 5.6 C 3.2 km/h
3064 17-12-2013 16:15:00 5.6 C 6.22 g/m*3 5.6 C 3.2 km/h
3065 17-12-2013 16:20:00 5.4 C 6.14 g/m*3 5.4 C 4.8 km/h
3066 17-12-2013 16:25:00 5.3 C 6.1 g/m*3 5.3 C 0 km/h
3067 17-12-2013 16:30:00 5.1 C 6.02 g/m*3 5.1 C 0 km/h
3068 17-12-2013 16:35:00 4.9 C 5.94 g/m*3 4.9 C 3.2 km/h
3069 17-12-2013 16:40:00 4.7 C 5.93 g/m*3 4.7 C 3.2 km/h
3070 17-12-2013 16:45:00 4.6 C 5.96 g/m*3 4.6 C 1.6 km/h
3071 17-12-2013 16:50:00 4.5 C 5.98 g/m*3 4.5 C 0 km/h
3072 17-12-2013 16:55:00 4.3 C 5.84 g/m*3 4.3 C 3.2 km/h
3073 17-12-2013 17:00:00 4.3 C 5.9 g/m*3 4.3 C 3.2 km/h
3074 17-12-2013 17:05:00 4.2 C 5.86 g/m*3 4.2 C 0 km/h
3075 17-12-2013 17:10:00 4 C 5.85 g/m*3 4 C 0 km/h
Sensor: Nr:Datum:Temp:Abs-Feuchte:Windchill:Wind:
Aussen-T/F 3076 17-12-2013 17:15:00 3.9 C 5.75 g/m*3 3.9 C 0 km/h
3077 17-12-2013 17:20:00 3.8 C 5.77 g/m*3 3.8 C 1.6 km/h
3078 17-12-2013 17:25:00 3.7 C 5.73 g/m*3 3.7 C 0 km/h
3079 17-12-2013 17:30:00 3.8 C 5.83 g/m*3 3.8 C 3.2 km/h
3080 17-12-2013 17:35:00 3.8 C 5.83 g/m*3 3.8 C 1.6 km/h
3081 17-12-2013 17:40:00 3.8 C 5.77 g/m*3 3.8 C 0 km/h
3082 17-12-2013 17:45:00 3.7 C 5.8 g/m*3 3.7 C 0 km/h
3083 17-12-2013 17:50:00 3.6 C 5.76 g/m*3 3.6 C 1.6 km/h
3084 17-12-2013 17:55:00 3.5 C 5.72 g/m*3 3.5 C 1.6 km/h
3085 17-12-2013 18:00:00 3.5 C 5.72 g/m*3 3.5 C 0 km/h
3086 17-12-2013 18:05:00 3.4 C 5.68 g/m*3 3.4 C 0 km/h
3087 17-12-2013 18:10:00 3.3 C 5.64 g/m*3 3.3 C 0 km/h
3088 17-12-2013 18:15:00 3.2 C 5.6 g/m*3 3.2 C 0 km/h
3089 17-12-2013 18:20:00 3.2 C 5.6 g/m*3 3.2 C 0 km/h
3090 17-12-2013 18:25:00 3.1 C 5.57 g/m*3 3.1 C 0 km/h
3091 17-12-2013 18:30:00 2.9 C 5.49 g/m*3 2.9 C 1.6 km/h
3092 17-12-2013 18:35:00 2.9 C 5.49 g/m*3 2.9 C 1.6 km/h
3093 17-12-2013 18:40:00 2.8 C 5.46 g/m*3 2.8 C 0 km/h
3094 17-12-2013 18:45:00 2.6 C 5.38 g/m*3 2.6 C 0 km/h
3095 17-12-2013 18:50:00 2.6 C 5.44 g/m*3 2.6 C 0 km/h
3096 17-12-2013 18:55:00 2.6 C 5.44 g/m*3 2.6 C 1.6 km/h
3097 17-12-2013 19:00:00 2.5 C 5.4 g/m*3 2.5 C 0 km/h
3098 17-12-2013 19:05:00 2.4 C 5.37 g/m*3 2.4 C 0 km/h
3099 17-12-2013 19:10:00 2.2 C 5.29 g/m*3 2.2 C 0 km/h
3100 17-12-2013 19:15:00 2.3 C 5.33 g/m*3 2.3 C 0 km/h
Sensor: Nr:Datum:Temp:Abs-Feuchte:Windchill:Wind:
Aussen-T/F 3101 17-12-2013 19:20:00 2.4 C 5.42 g/m*3 2.4 C 0 km/h
3102 17-12-2013 19:25:00 2.4 C 5.42 g/m*3 2.4 C 0 km/h
3103 17-12-2013 19:30:00 2.6 C 5.5 g/m*3 2.6 C 0 km/h
3104 17-12-2013 19:35:00 2.5 C 5.4 g/m*3 2.5 C 0 km/h
3105 17-12-2013 19:40:00 2.4 C 5.37 g/m*3 2.4 C 0 km/h
3106 17-12-2013 19:45:00 2.3 C 5.33 g/m*3 2.3 C 0 km/h
3107 17-12-2013 19:50:00 2.2 C 5.29 g/m*3 2.2 C 0 km/h
3108 17-12-2013 19:55:00 2.1 C 5.26 g/m*3 2.1 C 0 km/h
3109 17-12-2013 20:00:00 2.1 C 5.26 g/m*3 2.1 C 0 km/h
3110 17-12-2013 20:05:00 2 C 5.22 g/m*3 2 C 0 km/h
3111 17-12-2013 20:10:00 1.9 C 5.24 g/m*3 1.9 C 0 km/h
3112 17-12-2013 20:15:00 1.8 C 5.21 g/m*3 1.8 C 0 km/h
3113 17-12-2013 20:20:00 1.8 C 5.21 g/m*3 1.8 C 3.2 km/h
3114 17-12-2013 20:25:00 1.7 C 5.17 g/m*3 1.7 C 0 km/h
3115 17-12-2013 20:30:00 1.7 C 5.17 g/m*3 1.7 C 0 km/h
3116 17-12-2013 20:35:00 1.6 C 5.14 g/m*3 1.6 C 0 km/h
3117 17-12-2013 20:40:00 1.5 C 5.1 g/m*3 1.5 C 0 km/h
3118 17-12-2013 20:45:00 1.4 C 5.07 g/m*3 1.4 C 0 km/h
3119 17-12-2013 20:50:00 1.3 C 5.03 g/m*3 1.3 C 0 km/h
3120 17-12-2013 20:55:00 1.2 C 5 g/m*3 1.2 C 0 km/h
3121 17-12-2013 21:00:00 1.2 C 5 g/m*3 1.2 C 0 km/h
3122 17-12-2013 21:05:00 1.2 C 5.05 g/m*3 1.2 C 0 km/h
3123 17-12-2013 21:10:00 1.2 C 5 g/m*3 1.2 C 0 km/h
3124 17-12-2013 21:15:00 1.2 C 5.05 g/m*3 1.2 C 0 km/h
3125 17-12-2013 21:20:00 1.2 C 5.05 g/m*3 1.2 C 0 km/h
Sensor: Nr:Datum:Temp:Abs-Feuchte:Windchill:Wind:
Aussen-T/F 3126 17-12-2013 21:25:00 1.1 C 5.02 g/m*3 1.1 C 0 km/h
3127 17-12-2013 21:30:00 1.1 C 5.02 g/m*3 1.1 C 0 km/h
3128 17-12-2013 21:35:00 1 C 4.98 g/m*3 1 C 0 km/h
3129 17-12-2013 21:40:00 1 C 4.98 g/m*3 1 C 0 km/h
3130 17-12-2013 21:45:00 1 C 4.98 g/m*3 1 C 0 km/h
3131 17-12-2013 21:50:00 0.9 C 4.95 g/m*3 0.9 C 0 km/h
3132 17-12-2013 21:55:00 0.9 C 4.95 g/m*3 0.9 C 0 km/h
3133 17-12-2013 22:00:00 0.9 C 4.95 g/m*3 0.9 C 0 km/h
3134 17-12-2013 22:05:00 0.9 C 4.95 g/m*3 0.9 C 0 km/h
3135 17-12-2013 22:10:00 0.9 C 4.95 g/m*3 0.9 C 0 km/h
3136 17-12-2013 22:15:00 0.9 C 4.95 g/m*3 0.9 C 0 km/h
3137 17-12-2013 22:20:00 0.9 C 4.95 g/m*3 0.9 C 0 km/h
3138 17-12-2013 22:25:00 0.9 C 4.95 g/m*3 0.9 C 0 km/h
3139 17-12-2013 22:30:00 1 C 5.03 g/m*3 1 C 1.6 km/h
3140 17-12-2013 22:35:00 1.1 C 5.02 g/m*3 1.1 C 3.2 km/h
3141 17-12-2013 22:40:00 1.1 C 5.07 g/m*3 1.1 C 1.6 km/h
3142 17-12-2013 22:45:00 1.2 C 5.1 g/m*3 1.2 C 0 km/h
3143 17-12-2013 22:50:00 1.1 C 5.02 g/m*3 1.1 C 0 km/h
3144 17-12-2013 22:55:00 1 C 4.98 g/m*3 1 C 0 km/h
3145 17-12-2013 23:00:00 0.9 C 4.95 g/m*3 0.9 C 0 km/h
3146 17-12-2013 23:05:00 0.8 C 4.91 g/m*3 0.8 C 0 km/h
3147 17-12-2013 23:10:00 0.8 C 4.91 g/m*3 0.8 C 0 km/h
3148 17-12-2013 23:15:00 0.7 C 4.88 g/m*3 0.7 C 0 km/h
3149 17-12-2013 23:20:00 0.6 C 4.85 g/m*3 0.6 C 0 km/h
3150 17-12-2013 23:25:00 0.6 C 4.85 g/m*3 0.6 C 0 km/h
Sensor: Nr:Datum:Temp:Abs-Feuchte:Windchill:Wind:
Aussen-T/F 3151 17-12-2013 23:30:00 0.6 C 4.85 g/m*3 0.6 C 0 km/h
3152 17-12-2013 23:35:00 0.5 C 4.81 g/m*3 0.5 C 0 km/h
3153 17-12-2013 23:40:00 0.6 C 4.9 g/m*3 0.6 C 0 km/h
3154 17-12-2013 23:45:00 0.5 C 4.86 g/m*3 0.5 C 0 km/h
3155 17-12-2013 23:50:00 0.4 C 4.78 g/m*3 0.4 C 0 km/h
3156 17-12-2013 23:55:00 0.4 C 4.83 g/m*3 0.4 C 0 km/h
3157 18-12-2013 00:00:00 0.5 C 4.86 g/m*3 0.5 C 0 km/h
3158 18-12-2013 00:05:00 0.4 C 4.83 g/m*3 0.4 C 0 km/h
3159 18-12-2013 00:10:00 0.4 C 4.83 g/m*3 0.4 C 0 km/h
3160 18-12-2013 00:15:00 0.4 C 4.83 g/m*3 0.4 C 0 km/h
3161 18-12-2013 00:20:00 0.4 C 4.83 g/m*3 0.4 C 0 km/h
3162 18-12-2013 00:25:00 0.3 C 4.8 g/m*3 0.3 C 0 km/h
3163 18-12-2013 00:30:00 0.4 C 4.83 g/m*3 0.4 C 0 km/h
3164 18-12-2013 00:35:00 0.3 C 4.8 g/m*3 0.3 C 1.6 km/h
3165 18-12-2013 00:40:00 0.3 C 4.8 g/m*3 0.3 C 0 km/h
3166 18-12-2013 00:45:00 0.3 C 4.8 g/m*3 0.3 C 0 km/h
3167 18-12-2013 00:50:00 0.3 C 4.8 g/m*3 0.3 C 0 km/h
3168 18-12-2013 00:55:00 0.3 C 4.8 g/m*3 0.3 C 0 km/h
3169 18-12-2013 01:00:00 0.3 C 4.8 g/m*3 0.3 C 0 km/h
3170 18-12-2013 01:05:00 0.3 C 4.8 g/m*3 0.3 C 0 km/h
3171 18-12-2013 01:10:00 0.3 C 4.8 g/m*3 0.3 C 0 km/h
3172 18-12-2013 01:15:00 0.3 C 4.8 g/m*3 0.3 C 0 km/h
3173 18-12-2013 01:20:00 0.3 C 4.8 g/m*3 0.3 C 0 km/h
3174 18-12-2013 01:25:00 0.4 C 4.83 g/m*3 0.4 C 0 km/h
3175 18-12-2013 01:30:00 0.4 C 4.83 g/m*3 0.4 C 0 km/h
Sensor: Nr:Datum:Temp:Abs-Feuchte:Windchill:Wind:
Aussen-T/F 3176 18-12-2013 01:35:00 0.4 C 4.83 g/m*3 0.4 C 0 km/h
3177 18-12-2013 01:40:00 0.4 C 4.83 g/m*3 0.4 C 0 km/h
3178 18-12-2013 01:45:00 0.5 C 4.86 g/m*3 0.5 C 0 km/h
3179 18-12-2013 01:50:00 0.6 C 4.9 g/m*3 0.6 C 0 km/h
3180 18-12-2013 01:55:00 0.6 C 4.9 g/m*3 0.6 C 0 km/h
3181 18-12-2013 02:00:00 0.6 C 4.9 g/m*3 0.6 C 0 km/h
3182 18-12-2013 02:05:00 0.7 C 4.93 g/m*3 0.7 C 1.6 km/h
3183 18-12-2013 02:10:00 0.7 C 4.93 g/m*3 0.7 C 0 km/h
3184 18-12-2013 02:15:00 0.7 C 4.93 g/m*3 0.7 C 0 km/h
3185 18-12-2013 02:20:00 0.8 C 4.97 g/m*3 0.8 C 0 km/h
3186 18-12-2013 02:25:00 0.8 C 4.97 g/m*3 0.8 C 0 km/h
3187 18-12-2013 02:30:00 0.8 C 4.97 g/m*3 0.8 C 0 km/h
3188 18-12-2013 02:35:00 0.8 C 4.97 g/m*3 0.8 C 0 km/h
3189 18-12-2013 02:40:00 0.8 C 4.97 g/m*3 0.8 C 0 km/h
3190 18-12-2013 02:45:00 0.8 C 4.97 g/m*3 0.8 C 0 km/h
3191 18-12-2013 02:50:00 0.8 C 4.97 g/m*3 0.8 C 0 km/h
3192 18-12-2013 02:55:00 0.8 C 4.97 g/m*3 0.8 C 1.6 km/h
3193 18-12-2013 03:00:00 0.9 C 5 g/m*3 0.9 C 1.6 km/h
3194 18-12-2013 03:05:00 1 C 5.03 g/m*3 1 C 0 km/h
3195 18-12-2013 03:10:00 1 C 5.03 g/m*3 1 C 0 km/h
3196 18-12-2013 03:15:00 1 C 5.03 g/m*3 1 C 0 km/h
3197 18-12-2013 03:20:00 1 C 5.03 g/m*3 1 C 0 km/h
3198 18-12-2013 03:25:00 1 C 5.03 g/m*3 1 C 0 km/h
3199 18-12-2013 03:30:00 1.1 C 5.07 g/m*3 1.1 C 0 km/h
3200 18-12-2013 03:35:00 1.1 C 5.07 g/m*3 1.1 C 0 km/h
Sensor: Nr:Datum:Temp:Abs-Feuchte:Windchill:Wind:
Aussen-T/F 3201 18-12-2013 03:40:00 1.1 C 5.07 g/m*3 1.1 C 0 km/h
3202 18-12-2013 03:45:00 1.1 C 5.07 g/m*3 1.1 C 0 km/h
3203 18-12-2013 03:50:00 1.1 C 5.07 g/m*3 1.1 C 0 km/h
3204 18-12-2013 03:55:00 1.1 C 5.07 g/m*3 1.1 C 0 km/h
3205 18-12-2013 04:00:00 1.1 C 5.07 g/m*3 1.1 C 0 km/h
3206 18-12-2013 04:05:00 1.2 C 5.1 g/m*3 1.2 C 0 km/h
3207 18-12-2013 04:10:00 1.2 C 5.1 g/m*3 1.2 C 0 km/h
3208 18-12-2013 04:15:00 1.2 C 5.1 g/m*3 1.2 C 0 km/h
3209 18-12-2013 04:20:00 1.2 C 5.1 g/m*3 1.2 C 0 km/h
3210 18-12-2013 04:25:00 1.2 C 5.1 g/m*3 1.2 C 0 km/h
3211 18-12-2013 04:30:00 1.2 C 5.1 g/m*3 1.2 C 0 km/h
3212 18-12-2013 04:35:00 1.2 C 5.1 g/m*3 1.2 C 0 km/h
3213 18-12-2013 04:40:00 1.2 C 5.1 g/m*3 1.2 C 0 km/h
3214 18-12-2013 04:45:00 1.2 C 5.1 g/m*3 1.2 C 0 km/h
3215 18-12-2013 04:50:00 1.2 C 5.1 g/m*3 1.2 C 0 km/h
3216 18-12-2013 04:55:00 1.3 C 5.14 g/m*3 1.3 C 0 km/h
3217 18-12-2013 05:00:00 1.3 C 5.14 g/m*3 1.3 C 0 km/h
3218 18-12-2013 05:05:00 1.4 C 5.17 g/m*3 1.4 C 0 km/h
3219 18-12-2013 05:10:00 1.4 C 5.17 g/m*3 1.4 C 0 km/h
3220 18-12-2013 05:15:00 1.4 C 5.17 g/m*3 1.4 C 0 km/h
3221 18-12-2013 05:20:00 1.4 C 5.17 g/m*3 1.4 C 0 km/h
3222 18-12-2013 05:25:00 1.4 C 5.17 g/m*3 1.4 C 0 km/h
3223 18-12-2013 05:30:00 1.5 C 5.21 g/m*3 1.5 C 0 km/h
3224 18-12-2013 05:35:00 1.6 C 5.3 g/m*3 1.6 C 0 km/h
3225 18-12-2013 05:40:00 1.6 C 5.3 g/m*3 1.6 C 0 km/h
Sensor: Nr:Datum:Temp:Abs-Feuchte:Windchill:Wind:
Aussen-T/F 3226 18-12-2013 05:45:00 1.6 C 5.3 g/m*3 1.6 C 0 km/h
3227 18-12-2013 05:50:00 1.6 C 5.25 g/m*3 1.6 C 0 km/h
3228 18-12-2013 05:55:00 1.7 C 5.28 g/m*3 1.7 C 1.6 km/h
3229 18-12-2013 06:00:00 1.7 C 5.28 g/m*3 1.7 C 0 km/h
3230 18-12-2013 06:05:00 1.7 C 5.28 g/m*3 1.7 C 3.2 km/h
3231 18-12-2013 06:10:00 1.8 C 5.37 g/m*3 1.8 C 3.2 km/h